<?xml version="1.0" encoding="UTF-8" standalone="no" ?>
<gpx xmlns="http://www.topografix.com/GPX/1/1" xmlns:xsi="http://www.w3.org/2001/XMLSchema-instance" xsi:schemaLocation="http://www.topografix.com/GPX/1/1 http://www.topografix.com/GPX/1/1/gpx.xsd" version="1.1" creator="VisuGPX - https://www.visugpx.com">
  <metadata>
    <name>Permis moto 3ème et 4ème heure</name>
    <desc><![CDATA[Permis moto
3ème et 4ème heure
Moto : Yahamah MT-07]]></desc>
  </metadata>
  <trk>
    <name><![CDATA[Track 008]]></name>
    <desc><![CDATA[16 Nov 2018 10:15 am]]></desc>
    <trkseg>
      <trkpt lat="43.75823" lon="7.19961">
        <ele>61.526</ele>
        <time>2018-11-16T09:15:07.330Z</time>
      </trkpt>
      <trkpt lat="43.75823" lon="7.19961">
        <ele>61.615</ele>
        <time>2018-11-16T09:16:27.307Z</time>
      </trkpt>
      <trkpt lat="43.75836" lon="7.19984">
        <ele>61.706</ele>
        <time>2018-11-16T09:16:42.028Z</time>
      </trkpt>
      <trkpt lat="43.75843" lon="7.19991">
        <ele>61.824</ele>
        <time>2018-11-16T09:16:43.219Z</time>
      </trkpt>
      <trkpt lat="43.75871" lon="7.20028">
        <ele>62.121</ele>
        <time>2018-11-16T09:16:46.686Z</time>
      </trkpt>
      <trkpt lat="43.75923" lon="7.20062">
        <ele>62.563</ele>
        <time>2018-11-16T09:16:50.547Z</time>
      </trkpt>
      <trkpt lat="43.75961" lon="7.201">
        <ele>62.752</ele>
        <time>2018-11-16T09:16:53.691Z</time>
      </trkpt>
      <trkpt lat="43.75994" lon="7.2013">
        <ele>62.367</ele>
        <time>2018-11-16T09:16:56.487Z</time>
      </trkpt>
      <trkpt lat="43.76026" lon="7.20163">
        <ele>61.637</ele>
        <time>2018-11-16T09:16:59.444Z</time>
      </trkpt>
      <trkpt lat="43.76064" lon="7.20189">
        <ele>60.986</ele>
        <time>2018-11-16T09:17:02.779Z</time>
      </trkpt>
      <trkpt lat="43.76093" lon="7.2022">
        <ele>60.542</ele>
        <time>2018-11-16T09:17:05.856Z</time>
      </trkpt>
      <trkpt lat="43.76121" lon="7.20251">
        <ele>60.275</ele>
        <time>2018-11-16T09:17:08.774Z</time>
      </trkpt>
      <trkpt lat="43.76152" lon="7.20276">
        <ele>60.159</ele>
        <time>2018-11-16T09:17:11.691Z</time>
      </trkpt>
      <trkpt lat="43.7618" lon="7.20304">
        <ele>60.144</ele>
        <time>2018-11-16T09:17:14.370Z</time>
      </trkpt>
      <trkpt lat="43.76212" lon="7.20337">
        <ele>60.304</ele>
        <time>2018-11-16T09:17:17.194Z</time>
      </trkpt>
      <trkpt lat="43.76243" lon="7.20373">
        <ele>60.724</ele>
        <time>2018-11-16T09:17:20.142Z</time>
      </trkpt>
      <trkpt lat="43.76274" lon="7.20406">
        <ele>61.222</ele>
        <time>2018-11-16T09:17:23.112Z</time>
      </trkpt>
      <trkpt lat="43.76303" lon="7.20435">
        <ele>61.667</ele>
        <time>2018-11-16T09:17:25.852Z</time>
      </trkpt>
      <trkpt lat="43.76333" lon="7.20466">
        <ele>62.177</ele>
        <time>2018-11-16T09:17:28.745Z</time>
      </trkpt>
      <trkpt lat="43.76362" lon="7.20495">
        <ele>62.724</ele>
        <time>2018-11-16T09:17:32.522Z</time>
      </trkpt>
      <trkpt lat="43.76378" lon="7.20511">
        <ele>63.145</ele>
        <time>2018-11-16T09:17:36.740Z</time>
      </trkpt>
      <trkpt lat="43.76388" lon="7.20518">
        <ele>63.386</ele>
        <time>2018-11-16T09:17:39.938Z</time>
      </trkpt>
      <trkpt lat="43.76395" lon="7.20527">
        <ele>63.478</ele>
        <time>2018-11-16T09:17:42.565Z</time>
      </trkpt>
      <trkpt lat="43.76406" lon="7.20527">
        <ele>63.338</ele>
        <time>2018-11-16T09:17:44.977Z</time>
      </trkpt>
      <trkpt lat="43.76417" lon="7.20506">
        <ele>62.91</ele>
        <time>2018-11-16T09:17:47.384Z</time>
      </trkpt>
      <trkpt lat="43.76433" lon="7.20478">
        <ele>62.442</ele>
        <time>2018-11-16T09:17:50.321Z</time>
      </trkpt>
      <trkpt lat="43.76449" lon="7.20449">
        <ele>62.192</ele>
        <time>2018-11-16T09:17:53.183Z</time>
      </trkpt>
      <trkpt lat="43.76466" lon="7.20421">
        <ele>62.142</ele>
        <time>2018-11-16T09:17:55.892Z</time>
      </trkpt>
      <trkpt lat="43.7648" lon="7.20378">
        <ele>62.194</ele>
        <time>2018-11-16T09:17:58.863Z</time>
      </trkpt>
      <trkpt lat="43.76501" lon="7.20337">
        <ele>62.283</ele>
        <time>2018-11-16T09:18:01.734Z</time>
      </trkpt>
      <trkpt lat="43.76525" lon="7.20293">
        <ele>62.428</ele>
        <time>2018-11-16T09:18:04.630Z</time>
      </trkpt>
      <trkpt lat="43.7655" lon="7.20249">
        <ele>62.69</ele>
        <time>2018-11-16T09:18:07.579Z</time>
      </trkpt>
      <trkpt lat="43.76572" lon="7.2021">
        <ele>63.056</ele>
        <time>2018-11-16T09:18:10.468Z</time>
      </trkpt>
      <trkpt lat="43.76589" lon="7.20179">
        <ele>63.472</ele>
        <time>2018-11-16T09:18:13.368Z</time>
      </trkpt>
      <trkpt lat="43.76602" lon="7.20161">
        <ele>63.921</ele>
        <time>2018-11-16T09:18:16.008Z</time>
      </trkpt>
      <trkpt lat="43.76609" lon="7.20153">
        <ele>64.37</ele>
        <time>2018-11-16T09:18:17.996Z</time>
      </trkpt>
      <trkpt lat="43.76609" lon="7.20153">
        <ele>64.723</ele>
        <time>2018-11-16T09:18:21.996Z</time>
      </trkpt>
      <trkpt lat="43.76609" lon="7.20153">
        <ele>64.873</ele>
        <time>2018-11-16T09:18:27.503Z</time>
      </trkpt>
      <trkpt lat="43.7663" lon="7.20152">
        <ele>64.778</ele>
        <time>2018-11-16T09:18:33.943Z</time>
      </trkpt>
      <trkpt lat="43.76648" lon="7.2014">
        <ele>64.592</ele>
        <time>2018-11-16T09:18:37.384Z</time>
      </trkpt>
      <trkpt lat="43.76656" lon="7.20114">
        <ele>64.555</ele>
        <time>2018-11-16T09:18:40.643Z</time>
      </trkpt>
      <trkpt lat="43.7665" lon="7.20086">
        <ele>64.855</ele>
        <time>2018-11-16T09:18:43.706Z</time>
      </trkpt>
      <trkpt lat="43.76627" lon="7.2008">
        <ele>65.428</ele>
        <time>2018-11-16T09:18:46.542Z</time>
      </trkpt>
      <trkpt lat="43.76598" lon="7.20085">
        <ele>65.764</ele>
        <time>2018-11-16T09:18:49.137Z</time>
      </trkpt>
      <trkpt lat="43.76561" lon="7.20059">
        <ele>65.416</ele>
        <time>2018-11-16T09:18:51.933Z</time>
      </trkpt>
      <trkpt lat="43.76516" lon="7.20016">
        <ele>64.621</ele>
        <time>2018-11-16T09:18:54.990Z</time>
      </trkpt>
      <trkpt lat="43.76469" lon="7.19966">
        <ele>63.904</ele>
        <time>2018-11-16T09:18:57.958Z</time>
      </trkpt>
      <trkpt lat="43.76419" lon="7.19907">
        <ele>63.513</ele>
        <time>2018-11-16T09:19:01.110Z</time>
      </trkpt>
      <trkpt lat="43.76366" lon="7.19856">
        <ele>63.391</ele>
        <time>2018-11-16T09:19:04.224Z</time>
      </trkpt>
      <trkpt lat="43.76313" lon="7.19819">
        <ele>63.293</ele>
        <time>2018-11-16T09:19:07.143Z</time>
      </trkpt>
      <trkpt lat="43.7626" lon="7.19781">
        <ele>63.011</ele>
        <time>2018-11-16T09:19:10.060Z</time>
      </trkpt>
      <trkpt lat="43.76207" lon="7.1973">
        <ele>62.554</ele>
        <time>2018-11-16T09:19:13.087Z</time>
      </trkpt>
      <trkpt lat="43.76152" lon="7.19676">
        <ele>62.027</ele>
        <time>2018-11-16T09:19:16.136Z</time>
      </trkpt>
      <trkpt lat="43.76097" lon="7.19623">
        <ele>61.512</ele>
        <time>2018-11-16T09:19:19.107Z</time>
      </trkpt>
      <trkpt lat="43.76043" lon="7.19566">
        <ele>61.083</ele>
        <time>2018-11-16T09:19:22.045Z</time>
      </trkpt>
      <trkpt lat="43.75991" lon="7.19502">
        <ele>60.76</ele>
        <time>2018-11-16T09:19:25.082Z</time>
      </trkpt>
      <trkpt lat="43.75943" lon="7.19434">
        <ele>60.529</ele>
        <time>2018-11-16T09:19:28.129Z</time>
      </trkpt>
      <trkpt lat="43.75892" lon="7.19376">
        <ele>60.37</ele>
        <time>2018-11-16T09:19:31.105Z</time>
      </trkpt>
      <trkpt lat="43.75837" lon="7.1933">
        <ele>60.258</ele>
        <time>2018-11-16T09:19:34.098Z</time>
      </trkpt>
      <trkpt lat="43.75782" lon="7.19283">
        <ele>60.179</ele>
        <time>2018-11-16T09:19:37.097Z</time>
      </trkpt>
      <trkpt lat="43.75728" lon="7.1924">
        <ele>60.118</ele>
        <time>2018-11-16T09:19:40.036Z</time>
      </trkpt>
      <trkpt lat="43.75673" lon="7.19196">
        <ele>60.07</ele>
        <time>2018-11-16T09:19:43.031Z</time>
      </trkpt>
      <trkpt lat="43.75619" lon="7.19158">
        <ele>60.026</ele>
        <time>2018-11-16T09:19:45.908Z</time>
      </trkpt>
      <trkpt lat="43.75565" lon="7.19115">
        <ele>59.95</ele>
        <time>2018-11-16T09:19:48.818Z</time>
      </trkpt>
      <trkpt lat="43.75507" lon="7.19074">
        <ele>59.762</ele>
        <time>2018-11-16T09:19:51.850Z</time>
      </trkpt>
      <trkpt lat="43.7545" lon="7.19038">
        <ele>59.469</ele>
        <time>2018-11-16T09:19:54.778Z</time>
      </trkpt>
      <trkpt lat="43.75396" lon="7.18991">
        <ele>59.174</ele>
        <time>2018-11-16T09:19:57.754Z</time>
      </trkpt>
      <trkpt lat="43.7534" lon="7.18942">
        <ele>58.883</ele>
        <time>2018-11-16T09:20:00.813Z</time>
      </trkpt>
      <trkpt lat="43.75286" lon="7.18885">
        <ele>58.485</ele>
        <time>2018-11-16T09:20:03.905Z</time>
      </trkpt>
      <trkpt lat="43.75232" lon="7.18831">
        <ele>57.946</ele>
        <time>2018-11-16T09:20:06.968Z</time>
      </trkpt>
      <trkpt lat="43.7518" lon="7.18779">
        <ele>57.369</ele>
        <time>2018-11-16T09:20:09.900Z</time>
      </trkpt>
      <trkpt lat="43.7513" lon="7.18722">
        <ele>56.879</ele>
        <time>2018-11-16T09:20:12.854Z</time>
      </trkpt>
      <trkpt lat="43.75078" lon="7.18666">
        <ele>56.516</ele>
        <time>2018-11-16T09:20:15.873Z</time>
      </trkpt>
      <trkpt lat="43.75029" lon="7.18609">
        <ele>56.248</ele>
        <time>2018-11-16T09:20:18.854Z</time>
      </trkpt>
      <trkpt lat="43.74977" lon="7.18561">
        <ele>55.984</ele>
        <time>2018-11-16T09:20:21.767Z</time>
      </trkpt>
      <trkpt lat="43.74924" lon="7.18509">
        <ele>55.664</ele>
        <time>2018-11-16T09:20:24.820Z</time>
      </trkpt>
      <trkpt lat="43.7487" lon="7.18461">
        <ele>55.223</ele>
        <time>2018-11-16T09:20:27.823Z</time>
      </trkpt>
      <trkpt lat="43.74815" lon="7.1842">
        <ele>54.594</ele>
        <time>2018-11-16T09:20:30.746Z</time>
      </trkpt>
      <trkpt lat="43.74759" lon="7.18376">
        <ele>53.851</ele>
        <time>2018-11-16T09:20:33.771Z</time>
      </trkpt>
      <trkpt lat="43.74706" lon="7.18327">
        <ele>53.165</ele>
        <time>2018-11-16T09:20:36.796Z</time>
      </trkpt>
      <trkpt lat="43.74654" lon="7.18285">
        <ele>52.573</ele>
        <time>2018-11-16T09:20:39.735Z</time>
      </trkpt>
      <trkpt lat="43.74599" lon="7.18251">
        <ele>52.084</ele>
        <time>2018-11-16T09:20:42.621Z</time>
      </trkpt>
      <trkpt lat="43.74543" lon="7.18216">
        <ele>51.74</ele>
        <time>2018-11-16T09:20:45.586Z</time>
      </trkpt>
      <trkpt lat="43.74485" lon="7.18185">
        <ele>51.477</ele>
        <time>2018-11-16T09:20:48.608Z</time>
      </trkpt>
      <trkpt lat="43.7443" lon="7.18153">
        <ele>51.12</ele>
        <time>2018-11-16T09:20:51.495Z</time>
      </trkpt>
      <trkpt lat="43.74372" lon="7.18126">
        <ele>50.557</ele>
        <time>2018-11-16T09:20:54.490Z</time>
      </trkpt>
      <trkpt lat="43.74313" lon="7.18102">
        <ele>49.845</ele>
        <time>2018-11-16T09:20:57.523Z</time>
      </trkpt>
      <trkpt lat="43.74252" lon="7.18078">
        <ele>49.159</ele>
        <time>2018-11-16T09:21:00.594Z</time>
      </trkpt>
      <trkpt lat="43.74192" lon="7.18061">
        <ele>48.656</ele>
        <time>2018-11-16T09:21:03.543Z</time>
      </trkpt>
      <trkpt lat="43.74126" lon="7.18046">
        <ele>48.366</ele>
        <time>2018-11-16T09:21:06.619Z</time>
      </trkpt>
      <trkpt lat="43.74055" lon="7.18028">
        <ele>48.182</ele>
        <time>2018-11-16T09:21:09.638Z</time>
      </trkpt>
      <trkpt lat="43.73975" lon="7.18004">
        <ele>48.013</ele>
        <time>2018-11-16T09:21:12.791Z</time>
      </trkpt>
      <trkpt lat="43.73896" lon="7.17994">
        <ele>47.855</ele>
        <time>2018-11-16T09:21:15.766Z</time>
      </trkpt>
      <trkpt lat="43.73815" lon="7.17995">
        <ele>47.713</ele>
        <time>2018-11-16T09:21:18.767Z</time>
      </trkpt>
      <trkpt lat="43.73738" lon="7.17997">
        <ele>47.565</ele>
        <time>2018-11-16T09:21:21.622Z</time>
      </trkpt>
      <trkpt lat="43.73658" lon="7.17999">
        <ele>47.276</ele>
        <time>2018-11-16T09:21:24.652Z</time>
      </trkpt>
      <trkpt lat="43.73581" lon="7.18007">
        <ele>46.692</ele>
        <time>2018-11-16T09:21:27.595Z</time>
      </trkpt>
      <trkpt lat="43.73528" lon="7.1801">
        <ele>45.882</ele>
        <time>2018-11-16T09:21:29.617Z</time>
      </trkpt>
      <trkpt lat="43.73474" lon="7.1802">
        <ele>45.074</ele>
        <time>2018-11-16T09:21:31.652Z</time>
      </trkpt>
      <trkpt lat="43.73423" lon="7.1803">
        <ele>44.44</ele>
        <time>2018-11-16T09:21:33.637Z</time>
      </trkpt>
      <trkpt lat="43.7337" lon="7.18036">
        <ele>44.047</ele>
        <time>2018-11-16T09:21:35.632Z</time>
      </trkpt>
      <trkpt lat="43.73319" lon="7.18043">
        <ele>43.83</ele>
        <time>2018-11-16T09:21:37.608Z</time>
      </trkpt>
      <trkpt lat="43.73263" lon="7.18052">
        <ele>43.643</ele>
        <time>2018-11-16T09:21:39.708Z</time>
      </trkpt>
      <trkpt lat="43.73211" lon="7.18062">
        <ele>43.418</ele>
        <time>2018-11-16T09:21:41.681Z</time>
      </trkpt>
      <trkpt lat="43.73157" lon="7.18066">
        <ele>43.213</ele>
        <time>2018-11-16T09:21:43.683Z</time>
      </trkpt>
      <trkpt lat="43.73103" lon="7.18076">
        <ele>43.073</ele>
        <time>2018-11-16T09:21:45.671Z</time>
      </trkpt>
      <trkpt lat="43.7305" lon="7.18078">
        <ele>42.932</ele>
        <time>2018-11-16T09:21:47.638Z</time>
      </trkpt>
      <trkpt lat="43.72993" lon="7.18083">
        <ele>42.679</ele>
        <time>2018-11-16T09:21:49.690Z</time>
      </trkpt>
      <trkpt lat="43.72938" lon="7.18091">
        <ele>42.255</ele>
        <time>2018-11-16T09:21:51.700Z</time>
      </trkpt>
      <trkpt lat="43.72883" lon="7.18104">
        <ele>41.706</ele>
        <time>2018-11-16T09:21:53.706Z</time>
      </trkpt>
      <trkpt lat="43.72828" lon="7.18112">
        <ele>41.154</ele>
        <time>2018-11-16T09:21:55.686Z</time>
      </trkpt>
      <trkpt lat="43.72772" lon="7.1812">
        <ele>40.688</ele>
        <time>2018-11-16T09:21:57.706Z</time>
      </trkpt>
      <trkpt lat="43.72717" lon="7.18125">
        <ele>40.326</ele>
        <time>2018-11-16T09:21:59.733Z</time>
      </trkpt>
      <trkpt lat="43.72665" lon="7.18136">
        <ele>40.001</ele>
        <time>2018-11-16T09:22:01.690Z</time>
      </trkpt>
      <trkpt lat="43.72613" lon="7.18144">
        <ele>39.629</ele>
        <time>2018-11-16T09:22:03.627Z</time>
      </trkpt>
      <trkpt lat="43.72558" lon="7.18147">
        <ele>39.231</ele>
        <time>2018-11-16T09:22:05.635Z</time>
      </trkpt>
      <trkpt lat="43.72504" lon="7.18154">
        <ele>38.925</ele>
        <time>2018-11-16T09:22:07.639Z</time>
      </trkpt>
      <trkpt lat="43.72449" lon="7.1816">
        <ele>38.707</ele>
        <time>2018-11-16T09:22:09.663Z</time>
      </trkpt>
      <trkpt lat="43.72371" lon="7.18174">
        <ele>38.482</ele>
        <time>2018-11-16T09:22:12.608Z</time>
      </trkpt>
      <trkpt lat="43.72292" lon="7.1819">
        <ele>38.171</ele>
        <time>2018-11-16T09:22:15.634Z</time>
      </trkpt>
      <trkpt lat="43.72212" lon="7.18204">
        <ele>37.69</ele>
        <time>2018-11-16T09:22:18.625Z</time>
      </trkpt>
      <trkpt lat="43.7213" lon="7.18213">
        <ele>37.049</ele>
        <time>2018-11-16T09:22:21.628Z</time>
      </trkpt>
      <trkpt lat="43.7205" lon="7.18221">
        <ele>36.324</ele>
        <time>2018-11-16T09:22:24.616Z</time>
      </trkpt>
      <trkpt lat="43.71968" lon="7.18229">
        <ele>35.539</ele>
        <time>2018-11-16T09:22:27.623Z</time>
      </trkpt>
      <trkpt lat="43.71887" lon="7.18238">
        <ele>34.694</ele>
        <time>2018-11-16T09:22:30.640Z</time>
      </trkpt>
      <trkpt lat="43.71804" lon="7.18255">
        <ele>33.882</ele>
        <time>2018-11-16T09:22:33.682Z</time>
      </trkpt>
      <trkpt lat="43.71725" lon="7.18269">
        <ele>33.247</ele>
        <time>2018-11-16T09:22:36.604Z</time>
      </trkpt>
      <trkpt lat="43.71642" lon="7.18278">
        <ele>32.848</ele>
        <time>2018-11-16T09:22:39.645Z</time>
      </trkpt>
      <trkpt lat="43.7156" lon="7.18281">
        <ele>32.655</ele>
        <time>2018-11-16T09:22:42.642Z</time>
      </trkpt>
      <trkpt lat="43.71479" lon="7.18291">
        <ele>32.687</ele>
        <time>2018-11-16T09:22:45.569Z</time>
      </trkpt>
      <trkpt lat="43.71398" lon="7.18308">
        <ele>32.952</ele>
        <time>2018-11-16T09:22:48.566Z</time>
      </trkpt>
      <trkpt lat="43.71319" lon="7.18319">
        <ele>33.358</ele>
        <time>2018-11-16T09:22:51.510Z</time>
      </trkpt>
      <trkpt lat="43.71241" lon="7.18331">
        <ele>33.721</ele>
        <time>2018-11-16T09:22:54.474Z</time>
      </trkpt>
      <trkpt lat="43.71165" lon="7.18343">
        <ele>33.873</ele>
        <time>2018-11-16T09:22:57.385Z</time>
      </trkpt>
      <trkpt lat="43.71085" lon="7.18358">
        <ele>33.762</ele>
        <time>2018-11-16T09:23:00.454Z</time>
      </trkpt>
      <trkpt lat="43.7101" lon="7.18377">
        <ele>33.419</ele>
        <time>2018-11-16T09:23:03.350Z</time>
      </trkpt>
      <trkpt lat="43.7093" lon="7.18397">
        <ele>32.875</ele>
        <time>2018-11-16T09:23:06.408Z</time>
      </trkpt>
      <trkpt lat="43.70851" lon="7.18412">
        <ele>32.102</ele>
        <time>2018-11-16T09:23:09.338Z</time>
      </trkpt>
      <trkpt lat="43.70768" lon="7.18431">
        <ele>31.052</ele>
        <time>2018-11-16T09:23:12.412Z</time>
      </trkpt>
      <trkpt lat="43.70689" lon="7.18442">
        <ele>29.759</ele>
        <time>2018-11-16T09:23:15.373Z</time>
      </trkpt>
      <trkpt lat="43.70611" lon="7.18452">
        <ele>28.395</ele>
        <time>2018-11-16T09:23:18.398Z</time>
      </trkpt>
      <trkpt lat="43.70548" lon="7.18461">
        <ele>27.195</ele>
        <time>2018-11-16T09:23:21.119Z</time>
      </trkpt>
      <trkpt lat="43.70481" lon="7.18466">
        <ele>26.301</ele>
        <time>2018-11-16T09:23:24.111Z</time>
      </trkpt>
      <trkpt lat="43.70409" lon="7.18479">
        <ele>25.675</ele>
        <time>2018-11-16T09:23:27.345Z</time>
      </trkpt>
      <trkpt lat="43.70348" lon="7.1849">
        <ele>25.236</ele>
        <time>2018-11-16T09:23:30.200Z</time>
      </trkpt>
      <trkpt lat="43.70287" lon="7.18495">
        <ele>24.95</ele>
        <time>2018-11-16T09:23:33.113Z</time>
      </trkpt>
      <trkpt lat="43.70225" lon="7.18501">
        <ele>24.753</ele>
        <time>2018-11-16T09:23:36.061Z</time>
      </trkpt>
      <trkpt lat="43.70164" lon="7.18513">
        <ele>24.594</ele>
        <time>2018-11-16T09:23:38.983Z</time>
      </trkpt>
      <trkpt lat="43.70104" lon="7.18525">
        <ele>24.487</ele>
        <time>2018-11-16T09:23:41.887Z</time>
      </trkpt>
      <trkpt lat="43.70043" lon="7.18535">
        <ele>24.411</ele>
        <time>2018-11-16T09:23:44.907Z</time>
      </trkpt>
      <trkpt lat="43.69985" lon="7.18546">
        <ele>24.235</ele>
        <time>2018-11-16T09:23:47.929Z</time>
      </trkpt>
      <trkpt lat="43.69927" lon="7.18556">
        <ele>23.842</ele>
        <time>2018-11-16T09:23:50.954Z</time>
      </trkpt>
      <trkpt lat="43.69875" lon="7.18573">
        <ele>23.333</ele>
        <time>2018-11-16T09:23:53.832Z</time>
      </trkpt>
      <trkpt lat="43.69826" lon="7.18598">
        <ele>23.325</ele>
        <time>2018-11-16T09:23:56.720Z</time>
      </trkpt>
      <trkpt lat="43.69783" lon="7.18634">
        <ele>24.986</ele>
        <time>2018-11-16T09:23:59.675Z</time>
      </trkpt>
      <trkpt lat="43.69744" lon="7.18676">
        <ele>28.584</ele>
        <time>2018-11-16T09:24:02.570Z</time>
      </trkpt>
      <trkpt lat="43.69713" lon="7.18727">
        <ele>32.763</ele>
        <time>2018-11-16T09:24:05.474Z</time>
      </trkpt>
      <trkpt lat="43.69683" lon="7.18781">
        <ele>35.99</ele>
        <time>2018-11-16T09:24:08.480Z</time>
      </trkpt>
      <trkpt lat="43.6966" lon="7.18839">
        <ele>37.72</ele>
        <time>2018-11-16T09:24:11.388Z</time>
      </trkpt>
      <trkpt lat="43.69637" lon="7.18896">
        <ele>38.199</ele>
        <time>2018-11-16T09:24:14.381Z</time>
      </trkpt>
      <trkpt lat="43.69609" lon="7.1894">
        <ele>38.001</ele>
        <time>2018-11-16T09:24:17.229Z</time>
      </trkpt>
      <trkpt lat="43.69576" lon="7.18962">
        <ele>37.369</ele>
        <time>2018-11-16T09:24:19.962Z</time>
      </trkpt>
      <trkpt lat="43.6954" lon="7.1897">
        <ele>36.158</ele>
        <time>2018-11-16T09:24:22.978Z</time>
      </trkpt>
      <trkpt lat="43.69512" lon="7.18992">
        <ele>34.3</ele>
        <time>2018-11-16T09:24:25.842Z</time>
      </trkpt>
      <trkpt lat="43.69511" lon="7.1904">
        <ele>32.13</ele>
        <time>2018-11-16T09:24:29.133Z</time>
      </trkpt>
      <trkpt lat="43.69531" lon="7.19082">
        <ele>29.987</ele>
        <time>2018-11-16T09:24:32.590Z</time>
      </trkpt>
      <trkpt lat="43.69553" lon="7.19111">
        <ele>27.732</ele>
        <time>2018-11-16T09:24:35.652Z</time>
      </trkpt>
      <trkpt lat="43.69566" lon="7.19142">
        <ele>25.377</ele>
        <time>2018-11-16T09:24:38.326Z</time>
      </trkpt>
      <trkpt lat="43.69556" lon="7.19183">
        <ele>23.561</ele>
        <time>2018-11-16T09:24:41.522Z</time>
      </trkpt>
      <trkpt lat="43.69528" lon="7.19222">
        <ele>22.728</ele>
        <time>2018-11-16T09:24:44.984Z</time>
      </trkpt>
      <trkpt lat="43.69494" lon="7.1926">
        <ele>22.468</ele>
        <time>2018-11-16T09:24:48.439Z</time>
      </trkpt>
      <trkpt lat="43.6946" lon="7.19292">
        <ele>22.094</ele>
        <time>2018-11-16T09:24:51.507Z</time>
      </trkpt>
      <trkpt lat="43.69426" lon="7.19319">
        <ele>21.446</ele>
        <time>2018-11-16T09:24:54.514Z</time>
      </trkpt>
      <trkpt lat="43.69397" lon="7.19344">
        <ele>20.78</ele>
        <time>2018-11-16T09:24:57.285Z</time>
      </trkpt>
      <trkpt lat="43.69366" lon="7.19373">
        <ele>20.251</ele>
        <time>2018-11-16T09:25:00.291Z</time>
      </trkpt>
      <trkpt lat="43.6933" lon="7.19404">
        <ele>19.909</ele>
        <time>2018-11-16T09:25:03.409Z</time>
      </trkpt>
      <trkpt lat="43.69291" lon="7.19441">
        <ele>19.794</ele>
        <time>2018-11-16T09:25:06.533Z</time>
      </trkpt>
      <trkpt lat="43.6925" lon="7.19478">
        <ele>19.845</ele>
        <time>2018-11-16T09:25:09.644Z</time>
      </trkpt>
      <trkpt lat="43.6921" lon="7.1951">
        <ele>19.933</ele>
        <time>2018-11-16T09:25:12.852Z</time>
      </trkpt>
      <trkpt lat="43.69181" lon="7.19535">
        <ele>19.963</ele>
        <time>2018-11-16T09:25:15.708Z</time>
      </trkpt>
      <trkpt lat="43.69156" lon="7.1954">
        <ele>19.935</ele>
        <time>2018-11-16T09:25:18.293Z</time>
      </trkpt>
      <trkpt lat="43.69137" lon="7.19551">
        <ele>19.908</ele>
        <time>2018-11-16T09:25:20.838Z</time>
      </trkpt>
      <trkpt lat="43.6912" lon="7.19561">
        <ele>19.924</ele>
        <time>2018-11-16T09:25:23.649Z</time>
      </trkpt>
      <trkpt lat="43.69108" lon="7.19566">
        <ele>19.935</ele>
        <time>2018-11-16T09:25:25.996Z</time>
      </trkpt>
      <trkpt lat="43.69108" lon="7.19566">
        <ele>19.894</ele>
        <time>2018-11-16T09:25:30.996Z</time>
      </trkpt>
      <trkpt lat="43.69108" lon="7.19566">
        <ele>19.845</ele>
        <time>2018-11-16T09:26:36.931Z</time>
      </trkpt>
      <trkpt lat="43.69087" lon="7.19578">
        <ele>19.836</ele>
        <time>2018-11-16T09:26:46.684Z</time>
      </trkpt>
      <trkpt lat="43.69083" lon="7.19596">
        <ele>19.727</ele>
        <time>2018-11-16T09:26:49.230Z</time>
      </trkpt>
      <trkpt lat="43.6909" lon="7.19628">
        <ele>19.393</ele>
        <time>2018-11-16T09:26:52.748Z</time>
      </trkpt>
      <trkpt lat="43.69106" lon="7.19656">
        <ele>18.998</ele>
        <time>2018-11-16T09:26:56.410Z</time>
      </trkpt>
      <trkpt lat="43.69117" lon="7.19679">
        <ele>18.742</ele>
        <time>2018-11-16T09:26:59.519Z</time>
      </trkpt>
      <trkpt lat="43.69126" lon="7.19698">
        <ele>18.537</ele>
        <time>2018-11-16T09:27:02.299Z</time>
      </trkpt>
      <trkpt lat="43.69134" lon="7.19715">
        <ele>18.249</ele>
        <time>2018-11-16T09:27:04.651Z</time>
      </trkpt>
      <trkpt lat="43.69145" lon="7.19738">
        <ele>17.935</ele>
        <time>2018-11-16T09:27:07.442Z</time>
      </trkpt>
      <trkpt lat="43.69156" lon="7.19766">
        <ele>17.727</ele>
        <time>2018-11-16T09:27:10.248Z</time>
      </trkpt>
      <trkpt lat="43.6917" lon="7.19795">
        <ele>17.648</ele>
        <time>2018-11-16T09:27:13.268Z</time>
      </trkpt>
      <trkpt lat="43.69182" lon="7.19821">
        <ele>17.644</ele>
        <time>2018-11-16T09:27:15.944Z</time>
      </trkpt>
      <trkpt lat="43.69195" lon="7.19846">
        <ele>17.655</ele>
        <time>2018-11-16T09:27:18.686Z</time>
      </trkpt>
      <trkpt lat="43.69206" lon="7.19873">
        <ele>17.651</ele>
        <time>2018-11-16T09:27:21.573Z</time>
      </trkpt>
      <trkpt lat="43.69216" lon="7.19896">
        <ele>17.639</ele>
        <time>2018-11-16T09:27:24.418Z</time>
      </trkpt>
      <trkpt lat="43.69223" lon="7.1991">
        <ele>17.638</ele>
        <time>2018-11-16T09:27:26.942Z</time>
      </trkpt>
      <trkpt lat="43.69227" lon="7.19924">
        <ele>17.652</ele>
        <time>2018-11-16T09:27:29.994Z</time>
      </trkpt>
      <trkpt lat="43.69227" lon="7.19924">
        <ele>17.669</ele>
        <time>2018-11-16T09:27:31.994Z</time>
      </trkpt>
      <trkpt lat="43.69227" lon="7.19924">
        <ele>17.675</ele>
        <time>2018-11-16T09:28:21.549Z</time>
      </trkpt>
      <trkpt lat="43.69224" lon="7.19945">
        <ele>17.667</ele>
        <time>2018-11-16T09:28:26.179Z</time>
      </trkpt>
      <trkpt lat="43.69199" lon="7.19956">
        <ele>17.677</ele>
        <time>2018-11-16T09:28:29.494Z</time>
      </trkpt>
      <trkpt lat="43.69165" lon="7.19974">
        <ele>17.729</ele>
        <time>2018-11-16T09:28:32.713Z</time>
      </trkpt>
      <trkpt lat="43.69142" lon="7.19986">
        <ele>17.775</ele>
        <time>2018-11-16T09:28:34.715Z</time>
      </trkpt>
      <trkpt lat="43.6912" lon="7.19998">
        <ele>17.77</ele>
        <time>2018-11-16T09:28:36.660Z</time>
      </trkpt>
      <trkpt lat="43.69097" lon="7.2001">
        <ele>17.723</ele>
        <time>2018-11-16T09:28:38.629Z</time>
      </trkpt>
      <trkpt lat="43.69074" lon="7.20022">
        <ele>17.598</ele>
        <time>2018-11-16T09:28:40.599Z</time>
      </trkpt>
      <trkpt lat="43.69051" lon="7.20035">
        <ele>17.34</ele>
        <time>2018-11-16T09:28:42.611Z</time>
      </trkpt>
      <trkpt lat="43.69028" lon="7.20047">
        <ele>17.019</ele>
        <time>2018-11-16T09:28:44.645Z</time>
      </trkpt>
      <trkpt lat="43.69007" lon="7.20058">
        <ele>16.77</ele>
        <time>2018-11-16T09:28:46.629Z</time>
      </trkpt>
      <trkpt lat="43.68988" lon="7.20068">
        <ele>16.645</ele>
        <time>2018-11-16T09:28:48.603Z</time>
      </trkpt>
      <trkpt lat="43.68969" lon="7.20076">
        <ele>16.628</ele>
        <time>2018-11-16T09:28:50.629Z</time>
      </trkpt>
      <trkpt lat="43.68951" lon="7.20082">
        <ele>16.672</ele>
        <time>2018-11-16T09:28:52.668Z</time>
      </trkpt>
      <trkpt lat="43.68936" lon="7.20088">
        <ele>16.717</ele>
        <time>2018-11-16T09:28:54.616Z</time>
      </trkpt>
      <trkpt lat="43.68922" lon="7.20093">
        <ele>16.725</ele>
        <time>2018-11-16T09:28:56.491Z</time>
      </trkpt>
      <trkpt lat="43.68906" lon="7.20099">
        <ele>16.71</ele>
        <time>2018-11-16T09:28:58.432Z</time>
      </trkpt>
      <trkpt lat="43.68887" lon="7.20106">
        <ele>16.692</ele>
        <time>2018-11-16T09:29:00.423Z</time>
      </trkpt>
      <trkpt lat="43.68866" lon="7.20113">
        <ele>16.677</ele>
        <time>2018-11-16T09:29:02.427Z</time>
      </trkpt>
      <trkpt lat="43.68844" lon="7.20121">
        <ele>16.661</ele>
        <time>2018-11-16T09:29:04.434Z</time>
      </trkpt>
      <trkpt lat="43.68821" lon="7.2013">
        <ele>16.656</ele>
        <time>2018-11-16T09:29:06.452Z</time>
      </trkpt>
      <trkpt lat="43.68798" lon="7.20138">
        <ele>16.67</ele>
        <time>2018-11-16T09:29:08.429Z</time>
      </trkpt>
      <trkpt lat="43.68776" lon="7.20145">
        <ele>16.682</ele>
        <time>2018-11-16T09:29:10.396Z</time>
      </trkpt>
      <trkpt lat="43.68754" lon="7.20153">
        <ele>16.674</ele>
        <time>2018-11-16T09:29:12.366Z</time>
      </trkpt>
      <trkpt lat="43.68731" lon="7.2016">
        <ele>16.653</ele>
        <time>2018-11-16T09:29:14.352Z</time>
      </trkpt>
      <trkpt lat="43.68697" lon="7.2017">
        <ele>16.622</ele>
        <time>2018-11-16T09:29:17.278Z</time>
      </trkpt>
      <trkpt lat="43.68664" lon="7.20181">
        <ele>16.577</ele>
        <time>2018-11-16T09:29:20.211Z</time>
      </trkpt>
      <trkpt lat="43.6863" lon="7.20191">
        <ele>16.909</ele>
        <time>2018-11-16T09:29:23.242Z</time>
      </trkpt>
      <trkpt lat="43.68603" lon="7.202">
        <ele>17.987</ele>
        <time>2018-11-16T09:29:26.001Z</time>
      </trkpt>
      <trkpt lat="43.68576" lon="7.20208">
        <ele>19.342</ele>
        <time>2018-11-16T09:29:28.725Z</time>
      </trkpt>
      <trkpt lat="43.68544" lon="7.20218">
        <ele>20.274</ele>
        <time>2018-11-16T09:29:31.833Z</time>
      </trkpt>
      <trkpt lat="43.68511" lon="7.2023">
        <ele>20.765</ele>
        <time>2018-11-16T09:29:34.915Z</time>
      </trkpt>
      <trkpt lat="43.68483" lon="7.20241">
        <ele>21.043</ele>
        <time>2018-11-16T09:29:37.793Z</time>
      </trkpt>
      <trkpt lat="43.68459" lon="7.20249">
        <ele>21.067</ele>
        <time>2018-11-16T09:29:40.621Z</time>
      </trkpt>
      <trkpt lat="43.68439" lon="7.20256">
        <ele>20.652</ele>
        <time>2018-11-16T09:29:43.565Z</time>
      </trkpt>
      <trkpt lat="43.68426" lon="7.2026">
        <ele>19.878</ele>
        <time>2018-11-16T09:29:46.135Z</time>
      </trkpt>
      <trkpt lat="43.68416" lon="7.20263">
        <ele>19.071</ele>
        <time>2018-11-16T09:29:49.039Z</time>
      </trkpt>
      <trkpt lat="43.68405" lon="7.20267">
        <ele>18.498</ele>
        <time>2018-11-16T09:29:52.849Z</time>
      </trkpt>
      <trkpt lat="43.6839" lon="7.20272">
        <ele>18.196</ele>
        <time>2018-11-16T09:29:57.022Z</time>
      </trkpt>
      <trkpt lat="43.68368" lon="7.20279">
        <ele>18.058</ele>
        <time>2018-11-16T09:30:00.596Z</time>
      </trkpt>
      <trkpt lat="43.68344" lon="7.20287">
        <ele>17.972</ele>
        <time>2018-11-16T09:30:03.858Z</time>
      </trkpt>
      <trkpt lat="43.68321" lon="7.20298">
        <ele>17.84</ele>
        <time>2018-11-16T09:30:06.784Z</time>
      </trkpt>
      <trkpt lat="43.68293" lon="7.20311">
        <ele>17.612</ele>
        <time>2018-11-16T09:30:10.061Z</time>
      </trkpt>
      <trkpt lat="43.68262" lon="7.20323">
        <ele>17.272</ele>
        <time>2018-11-16T09:30:13.381Z</time>
      </trkpt>
      <trkpt lat="43.68231" lon="7.20336">
        <ele>16.782</ele>
        <time>2018-11-16T09:30:16.801Z</time>
      </trkpt>
      <trkpt lat="43.68204" lon="7.20347">
        <ele>16.161</ele>
        <time>2018-11-16T09:30:19.762Z</time>
      </trkpt>
      <trkpt lat="43.68176" lon="7.20358">
        <ele>15.569</ele>
        <time>2018-11-16T09:30:22.777Z</time>
      </trkpt>
      <trkpt lat="43.68149" lon="7.20368">
        <ele>15.138</ele>
        <time>2018-11-16T09:30:25.713Z</time>
      </trkpt>
      <trkpt lat="43.68121" lon="7.20379">
        <ele>14.823</ele>
        <time>2018-11-16T09:30:28.802Z</time>
      </trkpt>
      <trkpt lat="43.68097" lon="7.20389">
        <ele>14.531</ele>
        <time>2018-11-16T09:30:31.632Z</time>
      </trkpt>
      <trkpt lat="43.68076" lon="7.20397">
        <ele>14.28</ele>
        <time>2018-11-16T09:30:34.292Z</time>
      </trkpt>
      <trkpt lat="43.68048" lon="7.20409">
        <ele>14.118</ele>
        <time>2018-11-16T09:30:37.499Z</time>
      </trkpt>
      <trkpt lat="43.68023" lon="7.20419">
        <ele>13.991</ele>
        <time>2018-11-16T09:30:40.398Z</time>
      </trkpt>
      <trkpt lat="43.67996" lon="7.2043">
        <ele>13.845</ele>
        <time>2018-11-16T09:30:43.483Z</time>
      </trkpt>
      <trkpt lat="43.67975" lon="7.20438">
        <ele>13.752</ele>
        <time>2018-11-16T09:30:46.251Z</time>
      </trkpt>
      <trkpt lat="43.67953" lon="7.20448">
        <ele>13.772</ele>
        <time>2018-11-16T09:30:49.156Z</time>
      </trkpt>
      <trkpt lat="43.67926" lon="7.20458">
        <ele>13.824</ele>
        <time>2018-11-16T09:30:52.486Z</time>
      </trkpt>
      <trkpt lat="43.679" lon="7.20468">
        <ele>13.823</ele>
        <time>2018-11-16T09:30:55.563Z</time>
      </trkpt>
      <trkpt lat="43.67877" lon="7.20476">
        <ele>13.782</ele>
        <time>2018-11-16T09:30:58.443Z</time>
      </trkpt>
      <trkpt lat="43.67857" lon="7.20483">
        <ele>13.7</ele>
        <time>2018-11-16T09:31:01.374Z</time>
      </trkpt>
      <trkpt lat="43.67839" lon="7.2049">
        <ele>13.544</ele>
        <time>2018-11-16T09:31:04.452Z</time>
      </trkpt>
      <trkpt lat="43.67828" lon="7.20494">
        <ele>13.356</ele>
        <time>2018-11-16T09:31:07.106Z</time>
      </trkpt>
      <trkpt lat="43.67819" lon="7.20496">
        <ele>13.219</ele>
        <time>2018-11-16T09:31:09.998Z</time>
      </trkpt>
      <trkpt lat="43.67819" lon="7.20496">
        <ele>13.162</ele>
        <time>2018-11-16T09:31:12.998Z</time>
      </trkpt>
      <trkpt lat="43.67819" lon="7.20496">
        <ele>13.164</ele>
        <time>2018-11-16T09:31:52.224Z</time>
      </trkpt>
      <trkpt lat="43.67803" lon="7.20495">
        <ele>13.186</ele>
        <time>2018-11-16T09:31:59.300Z</time>
      </trkpt>
      <trkpt lat="43.67785" lon="7.20502">
        <ele>13.312</ele>
        <time>2018-11-16T09:32:02.699Z</time>
      </trkpt>
      <trkpt lat="43.6777" lon="7.205">
        <ele>13.621</ele>
        <time>2018-11-16T09:32:05.394Z</time>
      </trkpt>
      <trkpt lat="43.67765" lon="7.2048">
        <ele>13.96</ele>
        <time>2018-11-16T09:32:08.151Z</time>
      </trkpt>
      <trkpt lat="43.67758" lon="7.20454">
        <ele>14.151</ele>
        <time>2018-11-16T09:32:10.998Z</time>
      </trkpt>
      <trkpt lat="43.67756" lon="7.20424">
        <ele>14.214</ele>
        <time>2018-11-16T09:32:13.997Z</time>
      </trkpt>
      <trkpt lat="43.67751" lon="7.20404">
        <ele>14.281</ele>
        <time>2018-11-16T09:32:16.475Z</time>
      </trkpt>
      <trkpt lat="43.67743" lon="7.20388">
        <ele>14.467</ele>
        <time>2018-11-16T09:32:19.296Z</time>
      </trkpt>
      <trkpt lat="43.67739" lon="7.20378">
        <ele>14.742</ele>
        <time>2018-11-16T09:32:21.997Z</time>
      </trkpt>
      <trkpt lat="43.67739" lon="7.20378">
        <ele>14.98</ele>
        <time>2018-11-16T09:32:24.997Z</time>
      </trkpt>
      <trkpt lat="43.67739" lon="7.20378">
        <ele>15.089</ele>
        <time>2018-11-16T09:32:33.375Z</time>
      </trkpt>
      <trkpt lat="43.67731" lon="7.20352">
        <ele>15.07</ele>
        <time>2018-11-16T09:32:41.629Z</time>
      </trkpt>
      <trkpt lat="43.67722" lon="7.20328">
        <ele>15.163</ele>
        <time>2018-11-16T09:32:44.376Z</time>
      </trkpt>
      <trkpt lat="43.67713" lon="7.20288">
        <ele>15.532</ele>
        <time>2018-11-16T09:32:47.711Z</time>
      </trkpt>
      <trkpt lat="43.67706" lon="7.20257">
        <ele>16.025</ele>
        <time>2018-11-16T09:32:50.266Z</time>
      </trkpt>
      <trkpt lat="43.67696" lon="7.20227">
        <ele>16.475</ele>
        <time>2018-11-16T09:32:53.108Z</time>
      </trkpt>
      <trkpt lat="43.67687" lon="7.202">
        <ele>16.822</ele>
        <time>2018-11-16T09:32:55.925Z</time>
      </trkpt>
      <trkpt lat="43.6768" lon="7.2018">
        <ele>16.888</ele>
        <time>2018-11-16T09:32:59.166Z</time>
      </trkpt>
      <trkpt lat="43.67678" lon="7.20168">
        <ele>16.518</ele>
        <time>2018-11-16T09:33:02.996Z</time>
      </trkpt>
      <trkpt lat="43.67678" lon="7.20168">
        <ele>15.768</ele>
        <time>2018-11-16T09:33:02.997Z</time>
      </trkpt>
      <trkpt lat="43.67678" lon="7.20168">
        <ele>14.963</ele>
        <time>2018-11-16T09:33:14.927Z</time>
      </trkpt>
      <trkpt lat="43.67675" lon="7.20148">
        <ele>14.633</ele>
        <time>2018-11-16T09:33:23.597Z</time>
      </trkpt>
      <trkpt lat="43.6767" lon="7.20122">
        <ele>15.957</ele>
        <time>2018-11-16T09:33:26.687Z</time>
      </trkpt>
      <trkpt lat="43.67661" lon="7.20092">
        <ele>19.092</ele>
        <time>2018-11-16T09:33:29.250Z</time>
      </trkpt>
      <trkpt lat="43.6765" lon="7.20049">
        <ele>22.04</ele>
        <time>2018-11-16T09:33:32.245Z</time>
      </trkpt>
      <trkpt lat="43.67636" lon="7.19997">
        <ele>23.146</ele>
        <time>2018-11-16T09:33:35.447Z</time>
      </trkpt>
      <trkpt lat="43.67624" lon="7.19944">
        <ele>21.787</ele>
        <time>2018-11-16T09:33:38.658Z</time>
      </trkpt>
      <trkpt lat="43.67612" lon="7.19901">
        <ele>18.241</ele>
        <time>2018-11-16T09:33:41.501Z</time>
      </trkpt>
      <trkpt lat="43.67597" lon="7.19859">
        <ele>14.669</ele>
        <time>2018-11-16T09:33:44.329Z</time>
      </trkpt>
      <trkpt lat="43.67576" lon="7.19815">
        <ele>12.962</ele>
        <time>2018-11-16T09:33:47.358Z</time>
      </trkpt>
      <trkpt lat="43.67553" lon="7.19771">
        <ele>13.084</ele>
        <time>2018-11-16T09:33:50.397Z</time>
      </trkpt>
      <trkpt lat="43.67525" lon="7.19735">
        <ele>14.233</ele>
        <time>2018-11-16T09:33:53.355Z</time>
      </trkpt>
      <trkpt lat="43.67491" lon="7.19701">
        <ele>15.485</ele>
        <time>2018-11-16T09:33:56.655Z</time>
      </trkpt>
      <trkpt lat="43.67459" lon="7.19675">
        <ele>16.271</ele>
        <time>2018-11-16T09:33:59.756Z</time>
      </trkpt>
      <trkpt lat="43.67441" lon="7.19645">
        <ele>16.542</ele>
        <time>2018-11-16T09:34:02.653Z</time>
      </trkpt>
      <trkpt lat="43.67442" lon="7.19613">
        <ele>16.692</ele>
        <time>2018-11-16T09:34:05.246Z</time>
      </trkpt>
      <trkpt lat="43.67464" lon="7.19584">
        <ele>17.042</ele>
        <time>2018-11-16T09:34:08.478Z</time>
      </trkpt>
      <trkpt lat="43.67495" lon="7.19567">
        <ele>17.16</ele>
        <time>2018-11-16T09:34:11.697Z</time>
      </trkpt>
      <trkpt lat="43.67524" lon="7.19586">
        <ele>16.338</ele>
        <time>2018-11-16T09:34:14.951Z</time>
      </trkpt>
      <trkpt lat="43.67529" lon="7.19628">
        <ele>14.829</ele>
        <time>2018-11-16T09:34:17.747Z</time>
      </trkpt>
      <trkpt lat="43.67506" lon="7.19673">
        <ele>13.554</ele>
        <time>2018-11-16T09:34:20.619Z</time>
      </trkpt>
      <trkpt lat="43.6747" lon="7.19721">
        <ele>12.979</ele>
        <time>2018-11-16T09:34:23.774Z</time>
      </trkpt>
      <trkpt lat="43.67439" lon="7.19769">
        <ele>12.959</ele>
        <time>2018-11-16T09:34:26.822Z</time>
      </trkpt>
      <trkpt lat="43.67413" lon="7.19811">
        <ele>13.181</ele>
        <time>2018-11-16T09:34:29.468Z</time>
      </trkpt>
      <trkpt lat="43.67378" lon="7.19862">
        <ele>13.241</ele>
        <time>2018-11-16T09:34:32.602Z</time>
      </trkpt>
      <trkpt lat="43.67341" lon="7.19916">
        <ele>12.877</ele>
        <time>2018-11-16T09:34:35.719Z</time>
      </trkpt>
      <trkpt lat="43.67304" lon="7.1997">
        <ele>12.144</ele>
        <time>2018-11-16T09:34:38.797Z</time>
      </trkpt>
      <trkpt lat="43.67271" lon="7.20023">
        <ele>11.222</ele>
        <time>2018-11-16T09:34:41.839Z</time>
      </trkpt>
      <trkpt lat="43.67239" lon="7.20073">
        <ele>10.092</ele>
        <time>2018-11-16T09:34:44.905Z</time>
      </trkpt>
      <trkpt lat="43.67209" lon="7.20111">
        <ele>8.891</ele>
        <time>2018-11-16T09:34:47.633Z</time>
      </trkpt>
      <trkpt lat="43.67172" lon="7.20139">
        <ele>8.493</ele>
        <time>2018-11-16T09:34:50.604Z</time>
      </trkpt>
      <trkpt lat="43.67132" lon="7.20155">
        <ele>9.351</ele>
        <time>2018-11-16T09:34:53.571Z</time>
      </trkpt>
      <trkpt lat="43.67085" lon="7.20158">
        <ele>10.446</ele>
        <time>2018-11-16T09:34:56.786Z</time>
      </trkpt>
      <trkpt lat="43.67042" lon="7.20154">
        <ele>10.832</ele>
        <time>2018-11-16T09:34:59.714Z</time>
      </trkpt>
      <trkpt lat="43.67004" lon="7.20132">
        <ele>10.62</ele>
        <time>2018-11-16T09:35:02.521Z</time>
      </trkpt>
      <trkpt lat="43.66965" lon="7.20102">
        <ele>10.071</ele>
        <time>2018-11-16T09:35:05.479Z</time>
      </trkpt>
      <trkpt lat="43.66935" lon="7.20053">
        <ele>9.409</ele>
        <time>2018-11-16T09:35:08.622Z</time>
      </trkpt>
      <trkpt lat="43.66908" lon="7.20004">
        <ele>9.066</ele>
        <time>2018-11-16T09:35:11.636Z</time>
      </trkpt>
      <trkpt lat="43.66887" lon="7.19948">
        <ele>9.41</ele>
        <time>2018-11-16T09:35:14.662Z</time>
      </trkpt>
      <trkpt lat="43.66869" lon="7.19886">
        <ele>10.376</ele>
        <time>2018-11-16T09:35:17.757Z</time>
      </trkpt>
      <trkpt lat="43.66851" lon="7.19827">
        <ele>11.607</ele>
        <time>2018-11-16T09:35:20.620Z</time>
      </trkpt>
      <trkpt lat="43.66833" lon="7.19765">
        <ele>12.802</ele>
        <time>2018-11-16T09:35:23.570Z</time>
      </trkpt>
      <trkpt lat="43.66813" lon="7.19697">
        <ele>13.935</ele>
        <time>2018-11-16T09:35:26.705Z</time>
      </trkpt>
      <trkpt lat="43.66796" lon="7.19634">
        <ele>15.032</ele>
        <time>2018-11-16T09:35:29.695Z</time>
      </trkpt>
      <trkpt lat="43.6678" lon="7.19574">
        <ele>15.879</ele>
        <time>2018-11-16T09:35:32.751Z</time>
      </trkpt>
      <trkpt lat="43.66765" lon="7.19524">
        <ele>16.245</ele>
        <time>2018-11-16T09:35:35.683Z</time>
      </trkpt>
      <trkpt lat="43.66763" lon="7.19481">
        <ele>16.101</ele>
        <time>2018-11-16T09:35:38.482Z</time>
      </trkpt>
      <trkpt lat="43.66769" lon="7.1946">
        <ele>15.575</ele>
        <time>2018-11-16T09:35:40.275Z</time>
      </trkpt>
      <trkpt lat="43.66777" lon="7.19443">
        <ele>14.944</ele>
        <time>2018-11-16T09:35:42.003Z</time>
      </trkpt>
      <trkpt lat="43.66793" lon="7.19436">
        <ele>14.409</ele>
        <time>2018-11-16T09:35:43.929Z</time>
      </trkpt>
      <trkpt lat="43.66811" lon="7.19447">
        <ele>14.025</ele>
        <time>2018-11-16T09:35:46.207Z</time>
      </trkpt>
      <trkpt lat="43.66823" lon="7.19469">
        <ele>14.376</ele>
        <time>2018-11-16T09:35:48.695Z</time>
      </trkpt>
      <trkpt lat="43.66831" lon="7.19479">
        <ele>15.772</ele>
        <time>2018-11-16T09:35:50.606Z</time>
      </trkpt>
      <trkpt lat="43.66836" lon="7.19491">
        <ele>17.299</ele>
        <time>2018-11-16T09:35:53.262Z</time>
      </trkpt>
      <trkpt lat="43.66838" lon="7.19504">
        <ele>17.991</ele>
        <time>2018-11-16T09:35:56.766Z</time>
      </trkpt>
      <trkpt lat="43.66839" lon="7.19519">
        <ele>17.827</ele>
        <time>2018-11-16T09:36:02.999Z</time>
      </trkpt>
      <trkpt lat="43.66839" lon="7.19519">
        <ele>17.238</ele>
        <time>2018-11-16T09:36:07.999Z</time>
      </trkpt>
      <trkpt lat="43.66839" lon="7.19519">
        <ele>16.823</ele>
        <time>2018-11-16T09:36:08.031Z</time>
      </trkpt>
      <trkpt lat="43.66834" lon="7.19544">
        <ele>16.832</ele>
        <time>2018-11-16T09:36:12.259Z</time>
      </trkpt>
      <trkpt lat="43.66821" lon="7.19565">
        <ele>16.816</ele>
        <time>2018-11-16T09:36:14.356Z</time>
      </trkpt>
      <trkpt lat="43.66782" lon="7.19579">
        <ele>16.315</ele>
        <time>2018-11-16T09:36:17.701Z</time>
      </trkpt>
      <trkpt lat="43.66743" lon="7.19598">
        <ele>15.587</ele>
        <time>2018-11-16T09:36:20.807Z</time>
      </trkpt>
      <trkpt lat="43.66711" lon="7.19614">
        <ele>15.142</ele>
        <time>2018-11-16T09:36:23.957Z</time>
      </trkpt>
      <trkpt lat="43.66696" lon="7.19617">
        <ele>15.071</ele>
        <time>2018-11-16T09:36:26.032Z</time>
      </trkpt>
      <trkpt lat="43.66685" lon="7.19609">
        <ele>15.042</ele>
        <time>2018-11-16T09:36:28.292Z</time>
      </trkpt>
      <trkpt lat="43.66664" lon="7.19601">
        <ele>14.796</ele>
        <time>2018-11-16T09:36:32.187Z</time>
      </trkpt>
      <trkpt lat="43.66643" lon="7.19608">
        <ele>14.652</ele>
        <time>2018-11-16T09:36:35.454Z</time>
      </trkpt>
      <trkpt lat="43.66619" lon="7.19614">
        <ele>14.926</ele>
        <time>2018-11-16T09:36:38.445Z</time>
      </trkpt>
      <trkpt lat="43.66598" lon="7.19631">
        <ele>15.385</ele>
        <time>2018-11-16T09:36:41.668Z</time>
      </trkpt>
      <trkpt lat="43.66584" lon="7.19634">
        <ele>15.794</ele>
        <time>2018-11-16T09:36:43.999Z</time>
      </trkpt>
      <trkpt lat="43.66584" lon="7.19634">
        <ele>16.141</ele>
        <time>2018-11-16T09:36:47.999Z</time>
      </trkpt>
      <trkpt lat="43.66584" lon="7.19634">
        <ele>16.328</ele>
        <time>2018-11-16T09:36:49.481Z</time>
      </trkpt>
      <trkpt lat="43.66562" lon="7.19629">
        <ele>16.306</ele>
        <time>2018-11-16T09:36:55.470Z</time>
      </trkpt>
      <trkpt lat="43.66537" lon="7.1964">
        <ele>16.271</ele>
        <time>2018-11-16T09:36:58.871Z</time>
      </trkpt>
      <trkpt lat="43.66511" lon="7.19644">
        <ele>16.381</ele>
        <time>2018-11-16T09:37:01.992Z</time>
      </trkpt>
      <trkpt lat="43.66494" lon="7.1965">
        <ele>16.482</ele>
        <time>2018-11-16T09:37:04.742Z</time>
      </trkpt>
      <trkpt lat="43.66483" lon="7.19642">
        <ele>16.39</ele>
        <time>2018-11-16T09:37:06.906Z</time>
      </trkpt>
      <trkpt lat="43.66476" lon="7.19617">
        <ele>16.185</ele>
        <time>2018-11-16T09:37:10.088Z</time>
      </trkpt>
      <trkpt lat="43.6647" lon="7.19586">
        <ele>16.194</ele>
        <time>2018-11-16T09:37:13.123Z</time>
      </trkpt>
      <trkpt lat="43.66463" lon="7.19553">
        <ele>16.642</ele>
        <time>2018-11-16T09:37:16.091Z</time>
      </trkpt>
      <trkpt lat="43.66456" lon="7.1952">
        <ele>17.295</ele>
        <time>2018-11-16T09:37:18.959Z</time>
      </trkpt>
      <trkpt lat="43.66449" lon="7.19481">
        <ele>17.733</ele>
        <time>2018-11-16T09:37:22.189Z</time>
      </trkpt>
      <trkpt lat="43.66441" lon="7.19451">
        <ele>17.852</ele>
        <time>2018-11-16T09:37:24.908Z</time>
      </trkpt>
      <trkpt lat="43.66436" lon="7.19418">
        <ele>17.801</ele>
        <time>2018-11-16T09:37:28.024Z</time>
      </trkpt>
      <trkpt lat="43.66431" lon="7.19393">
        <ele>17.724</ele>
        <time>2018-11-16T09:37:30.903Z</time>
      </trkpt>
      <trkpt lat="43.66428" lon="7.19378">
        <ele>17.68</ele>
        <time>2018-11-16T09:37:32.998Z</time>
      </trkpt>
      <trkpt lat="43.66428" lon="7.19378">
        <ele>17.668</ele>
        <time>2018-11-16T09:37:35.998Z</time>
      </trkpt>
      <trkpt lat="43.66428" lon="7.19378">
        <ele>17.669</ele>
        <time>2018-11-16T09:38:05.985Z</time>
      </trkpt>
      <trkpt lat="43.66427" lon="7.19356">
        <ele>17.667</ele>
        <time>2018-11-16T09:38:15.051Z</time>
      </trkpt>
      <trkpt lat="43.66411" lon="7.19356">
        <ele>17.661</ele>
        <time>2018-11-16T09:38:18.035Z</time>
      </trkpt>
      <trkpt lat="43.66388" lon="7.19362">
        <ele>17.654</ele>
        <time>2018-11-16T09:38:21.107Z</time>
      </trkpt>
      <trkpt lat="43.66364" lon="7.19375">
        <ele>17.596</ele>
        <time>2018-11-16T09:38:24.151Z</time>
      </trkpt>
      <trkpt lat="43.66339" lon="7.1938">
        <ele>17.392</ele>
        <time>2018-11-16T09:38:27.170Z</time>
      </trkpt>
      <trkpt lat="43.66318" lon="7.19392">
        <ele>17.061</ele>
        <time>2018-11-16T09:38:30.256Z</time>
      </trkpt>
      <trkpt lat="43.66299" lon="7.19396">
        <ele>16.75</ele>
        <time>2018-11-16T09:38:33.269Z</time>
      </trkpt>
      <trkpt lat="43.66284" lon="7.194">
        <ele>16.469</ele>
        <time>2018-11-16T09:38:36.363Z</time>
      </trkpt>
      <trkpt lat="43.6627" lon="7.19403">
        <ele>16.086</ele>
        <time>2018-11-16T09:38:39.641Z</time>
      </trkpt>
      <trkpt lat="43.6626" lon="7.19404">
        <ele>15.558</ele>
        <time>2018-11-16T09:38:43.031Z</time>
      </trkpt>
      <trkpt lat="43.6625" lon="7.19406">
        <ele>14.966</ele>
        <time>2018-11-16T09:38:46.273Z</time>
      </trkpt>
      <trkpt lat="43.66241" lon="7.19405">
        <ele>14.392</ele>
        <time>2018-11-16T09:38:49.197Z</time>
      </trkpt>
      <trkpt lat="43.66236" lon="7.19394">
        <ele>13.906</ele>
        <time>2018-11-16T09:38:51.821Z</time>
      </trkpt>
      <trkpt lat="43.66229" lon="7.19372">
        <ele>13.581</ele>
        <time>2018-11-16T09:38:55.373Z</time>
      </trkpt>
      <trkpt lat="43.66222" lon="7.1935">
        <ele>13.437</ele>
        <time>2018-11-16T09:38:58.767Z</time>
      </trkpt>
      <trkpt lat="43.66216" lon="7.19336">
        <ele>13.411</ele>
        <time>2018-11-16T09:39:01.643Z</time>
      </trkpt>
      <trkpt lat="43.66208" lon="7.19324">
        <ele>13.429</ele>
        <time>2018-11-16T09:39:04.573Z</time>
      </trkpt>
      <trkpt lat="43.66204" lon="7.19303">
        <ele>13.448</ele>
        <time>2018-11-16T09:39:07.669Z</time>
      </trkpt>
      <trkpt lat="43.66198" lon="7.19272">
        <ele>13.456</ele>
        <time>2018-11-16T09:39:10.708Z</time>
      </trkpt>
      <trkpt lat="43.66181" lon="7.1924">
        <ele>13.459</ele>
        <time>2018-11-16T09:39:13.802Z</time>
      </trkpt>
      <trkpt lat="43.66153" lon="7.19227">
        <ele>13.528</ele>
        <time>2018-11-16T09:39:16.741Z</time>
      </trkpt>
      <trkpt lat="43.66121" lon="7.19232">
        <ele>13.704</ele>
        <time>2018-11-16T09:39:19.801Z</time>
      </trkpt>
      <trkpt lat="43.6609" lon="7.19238">
        <ele>13.627</ele>
        <time>2018-11-16T09:39:22.582Z</time>
      </trkpt>
      <trkpt lat="43.66059" lon="7.19251">
        <ele>12.953</ele>
        <time>2018-11-16T09:39:25.874Z</time>
      </trkpt>
      <trkpt lat="43.66059" lon="7.19251">
        <ele>12.953</ele>
        <time>2018-11-16T09:39:25.874Z</time>
      </trkpt>
      <trkpt lat="43.65996" lon="7.19296">
        <ele>5.191</ele>
        <time>2018-11-16T09:39:37.996Z</time>
      </trkpt>
      <trkpt lat="43.65996" lon="7.19296">
        <ele>5.188</ele>
        <time>2018-11-16T09:39:41.996Z</time>
      </trkpt>
      <trkpt lat="43.65996" lon="7.19296">
        <ele>5.187</ele>
        <time>2018-11-16T09:40:10.037Z</time>
      </trkpt>
      <trkpt lat="43.65986" lon="7.19311">
        <ele>5.186</ele>
        <time>2018-11-16T09:40:18.643Z</time>
      </trkpt>
      <trkpt lat="43.65976" lon="7.19312">
        <ele>5.105</ele>
        <time>2018-11-16T09:40:21.396Z</time>
      </trkpt>
      <trkpt lat="43.65967" lon="7.19296">
        <ele>4.86</ele>
        <time>2018-11-16T09:40:24.550Z</time>
      </trkpt>
      <trkpt lat="43.65955" lon="7.19272">
        <ele>4.514</ele>
        <time>2018-11-16T09:40:28.313Z</time>
      </trkpt>
      <trkpt lat="43.65948" lon="7.19252">
        <ele>4.219</ele>
        <time>2018-11-16T09:40:31.591Z</time>
      </trkpt>
      <trkpt lat="43.65948" lon="7.19229">
        <ele>4.059</ele>
        <time>2018-11-16T09:40:34.391Z</time>
      </trkpt>
      <trkpt lat="43.6594" lon="7.19203">
        <ele>4.059</ele>
        <time>2018-11-16T09:40:37.468Z</time>
      </trkpt>
      <trkpt lat="43.65931" lon="7.19178">
        <ele>4.226</ele>
        <time>2018-11-16T09:40:43.334Z</time>
      </trkpt>
      <trkpt lat="43.65926" lon="7.19165">
        <ele>4.487</ele>
        <time>2018-11-16T09:40:47.458Z</time>
      </trkpt>
      <trkpt lat="43.65922" lon="7.19153">
        <ele>4.657</ele>
        <time>2018-11-16T09:40:50.605Z</time>
      </trkpt>
      <trkpt lat="43.65917" lon="7.19141">
        <ele>4.653</ele>
        <time>2018-11-16T09:40:53.617Z</time>
      </trkpt>
      <trkpt lat="43.65912" lon="7.19127">
        <ele>4.599</ele>
        <time>2018-11-16T09:40:56.679Z</time>
      </trkpt>
      <trkpt lat="43.65905" lon="7.19112">
        <ele>4.623</ele>
        <time>2018-11-16T09:40:59.863Z</time>
      </trkpt>
      <trkpt lat="43.659" lon="7.19095">
        <ele>4.701</ele>
        <time>2018-11-16T09:41:03.571Z</time>
      </trkpt>
      <trkpt lat="43.65897" lon="7.19078">
        <ele>4.732</ele>
        <time>2018-11-16T09:41:07.425Z</time>
      </trkpt>
      <trkpt lat="43.65898" lon="7.19064">
        <ele>4.657</ele>
        <time>2018-11-16T09:41:10.578Z</time>
      </trkpt>
      <trkpt lat="43.65905" lon="7.1905">
        <ele>4.514</ele>
        <time>2018-11-16T09:41:13.106Z</time>
      </trkpt>
      <trkpt lat="43.65912" lon="7.1904">
        <ele>4.449</ele>
        <time>2018-11-16T09:41:14.445Z</time>
      </trkpt>
      <trkpt lat="43.65923" lon="7.19034">
        <ele>4.528</ele>
        <time>2018-11-16T09:41:16.099Z</time>
      </trkpt>
      <trkpt lat="43.65923" lon="7.19034">
        <ele>4.528</ele>
        <time>2018-11-16T09:41:16.099Z</time>
      </trkpt>
      <trkpt lat="43.65932" lon="7.18949">
        <ele>4.107</ele>
        <time>2018-11-16T09:41:24.172Z</time>
      </trkpt>
      <trkpt lat="43.65908" lon="7.18913">
        <ele>4.106</ele>
        <time>2018-11-16T09:41:27.388Z</time>
      </trkpt>
      <trkpt lat="43.65893" lon="7.18868">
        <ele>4.164</ele>
        <time>2018-11-16T09:41:30.553Z</time>
      </trkpt>
      <trkpt lat="43.65882" lon="7.18817">
        <ele>4.325</ele>
        <time>2018-11-16T09:41:33.756Z</time>
      </trkpt>
      <trkpt lat="43.6587" lon="7.18764">
        <ele>4.5</ele>
        <time>2018-11-16T09:41:36.923Z</time>
      </trkpt>
      <trkpt lat="43.65856" lon="7.18714">
        <ele>4.623</ele>
        <time>2018-11-16T09:41:39.902Z</time>
      </trkpt>
      <trkpt lat="43.65842" lon="7.18663">
        <ele>4.722</ele>
        <time>2018-11-16T09:41:42.839Z</time>
      </trkpt>
      <trkpt lat="43.65828" lon="7.18606">
        <ele>4.803</ele>
        <time>2018-11-16T09:41:45.890Z</time>
      </trkpt>
      <trkpt lat="43.65814" lon="7.1855">
        <ele>4.857</ele>
        <time>2018-11-16T09:41:48.871Z</time>
      </trkpt>
      <trkpt lat="43.65801" lon="7.18494">
        <ele>4.898</ele>
        <time>2018-11-16T09:41:51.878Z</time>
      </trkpt>
      <trkpt lat="43.65787" lon="7.18438">
        <ele>4.936</ele>
        <time>2018-11-16T09:41:54.898Z</time>
      </trkpt>
      <trkpt lat="43.65774" lon="7.18383">
        <ele>4.967</ele>
        <time>2018-11-16T09:41:57.890Z</time>
      </trkpt>
      <trkpt lat="43.6576" lon="7.18329">
        <ele>4.975</ele>
        <time>2018-11-16T09:42:00.875Z</time>
      </trkpt>
      <trkpt lat="43.65747" lon="7.18275">
        <ele>4.865</ele>
        <time>2018-11-16T09:42:03.964Z</time>
      </trkpt>
      <trkpt lat="43.65736" lon="7.18229">
        <ele>4.562</ele>
        <time>2018-11-16T09:42:07.037Z</time>
      </trkpt>
      <trkpt lat="43.65727" lon="7.1819">
        <ele>4.197</ele>
        <time>2018-11-16T09:42:09.972Z</time>
      </trkpt>
      <trkpt lat="43.65718" lon="7.18154">
        <ele>3.95</ele>
        <time>2018-11-16T09:42:12.923Z</time>
      </trkpt>
      <trkpt lat="43.65709" lon="7.18118">
        <ele>3.85</ele>
        <time>2018-11-16T09:42:15.889Z</time>
      </trkpt>
      <trkpt lat="43.65701" lon="7.18082">
        <ele>3.823</ele>
        <time>2018-11-16T09:42:18.837Z</time>
      </trkpt>
      <trkpt lat="43.65693" lon="7.18047">
        <ele>3.788</ele>
        <time>2018-11-16T09:42:21.818Z</time>
      </trkpt>
      <trkpt lat="43.65686" lon="7.18011">
        <ele>3.761</ele>
        <time>2018-11-16T09:42:24.742Z</time>
      </trkpt>
      <trkpt lat="43.6568" lon="7.17972">
        <ele>3.786</ele>
        <time>2018-11-16T09:42:27.707Z</time>
      </trkpt>
      <trkpt lat="43.65674" lon="7.17932">
        <ele>3.86</ele>
        <time>2018-11-16T09:42:30.658Z</time>
      </trkpt>
      <trkpt lat="43.65669" lon="7.1789">
        <ele>4.027</ele>
        <time>2018-11-16T09:42:33.651Z</time>
      </trkpt>
      <trkpt lat="43.65665" lon="7.17848">
        <ele>4.341</ele>
        <time>2018-11-16T09:42:36.641Z</time>
      </trkpt>
      <trkpt lat="43.65662" lon="7.1781">
        <ele>4.707</ele>
        <time>2018-11-16T09:42:39.623Z</time>
      </trkpt>
      <trkpt lat="43.6566" lon="7.17774">
        <ele>4.958</ele>
        <time>2018-11-16T09:42:42.481Z</time>
      </trkpt>
      <trkpt lat="43.65656" lon="7.17735">
        <ele>5.042</ele>
        <time>2018-11-16T09:42:45.522Z</time>
      </trkpt>
      <trkpt lat="43.65654" lon="7.17709">
        <ele>5.001</ele>
        <time>2018-11-16T09:42:47.516Z</time>
      </trkpt>
      <trkpt lat="43.65652" lon="7.17684">
        <ele>4.889</ele>
        <time>2018-11-16T09:42:49.478Z</time>
      </trkpt>
      <trkpt lat="43.65651" lon="7.1766">
        <ele>4.718</ele>
        <time>2018-11-16T09:42:51.470Z</time>
      </trkpt>
      <trkpt lat="43.65651" lon="7.17637">
        <ele>4.485</ele>
        <time>2018-11-16T09:42:53.430Z</time>
      </trkpt>
      <trkpt lat="43.65651" lon="7.17614">
        <ele>4.24</ele>
        <time>2018-11-16T09:42:55.366Z</time>
      </trkpt>
      <trkpt lat="43.65653" lon="7.17592">
        <ele>4.061</ele>
        <time>2018-11-16T09:42:57.318Z</time>
      </trkpt>
      <trkpt lat="43.65655" lon="7.17569">
        <ele>3.972</ele>
        <time>2018-11-16T09:42:59.234Z</time>
      </trkpt>
      <trkpt lat="43.65656" lon="7.17546">
        <ele>3.947</ele>
        <time>2018-11-16T09:43:01.227Z</time>
      </trkpt>
      <trkpt lat="43.65658" lon="7.17523">
        <ele>3.95</ele>
        <time>2018-11-16T09:43:03.228Z</time>
      </trkpt>
      <trkpt lat="43.65661" lon="7.17504">
        <ele>3.958</ele>
        <time>2018-11-16T09:43:05.164Z</time>
      </trkpt>
      <trkpt lat="43.65664" lon="7.17491">
        <ele>3.962</ele>
        <time>2018-11-16T09:43:06.956Z</time>
      </trkpt>
      <trkpt lat="43.65666" lon="7.17479">
        <ele>3.963</ele>
        <time>2018-11-16T09:43:08.998Z</time>
      </trkpt>
      <trkpt lat="43.65666" lon="7.17479">
        <ele>3.962</ele>
        <time>2018-11-16T09:43:12.998Z</time>
      </trkpt>
      <trkpt lat="43.65666" lon="7.17479">
        <ele>3.961</ele>
        <time>2018-11-16T09:43:24.667Z</time>
      </trkpt>
      <trkpt lat="43.65668" lon="7.17454">
        <ele>3.96</ele>
        <time>2018-11-16T09:43:30.533Z</time>
      </trkpt>
      <trkpt lat="43.65675" lon="7.17427">
        <ele>3.959</ele>
        <time>2018-11-16T09:43:33.706Z</time>
      </trkpt>
      <trkpt lat="43.65681" lon="7.17398">
        <ele>3.96</ele>
        <time>2018-11-16T09:43:36.557Z</time>
      </trkpt>
      <trkpt lat="43.6569" lon="7.17365">
        <ele>3.961</ele>
        <time>2018-11-16T09:43:39.517Z</time>
      </trkpt>
      <trkpt lat="43.65701" lon="7.17333">
        <ele>3.954</ele>
        <time>2018-11-16T09:43:42.448Z</time>
      </trkpt>
      <trkpt lat="43.65713" lon="7.17301">
        <ele>3.902</ele>
        <time>2018-11-16T09:43:45.301Z</time>
      </trkpt>
      <trkpt lat="43.65726" lon="7.17269">
        <ele>3.76</ele>
        <time>2018-11-16T09:43:48.198Z</time>
      </trkpt>
      <trkpt lat="43.65738" lon="7.17235">
        <ele>3.549</ele>
        <time>2018-11-16T09:43:51.109Z</time>
      </trkpt>
      <trkpt lat="43.6575" lon="7.17201">
        <ele>3.349</ele>
        <time>2018-11-16T09:43:53.977Z</time>
      </trkpt>
      <trkpt lat="43.6576" lon="7.17165">
        <ele>3.204</ele>
        <time>2018-11-16T09:43:56.935Z</time>
      </trkpt>
      <trkpt lat="43.6577" lon="7.17127">
        <ele>3.107</ele>
        <time>2018-11-16T09:43:59.922Z</time>
      </trkpt>
      <trkpt lat="43.65775" lon="7.17089">
        <ele>3.124</ele>
        <time>2018-11-16T09:44:02.875Z</time>
      </trkpt>
      <trkpt lat="43.6578" lon="7.17055">
        <ele>3.333</ele>
        <time>2018-11-16T09:44:05.741Z</time>
      </trkpt>
      <trkpt lat="43.65783" lon="7.17031">
        <ele>3.644</ele>
        <time>2018-11-16T09:44:08.177Z</time>
      </trkpt>
      <trkpt lat="43.65784" lon="7.17007">
        <ele>3.897</ele>
        <time>2018-11-16T09:44:11.017Z</time>
      </trkpt>
      <trkpt lat="43.65786" lon="7.16982">
        <ele>4.039</ele>
        <time>2018-11-16T09:44:14.120Z</time>
      </trkpt>
      <trkpt lat="43.65792" lon="7.16963">
        <ele>4.082</ele>
        <time>2018-11-16T09:44:16.821Z</time>
      </trkpt>
      <trkpt lat="43.65809" lon="7.1696">
        <ele>4.056</ele>
        <time>2018-11-16T09:44:19.984Z</time>
      </trkpt>
      <trkpt lat="43.6583" lon="7.16961">
        <ele>4.009</ele>
        <time>2018-11-16T09:44:23.151Z</time>
      </trkpt>
      <trkpt lat="43.6585" lon="7.16962">
        <ele>4.022</ele>
        <time>2018-11-16T09:44:26.046Z</time>
      </trkpt>
      <trkpt lat="43.65868" lon="7.16961">
        <ele>4.201</ele>
        <time>2018-11-16T09:44:29.028Z</time>
      </trkpt>
      <trkpt lat="43.65885" lon="7.16959">
        <ele>4.53</ele>
        <time>2018-11-16T09:44:31.893Z</time>
      </trkpt>
      <trkpt lat="43.65905" lon="7.16956">
        <ele>4.841</ele>
        <time>2018-11-16T09:44:35.125Z</time>
      </trkpt>
      <trkpt lat="43.65923" lon="7.16959">
        <ele>5.033</ele>
        <time>2018-11-16T09:44:37.997Z</time>
      </trkpt>
      <trkpt lat="43.65923" lon="7.16959">
        <ele>5.131</ele>
        <time>2018-11-16T09:44:43.997Z</time>
      </trkpt>
      <trkpt lat="43.65923" lon="7.16959">
        <ele>5.167</ele>
        <time>2018-11-16T09:44:44.670Z</time>
      </trkpt>
      <trkpt lat="43.65943" lon="7.16946">
        <ele>5.159</ele>
        <time>2018-11-16T09:44:53.867Z</time>
      </trkpt>
      <trkpt lat="43.65941" lon="7.16917">
        <ele>5.27</ele>
        <time>2018-11-16T09:44:56.691Z</time>
      </trkpt>
      <trkpt lat="43.65939" lon="7.16878">
        <ele>5.598</ele>
        <time>2018-11-16T09:44:59.676Z</time>
      </trkpt>
      <trkpt lat="43.65937" lon="7.16839">
        <ele>5.933</ele>
        <time>2018-11-16T09:45:02.624Z</time>
      </trkpt>
      <trkpt lat="43.65945" lon="7.16807">
        <ele>6.04</ele>
        <time>2018-11-16T09:45:05.687Z</time>
      </trkpt>
      <trkpt lat="43.65942" lon="7.16786">
        <ele>5.889</ele>
        <time>2018-11-16T09:45:08.462Z</time>
      </trkpt>
      <trkpt lat="43.6594" lon="7.16771">
        <ele>5.56</ele>
        <time>2018-11-16T09:45:10.997Z</time>
      </trkpt>
      <trkpt lat="43.6594" lon="7.16771">
        <ele>5.237</ele>
        <time>2018-11-16T09:45:16.997Z</time>
      </trkpt>
      <trkpt lat="43.6594" lon="7.16771">
        <ele>5.084</ele>
        <time>2018-11-16T09:45:19.182Z</time>
      </trkpt>
      <trkpt lat="43.65937" lon="7.16739">
        <ele>5.098</ele>
        <time>2018-11-16T09:45:25.526Z</time>
      </trkpt>
      <trkpt lat="43.65937" lon="7.16707">
        <ele>5.173</ele>
        <time>2018-11-16T09:45:28.637Z</time>
      </trkpt>
      <trkpt lat="43.65935" lon="7.16674">
        <ele>5.257</ele>
        <time>2018-11-16T09:45:31.364Z</time>
      </trkpt>
      <trkpt lat="43.65928" lon="7.16637">
        <ele>5.386</ele>
        <time>2018-11-16T09:45:34.365Z</time>
      </trkpt>
      <trkpt lat="43.65927" lon="7.16598">
        <ele>5.553</ele>
        <time>2018-11-16T09:45:37.414Z</time>
      </trkpt>
      <trkpt lat="43.65926" lon="7.16562">
        <ele>5.683</ele>
        <time>2018-11-16T09:45:40.266Z</time>
      </trkpt>
      <trkpt lat="43.65923" lon="7.16527">
        <ele>5.718</ele>
        <time>2018-11-16T09:45:43.192Z</time>
      </trkpt>
      <trkpt lat="43.65923" lon="7.16494">
        <ele>5.644</ele>
        <time>2018-11-16T09:45:46.045Z</time>
      </trkpt>
      <trkpt lat="43.65923" lon="7.16465">
        <ele>5.509</ele>
        <time>2018-11-16T09:45:48.765Z</time>
      </trkpt>
      <trkpt lat="43.6592" lon="7.16436">
        <ele>5.458</ele>
        <time>2018-11-16T09:45:51.574Z</time>
      </trkpt>
      <trkpt lat="43.65918" lon="7.16406">
        <ele>5.63</ele>
        <time>2018-11-16T09:45:54.790Z</time>
      </trkpt>
      <trkpt lat="43.65918" lon="7.16388">
        <ele>6.03</ele>
        <time>2018-11-16T09:45:57.133Z</time>
      </trkpt>
      <trkpt lat="43.65917" lon="7.16374">
        <ele>6.527</ele>
        <time>2018-11-16T09:45:59.996Z</time>
      </trkpt>
      <trkpt lat="43.65917" lon="7.16374">
        <ele>6.937</ele>
        <time>2018-11-16T09:46:04.996Z</time>
      </trkpt>
      <trkpt lat="43.65917" lon="7.16374">
        <ele>7.121</ele>
        <time>2018-11-16T09:46:06.583Z</time>
      </trkpt>
      <trkpt lat="43.65915" lon="7.16341">
        <ele>7.096</ele>
        <time>2018-11-16T09:46:13.675Z</time>
      </trkpt>
      <trkpt lat="43.65913" lon="7.16315">
        <ele>7.017</ele>
        <time>2018-11-16T09:46:16.809Z</time>
      </trkpt>
      <trkpt lat="43.6591" lon="7.16294">
        <ele>6.997</ele>
        <time>2018-11-16T09:46:19.793Z</time>
      </trkpt>
      <trkpt lat="43.65906" lon="7.16282">
        <ele>7.015</ele>
        <time>2018-11-16T09:46:21.996Z</time>
      </trkpt>
      <trkpt lat="43.65906" lon="7.16282">
        <ele>7.021</ele>
        <time>2018-11-16T09:46:25.996Z</time>
      </trkpt>
      <trkpt lat="43.65906" lon="7.16282">
        <ele>7.014</ele>
        <time>2018-11-16T09:46:52.243Z</time>
      </trkpt>
      <trkpt lat="43.6591" lon="7.16255">
        <ele>7.008</ele>
        <time>2018-11-16T09:46:59.649Z</time>
      </trkpt>
      <trkpt lat="43.65917" lon="7.16221">
        <ele>7.052</ele>
        <time>2018-11-16T09:47:03.015Z</time>
      </trkpt>
      <trkpt lat="43.65929" lon="7.16189">
        <ele>7.279</ele>
        <time>2018-11-16T09:47:05.886Z</time>
      </trkpt>
      <trkpt lat="43.65937" lon="7.16153">
        <ele>7.862</ele>
        <time>2018-11-16T09:47:08.809Z</time>
      </trkpt>
      <trkpt lat="43.65945" lon="7.16116">
        <ele>8.77</ele>
        <time>2018-11-16T09:47:11.691Z</time>
      </trkpt>
      <trkpt lat="43.65954" lon="7.16076">
        <ele>9.754</ele>
        <time>2018-11-16T09:47:14.696Z</time>
      </trkpt>
      <trkpt lat="43.65964" lon="7.16032">
        <ele>10.646</ele>
        <time>2018-11-16T09:47:17.738Z</time>
      </trkpt>
      <trkpt lat="43.65972" lon="7.15989">
        <ele>11.394</ele>
        <time>2018-11-16T09:47:20.658Z</time>
      </trkpt>
      <trkpt lat="43.65973" lon="7.1595">
        <ele>11.898</ele>
        <time>2018-11-16T09:47:23.503Z</time>
      </trkpt>
      <trkpt lat="43.65967" lon="7.15912">
        <ele>11.958</ele>
        <time>2018-11-16T09:47:26.619Z</time>
      </trkpt>
      <trkpt lat="43.65965" lon="7.15881">
        <ele>11.491</ele>
        <time>2018-11-16T09:47:29.336Z</time>
      </trkpt>
      <trkpt lat="43.65963" lon="7.1585">
        <ele>10.818</ele>
        <time>2018-11-16T09:47:32.166Z</time>
      </trkpt>
      <trkpt lat="43.65964" lon="7.1582">
        <ele>10.358</ele>
        <time>2018-11-16T09:47:34.947Z</time>
      </trkpt>
      <trkpt lat="43.65966" lon="7.15788">
        <ele>10.271</ele>
        <time>2018-11-16T09:47:37.863Z</time>
      </trkpt>
      <trkpt lat="43.65972" lon="7.15757">
        <ele>10.599</ele>
        <time>2018-11-16T09:47:40.885Z</time>
      </trkpt>
      <trkpt lat="43.65975" lon="7.15726">
        <ele>11.387</ele>
        <time>2018-11-16T09:47:43.725Z</time>
      </trkpt>
      <trkpt lat="43.6598" lon="7.15692">
        <ele>12.685</ele>
        <time>2018-11-16T09:47:46.697Z</time>
      </trkpt>
      <trkpt lat="43.65986" lon="7.15652">
        <ele>14.488</ele>
        <time>2018-11-16T09:47:49.927Z</time>
      </trkpt>
      <trkpt lat="43.65992" lon="7.15619">
        <ele>16.674</ele>
        <time>2018-11-16T09:47:52.862Z</time>
      </trkpt>
      <trkpt lat="43.66001" lon="7.15604">
        <ele>18.96</ele>
        <time>2018-11-16T09:47:54.994Z</time>
      </trkpt>
      <trkpt lat="43.66001" lon="7.15604">
        <ele>20.809</ele>
        <time>2018-11-16T09:47:59.994Z</time>
      </trkpt>
      <trkpt lat="43.66001" lon="7.15604">
        <ele>21.656</ele>
        <time>2018-11-16T09:48:07.014Z</time>
      </trkpt>
      <trkpt lat="43.66012" lon="7.15576">
        <ele>21.55</ele>
        <time>2018-11-16T09:48:14.038Z</time>
      </trkpt>
      <trkpt lat="43.66023" lon="7.15559">
        <ele>21.112</ele>
        <time>2018-11-16T09:48:17.101Z</time>
      </trkpt>
      <trkpt lat="43.66033" lon="7.15545">
        <ele>20.678</ele>
        <time>2018-11-16T09:48:19.936Z</time>
      </trkpt>
      <trkpt lat="43.66044" lon="7.15536">
        <ele>19.971</ele>
        <time>2018-11-16T09:48:22.564Z</time>
      </trkpt>
      <trkpt lat="43.66059" lon="7.15525">
        <ele>18.955</ele>
        <time>2018-11-16T09:48:25.807Z</time>
      </trkpt>
      <trkpt lat="43.66073" lon="7.15516">
        <ele>18.151</ele>
        <time>2018-11-16T09:48:28.485Z</time>
      </trkpt>
      <trkpt lat="43.66088" lon="7.15505">
        <ele>17.863</ele>
        <time>2018-11-16T09:48:31.409Z</time>
      </trkpt>
      <trkpt lat="43.66105" lon="7.15493">
        <ele>17.63</ele>
        <time>2018-11-16T09:48:34.231Z</time>
      </trkpt>
      <trkpt lat="43.66126" lon="7.15479">
        <ele>16.956</ele>
        <time>2018-11-16T09:48:37.330Z</time>
      </trkpt>
      <trkpt lat="43.66148" lon="7.15475">
        <ele>15.971</ele>
        <time>2018-11-16T09:48:40.140Z</time>
      </trkpt>
      <trkpt lat="43.66171" lon="7.15487">
        <ele>15.143</ele>
        <time>2018-11-16T09:48:43.124Z</time>
      </trkpt>
      <trkpt lat="43.66197" lon="7.15499">
        <ele>14.841</ele>
        <time>2018-11-16T09:48:46.212Z</time>
      </trkpt>
      <trkpt lat="43.66222" lon="7.15507">
        <ele>15.103</ele>
        <time>2018-11-16T09:48:49.121Z</time>
      </trkpt>
      <trkpt lat="43.66246" lon="7.15506">
        <ele>15.419</ele>
        <time>2018-11-16T09:48:51.961Z</time>
      </trkpt>
      <trkpt lat="43.66274" lon="7.15496">
        <ele>15.211</ele>
        <time>2018-11-16T09:48:55.134Z</time>
      </trkpt>
      <trkpt lat="43.66299" lon="7.15484">
        <ele>14.359</ele>
        <time>2018-11-16T09:48:58.140Z</time>
      </trkpt>
      <trkpt lat="43.66322" lon="7.15473">
        <ele>13.283</ele>
        <time>2018-11-16T09:49:01.049Z</time>
      </trkpt>
      <trkpt lat="43.66342" lon="7.15465">
        <ele>12.531</ele>
        <time>2018-11-16T09:49:03.983Z</time>
      </trkpt>
      <trkpt lat="43.66356" lon="7.15461">
        <ele>12.244</ele>
        <time>2018-11-16T09:49:06.552Z</time>
      </trkpt>
      <trkpt lat="43.66365" lon="7.1546">
        <ele>12.195</ele>
        <time>2018-11-16T09:49:08.993Z</time>
      </trkpt>
      <trkpt lat="43.66365" lon="7.1546">
        <ele>12.184</ele>
        <time>2018-11-16T09:49:11.993Z</time>
      </trkpt>
      <trkpt lat="43.66365" lon="7.1546">
        <ele>12.163</ele>
        <time>2018-11-16T09:49:15.430Z</time>
      </trkpt>
      <trkpt lat="43.66381" lon="7.15453">
        <ele>12.157</ele>
        <time>2018-11-16T09:49:19.993Z</time>
      </trkpt>
      <trkpt lat="43.66381" lon="7.15453">
        <ele>12.159</ele>
        <time>2018-11-16T09:49:25.993Z</time>
      </trkpt>
      <trkpt lat="43.66381" lon="7.15453">
        <ele>12.155</ele>
        <time>2018-11-16T09:49:41.516Z</time>
      </trkpt>
      <trkpt lat="43.66404" lon="7.15445">
        <ele>12.148</ele>
        <time>2018-11-16T09:49:50.013Z</time>
      </trkpt>
      <trkpt lat="43.66419" lon="7.15441">
        <ele>12.036</ele>
        <time>2018-11-16T09:49:51.990Z</time>
      </trkpt>
      <trkpt lat="43.66433" lon="7.15437">
        <ele>11.751</ele>
        <time>2018-11-16T09:49:53.922Z</time>
      </trkpt>
      <trkpt lat="43.66447" lon="7.15434">
        <ele>11.442</ele>
        <time>2018-11-16T09:49:55.790Z</time>
      </trkpt>
      <trkpt lat="43.66461" lon="7.15427">
        <ele>11.245</ele>
        <time>2018-11-16T09:49:57.720Z</time>
      </trkpt>
      <trkpt lat="43.66476" lon="7.15419">
        <ele>11.141</ele>
        <time>2018-11-16T09:49:59.723Z</time>
      </trkpt>
      <trkpt lat="43.6649" lon="7.1541">
        <ele>11.127</ele>
        <time>2018-11-16T09:50:01.809Z</time>
      </trkpt>
      <trkpt lat="43.66501" lon="7.15397">
        <ele>11.22</ele>
        <time>2018-11-16T09:50:03.974Z</time>
      </trkpt>
      <trkpt lat="43.66508" lon="7.15384">
        <ele>11.397</ele>
        <time>2018-11-16T09:50:05.947Z</time>
      </trkpt>
      <trkpt lat="43.66514" lon="7.15369">
        <ele>11.575</ele>
        <time>2018-11-16T09:50:07.797Z</time>
      </trkpt>
      <trkpt lat="43.66509" lon="7.15351">
        <ele>11.658</ele>
        <time>2018-11-16T09:50:09.671Z</time>
      </trkpt>
      <trkpt lat="43.66505" lon="7.15328">
        <ele>11.58</ele>
        <time>2018-11-16T09:50:11.582Z</time>
      </trkpt>
      <trkpt lat="43.665" lon="7.15304">
        <ele>11.282</ele>
        <time>2018-11-16T09:50:13.546Z</time>
      </trkpt>
      <trkpt lat="43.66496" lon="7.15281">
        <ele>10.755</ele>
        <time>2018-11-16T09:50:15.456Z</time>
      </trkpt>
      <trkpt lat="43.66492" lon="7.1526">
        <ele>10.128</ele>
        <time>2018-11-16T09:50:17.290Z</time>
      </trkpt>
      <trkpt lat="43.66488" lon="7.15239">
        <ele>9.6</ele>
        <time>2018-11-16T09:50:19.208Z</time>
      </trkpt>
      <trkpt lat="43.66484" lon="7.1522">
        <ele>9.207</ele>
        <time>2018-11-16T09:50:21.149Z</time>
      </trkpt>
      <trkpt lat="43.66481" lon="7.15204">
        <ele>8.853</ele>
        <time>2018-11-16T09:50:22.906Z</time>
      </trkpt>
      <trkpt lat="43.66479" lon="7.1519">
        <ele>8.509</ele>
        <time>2018-11-16T09:50:24.848Z</time>
      </trkpt>
      <trkpt lat="43.66476" lon="7.15177">
        <ele>8.172</ele>
        <time>2018-11-16T09:50:26.998Z</time>
      </trkpt>
      <trkpt lat="43.66476" lon="7.15177">
        <ele>7.863</ele>
        <time>2018-11-16T09:50:30.998Z</time>
      </trkpt>
      <trkpt lat="43.66476" lon="7.15177">
        <ele>7.691</ele>
        <time>2018-11-16T09:50:59.887Z</time>
      </trkpt>
      <trkpt lat="43.66472" lon="7.15155">
        <ele>7.702</ele>
        <time>2018-11-16T09:51:05.321Z</time>
      </trkpt>
      <trkpt lat="43.66466" lon="7.15126">
        <ele>7.666</ele>
        <time>2018-11-16T09:51:08.637Z</time>
      </trkpt>
      <trkpt lat="43.66461" lon="7.15097">
        <ele>7.294</ele>
        <time>2018-11-16T09:51:11.411Z</time>
      </trkpt>
      <trkpt lat="43.66454" lon="7.15071">
        <ele>6.685</ele>
        <time>2018-11-16T09:51:14.908Z</time>
      </trkpt>
      <trkpt lat="43.66449" lon="7.15059">
        <ele>6.264</ele>
        <time>2018-11-16T09:51:16.998Z</time>
      </trkpt>
      <trkpt lat="43.66449" lon="7.15059">
        <ele>6.217</ele>
        <time>2018-11-16T09:51:18.998Z</time>
      </trkpt>
      <trkpt lat="43.66449" lon="7.15059">
        <ele>6.32</ele>
        <time>2018-11-16T09:51:20.444Z</time>
      </trkpt>
      <trkpt lat="43.66448" lon="7.15038">
        <ele>6.349</ele>
        <time>2018-11-16T09:51:26.602Z</time>
      </trkpt>
      <trkpt lat="43.66443" lon="7.15017">
        <ele>6.405</ele>
        <time>2018-11-16T09:51:29.547Z</time>
      </trkpt>
      <trkpt lat="43.66436" lon="7.14987">
        <ele>6.634</ele>
        <time>2018-11-16T09:51:33.020Z</time>
      </trkpt>
      <trkpt lat="43.66427" lon="7.14961">
        <ele>7.027</ele>
        <time>2018-11-16T09:51:37.042Z</time>
      </trkpt>
      <trkpt lat="43.66425" lon="7.14943">
        <ele>7.676</ele>
        <time>2018-11-16T09:51:40.212Z</time>
      </trkpt>
      <trkpt lat="43.66438" lon="7.14929">
        <ele>8.801</ele>
        <time>2018-11-16T09:51:43.003Z</time>
      </trkpt>
      <trkpt lat="43.66453" lon="7.14917">
        <ele>10.399</ele>
        <time>2018-11-16T09:51:45.722Z</time>
      </trkpt>
      <trkpt lat="43.6647" lon="7.149">
        <ele>12.145</ele>
        <time>2018-11-16T09:51:48.637Z</time>
      </trkpt>
      <trkpt lat="43.66491" lon="7.1489">
        <ele>13.784</ele>
        <time>2018-11-16T09:51:51.502Z</time>
      </trkpt>
      <trkpt lat="43.66512" lon="7.14884">
        <ele>15.374</ele>
        <time>2018-11-16T09:51:54.572Z</time>
      </trkpt>
      <trkpt lat="43.66532" lon="7.14879">
        <ele>16.85</ele>
        <time>2018-11-16T09:51:57.557Z</time>
      </trkpt>
      <trkpt lat="43.66553" lon="7.14872">
        <ele>17.943</ele>
        <time>2018-11-16T09:52:00.820Z</time>
      </trkpt>
      <trkpt lat="43.66572" lon="7.14863">
        <ele>18.643</ele>
        <time>2018-11-16T09:52:03.788Z</time>
      </trkpt>
      <trkpt lat="43.6659" lon="7.14854">
        <ele>19.193</ele>
        <time>2018-11-16T09:52:07.109Z</time>
      </trkpt>
      <trkpt lat="43.66603" lon="7.14847">
        <ele>19.735</ele>
        <time>2018-11-16T09:52:10.033Z</time>
      </trkpt>
      <trkpt lat="43.66615" lon="7.1484">
        <ele>20.333</ele>
        <time>2018-11-16T09:52:12.592Z</time>
      </trkpt>
      <trkpt lat="43.66629" lon="7.14829">
        <ele>21.064</ele>
        <time>2018-11-16T09:52:15.151Z</time>
      </trkpt>
      <trkpt lat="43.6665" lon="7.14816">
        <ele>21.83</ele>
        <time>2018-11-16T09:52:18.240Z</time>
      </trkpt>
      <trkpt lat="43.66669" lon="7.14804">
        <ele>22.429</ele>
        <time>2018-11-16T09:52:20.860Z</time>
      </trkpt>
      <trkpt lat="43.66692" lon="7.14793">
        <ele>22.811</ele>
        <time>2018-11-16T09:52:23.893Z</time>
      </trkpt>
      <trkpt lat="43.66712" lon="7.14783">
        <ele>23.061</ele>
        <time>2018-11-16T09:52:26.729Z</time>
      </trkpt>
      <trkpt lat="43.66734" lon="7.14773">
        <ele>23.332</ele>
        <time>2018-11-16T09:52:29.648Z</time>
      </trkpt>
      <trkpt lat="43.66756" lon="7.1476">
        <ele>23.67</ele>
        <time>2018-11-16T09:52:32.554Z</time>
      </trkpt>
      <trkpt lat="43.6678" lon="7.14743">
        <ele>24.104</ele>
        <time>2018-11-16T09:52:35.635Z</time>
      </trkpt>
      <trkpt lat="43.66803" lon="7.14733">
        <ele>24.898</ele>
        <time>2018-11-16T09:52:38.455Z</time>
      </trkpt>
      <trkpt lat="43.66828" lon="7.1473">
        <ele>26.445</ele>
        <time>2018-11-16T09:52:41.305Z</time>
      </trkpt>
      <trkpt lat="43.66857" lon="7.14717">
        <ele>28.622</ele>
        <time>2018-11-16T09:52:44.436Z</time>
      </trkpt>
      <trkpt lat="43.66884" lon="7.14702">
        <ele>30.62</ele>
        <time>2018-11-16T09:52:47.270Z</time>
      </trkpt>
      <trkpt lat="43.66913" lon="7.14686">
        <ele>32.026</ele>
        <time>2018-11-16T09:52:50.289Z</time>
      </trkpt>
      <trkpt lat="43.6694" lon="7.1467">
        <ele>33.491</ele>
        <time>2018-11-16T09:52:53.310Z</time>
      </trkpt>
      <trkpt lat="43.66962" lon="7.14668">
        <ele>35.672</ele>
        <time>2018-11-16T09:52:55.967Z</time>
      </trkpt>
      <trkpt lat="43.66983" lon="7.14658">
        <ele>39.001</ele>
        <time>2018-11-16T09:52:58.973Z</time>
      </trkpt>
      <trkpt lat="43.66997" lon="7.14646">
        <ele>43.254</ele>
        <time>2018-11-16T09:53:01.625Z</time>
      </trkpt>
      <trkpt lat="43.67001" lon="7.14626">
        <ele>47.019</ele>
        <time>2018-11-16T09:53:04.703Z</time>
      </trkpt>
      <trkpt lat="43.66997" lon="7.14608">
        <ele>49.095</ele>
        <time>2018-11-16T09:53:07.878Z</time>
      </trkpt>
      <trkpt lat="43.67" lon="7.1459">
        <ele>49.571</ele>
        <time>2018-11-16T09:53:10.653Z</time>
      </trkpt>
      <trkpt lat="43.67003" lon="7.14563">
        <ele>49.139</ele>
        <time>2018-11-16T09:53:13.999Z</time>
      </trkpt>
      <trkpt lat="43.67003" lon="7.14535">
        <ele>48.8</ele>
        <time>2018-11-16T09:53:16.952Z</time>
      </trkpt>
      <trkpt lat="43.67007" lon="7.14517">
        <ele>49.102</ele>
        <time>2018-11-16T09:53:19.237Z</time>
      </trkpt>
      <trkpt lat="43.67024" lon="7.14501">
        <ele>49.681</ele>
        <time>2018-11-16T09:53:22.492Z</time>
      </trkpt>
      <trkpt lat="43.67048" lon="7.14478">
        <ele>51.355</ele>
        <time>2018-11-16T09:53:25.840Z</time>
      </trkpt>
      <trkpt lat="43.67072" lon="7.14452">
        <ele>54.87</ele>
        <time>2018-11-16T09:53:28.900Z</time>
      </trkpt>
      <trkpt lat="43.67095" lon="7.14432">
        <ele>57.995</ele>
        <time>2018-11-16T09:53:31.964Z</time>
      </trkpt>
      <trkpt lat="43.67111" lon="7.14419">
        <ele>57.54</ele>
        <time>2018-11-16T09:53:34.316Z</time>
      </trkpt>
      <trkpt lat="43.6713" lon="7.14405">
        <ele>53.516</ele>
        <time>2018-11-16T09:53:37.268Z</time>
      </trkpt>
      <trkpt lat="43.67151" lon="7.1439">
        <ele>48.877</ele>
        <time>2018-11-16T09:53:40.555Z</time>
      </trkpt>
      <trkpt lat="43.67164" lon="7.14379">
        <ele>46.159</ele>
        <time>2018-11-16T09:53:42.995Z</time>
      </trkpt>
      <trkpt lat="43.67164" lon="7.14379">
        <ele>45.383</ele>
        <time>2018-11-16T09:53:47.995Z</time>
      </trkpt>
      <trkpt lat="43.67164" lon="7.14379">
        <ele>45.562</ele>
        <time>2018-11-16T09:53:48.095Z</time>
      </trkpt>
      <trkpt lat="43.67181" lon="7.14355">
        <ele>45.801</ele>
        <time>2018-11-16T09:53:53.468Z</time>
      </trkpt>
      <trkpt lat="43.67212" lon="7.14346">
        <ele>45.632</ele>
        <time>2018-11-16T09:53:56.773Z</time>
      </trkpt>
      <trkpt lat="43.67236" lon="7.14336">
        <ele>45.158</ele>
        <time>2018-11-16T09:53:59.391Z</time>
      </trkpt>
      <trkpt lat="43.67254" lon="7.14327">
        <ele>45.005</ele>
        <time>2018-11-16T09:54:02.037Z</time>
      </trkpt>
      <trkpt lat="43.67264" lon="7.14322">
        <ele>45.688</ele>
        <time>2018-11-16T09:54:03.995Z</time>
      </trkpt>
      <trkpt lat="43.67264" lon="7.14322">
        <ele>46.869</ele>
        <time>2018-11-16T09:54:07.995Z</time>
      </trkpt>
      <trkpt lat="43.67264" lon="7.14322">
        <ele>47.613</ele>
        <time>2018-11-16T09:54:49.232Z</time>
      </trkpt>
      <trkpt lat="43.67281" lon="7.14313">
        <ele>47.553</ele>
        <time>2018-11-16T09:54:56.463Z</time>
      </trkpt>
      <trkpt lat="43.67292" lon="7.14306">
        <ele>47.605</ele>
        <time>2018-11-16T09:54:58.986Z</time>
      </trkpt>
      <trkpt lat="43.673" lon="7.14302">
        <ele>48.534</ele>
        <time>2018-11-16T09:55:00.994Z</time>
      </trkpt>
      <trkpt lat="43.673" lon="7.14302">
        <ele>49.712</ele>
        <time>2018-11-16T09:55:04.994Z</time>
      </trkpt>
      <trkpt lat="43.673" lon="7.14302">
        <ele>50.263</ele>
        <time>2018-11-16T09:56:14.986Z</time>
      </trkpt>
      <trkpt lat="43.67317" lon="7.14289">
        <ele>50.183</ele>
        <time>2018-11-16T09:56:22.037Z</time>
      </trkpt>
      <trkpt lat="43.67333" lon="7.14278">
        <ele>50.05</ele>
        <time>2018-11-16T09:56:25.023Z</time>
      </trkpt>
      <trkpt lat="43.67355" lon="7.14266">
        <ele>50.292</ele>
        <time>2018-11-16T09:56:28.164Z</time>
      </trkpt>
      <trkpt lat="43.67408" lon="7.14248">
        <ele>50.869</ele>
        <time>2018-11-16T09:56:34.400Z</time>
      </trkpt>
      <trkpt lat="43.67477" lon="7.14222">
        <ele>50.928</ele>
        <time>2018-11-16T09:56:41.798Z</time>
      </trkpt>
      <trkpt lat="43.67559" lon="7.1417">
        <ele>51.083</ele>
        <time>2018-11-16T09:56:48.652Z</time>
      </trkpt>
      <trkpt lat="43.67599" lon="7.14133">
        <ele>51.912</ele>
        <time>2018-11-16T09:56:51.857Z</time>
      </trkpt>
      <trkpt lat="43.6764" lon="7.14098">
        <ele>53.85</ele>
        <time>2018-11-16T09:56:54.985Z</time>
      </trkpt>
      <trkpt lat="43.67698" lon="7.14059">
        <ele>56.183</ele>
        <time>2018-11-16T09:56:59.029Z</time>
      </trkpt>
      <trkpt lat="43.67763" lon="7.14018">
        <ele>57.749</ele>
        <time>2018-11-16T09:57:03.191Z</time>
      </trkpt>
      <trkpt lat="43.67817" lon="7.13967">
        <ele>58.578</ele>
        <time>2018-11-16T09:57:07.102Z</time>
      </trkpt>
      <trkpt lat="43.67864" lon="7.13903">
        <ele>59.717</ele>
        <time>2018-11-16T09:57:11.085Z</time>
      </trkpt>
      <trkpt lat="43.67908" lon="7.1384">
        <ele>61.888</ele>
        <time>2018-11-16T09:57:14.927Z</time>
      </trkpt>
      <trkpt lat="43.67947" lon="7.13762">
        <ele>65.048</ele>
        <time>2018-11-16T09:57:18.950Z</time>
      </trkpt>
      <trkpt lat="43.67993" lon="7.13696">
        <ele>68.877</ele>
        <time>2018-11-16T09:57:22.887Z</time>
      </trkpt>
      <trkpt lat="43.68048" lon="7.13618">
        <ele>72.943</ele>
        <time>2018-11-16T09:57:27.792Z</time>
      </trkpt>
      <trkpt lat="43.68076" lon="7.13569">
        <ele>76.327</ele>
        <time>2018-11-16T09:57:30.713Z</time>
      </trkpt>
      <trkpt lat="43.68105" lon="7.13516">
        <ele>78.165</ele>
        <time>2018-11-16T09:57:33.761Z</time>
      </trkpt>
      <trkpt lat="43.68126" lon="7.13457">
        <ele>78.731</ele>
        <time>2018-11-16T09:57:36.745Z</time>
      </trkpt>
      <trkpt lat="43.6815" lon="7.13396">
        <ele>79.308</ele>
        <time>2018-11-16T09:57:39.819Z</time>
      </trkpt>
      <trkpt lat="43.68176" lon="7.13337">
        <ele>80.995</ele>
        <time>2018-11-16T09:57:42.864Z</time>
      </trkpt>
      <trkpt lat="43.68202" lon="7.13281">
        <ele>83.898</ele>
        <time>2018-11-16T09:57:45.900Z</time>
      </trkpt>
      <trkpt lat="43.68228" lon="7.13228">
        <ele>87.218</ele>
        <time>2018-11-16T09:57:48.861Z</time>
      </trkpt>
      <trkpt lat="43.68256" lon="7.13179">
        <ele>90.185</ele>
        <time>2018-11-16T09:57:51.858Z</time>
      </trkpt>
      <trkpt lat="43.68288" lon="7.1314">
        <ele>92.726</ele>
        <time>2018-11-16T09:57:54.713Z</time>
      </trkpt>
      <trkpt lat="43.68327" lon="7.13113">
        <ele>95.267</ele>
        <time>2018-11-16T09:57:57.647Z</time>
      </trkpt>
      <trkpt lat="43.68372" lon="7.13095">
        <ele>98.257</ele>
        <time>2018-11-16T09:58:00.881Z</time>
      </trkpt>
      <trkpt lat="43.68456" lon="7.1306">
        <ele>101.696</ele>
        <time>2018-11-16T09:58:07.344Z</time>
      </trkpt>
      <trkpt lat="43.68526" lon="7.13069">
        <ele>105.959</ele>
        <time>2018-11-16T09:58:13.461Z</time>
      </trkpt>
      <trkpt lat="43.68582" lon="7.13061">
        <ele>111.361</ele>
        <time>2018-11-16T09:58:19.988Z</time>
      </trkpt>
      <trkpt lat="43.68629" lon="7.13021">
        <ele>116.632</ele>
        <time>2018-11-16T09:58:27.503Z</time>
      </trkpt>
      <trkpt lat="43.68659" lon="7.13015">
        <ele>120.295</ele>
        <time>2018-11-16T09:58:30.794Z</time>
      </trkpt>
      <trkpt lat="43.68702" lon="7.13026">
        <ele>122.322</ele>
        <time>2018-11-16T09:58:34.140Z</time>
      </trkpt>
      <trkpt lat="43.68754" lon="7.13032">
        <ele>123.516</ele>
        <time>2018-11-16T09:58:37.517Z</time>
      </trkpt>
      <trkpt lat="43.68801" lon="7.13039">
        <ele>125.117</ele>
        <time>2018-11-16T09:58:40.531Z</time>
      </trkpt>
      <trkpt lat="43.68846" lon="7.13047">
        <ele>127.842</ele>
        <time>2018-11-16T09:58:43.412Z</time>
      </trkpt>
      <trkpt lat="43.68891" lon="7.13071">
        <ele>131.282</ele>
        <time>2018-11-16T09:58:46.390Z</time>
      </trkpt>
      <trkpt lat="43.68934" lon="7.13107">
        <ele>134.761</ele>
        <time>2018-11-16T09:58:49.483Z</time>
      </trkpt>
      <trkpt lat="43.68981" lon="7.1312">
        <ele>138.095</ele>
        <time>2018-11-16T09:58:52.414Z</time>
      </trkpt>
      <trkpt lat="43.69031" lon="7.13102">
        <ele>141.378</ele>
        <time>2018-11-16T09:58:55.544Z</time>
      </trkpt>
      <trkpt lat="43.69075" lon="7.13072">
        <ele>144.441</ele>
        <time>2018-11-16T09:58:58.504Z</time>
      </trkpt>
      <trkpt lat="43.6912" lon="7.1304">
        <ele>147.011</ele>
        <time>2018-11-16T09:59:01.510Z</time>
      </trkpt>
      <trkpt lat="43.69168" lon="7.13012">
        <ele>149.015</ele>
        <time>2018-11-16T09:59:04.583Z</time>
      </trkpt>
      <trkpt lat="43.69218" lon="7.13014">
        <ele>150.415</ele>
        <time>2018-11-16T09:59:07.555Z</time>
      </trkpt>
      <trkpt lat="43.69269" lon="7.13019">
        <ele>151.351</ele>
        <time>2018-11-16T09:59:10.531Z</time>
      </trkpt>
      <trkpt lat="43.69317" lon="7.13026">
        <ele>152.436</ele>
        <time>2018-11-16T09:59:13.396Z</time>
      </trkpt>
      <trkpt lat="43.69367" lon="7.13033">
        <ele>154.101</ele>
        <time>2018-11-16T09:59:16.410Z</time>
      </trkpt>
      <trkpt lat="43.6942" lon="7.13035">
        <ele>156.022</ele>
        <time>2018-11-16T09:59:19.464Z</time>
      </trkpt>
      <trkpt lat="43.69473" lon="7.13028">
        <ele>157.619</ele>
        <time>2018-11-16T09:59:22.554Z</time>
      </trkpt>
      <trkpt lat="43.69522" lon="7.13018">
        <ele>158.817</ele>
        <time>2018-11-16T09:59:25.512Z</time>
      </trkpt>
      <trkpt lat="43.69569" lon="7.1301">
        <ele>160.115</ele>
        <time>2018-11-16T09:59:28.293Z</time>
      </trkpt>
      <trkpt lat="43.69623" lon="7.13005">
        <ele>161.927</ele>
        <time>2018-11-16T09:59:31.440Z</time>
      </trkpt>
      <trkpt lat="43.69674" lon="7.13008">
        <ele>164.079</ele>
        <time>2018-11-16T09:59:34.444Z</time>
      </trkpt>
      <trkpt lat="43.69722" lon="7.13004">
        <ele>166.111</ele>
        <time>2018-11-16T09:59:37.362Z</time>
      </trkpt>
      <trkpt lat="43.69768" lon="7.12992">
        <ele>167.726</ele>
        <time>2018-11-16T09:59:40.229Z</time>
      </trkpt>
      <trkpt lat="43.69819" lon="7.12996">
        <ele>168.961</ele>
        <time>2018-11-16T09:59:43.454Z</time>
      </trkpt>
      <trkpt lat="43.69861" lon="7.13003">
        <ele>170.16</ele>
        <time>2018-11-16T09:59:46.492Z</time>
      </trkpt>
      <trkpt lat="43.69901" lon="7.12999">
        <ele>171.737</ele>
        <time>2018-11-16T09:59:49.689Z</time>
      </trkpt>
      <trkpt lat="43.69935" lon="7.12993">
        <ele>173.715</ele>
        <time>2018-11-16T09:59:52.686Z</time>
      </trkpt>
      <trkpt lat="43.69969" lon="7.12986">
        <ele>175.711</ele>
        <time>2018-11-16T09:59:55.827Z</time>
      </trkpt>
      <trkpt lat="43.69996" lon="7.12997">
        <ele>177.375</ele>
        <time>2018-11-16T09:59:58.289Z</time>
      </trkpt>
      <trkpt lat="43.70026" lon="7.13041">
        <ele>178.513</ele>
        <time>2018-11-16T10:00:01.894Z</time>
      </trkpt>
      <trkpt lat="43.70053" lon="7.13078">
        <ele>179.46</ele>
        <time>2018-11-16T10:00:05.359Z</time>
      </trkpt>
      <trkpt lat="43.70073" lon="7.13106">
        <ele>180.973</ele>
        <time>2018-11-16T10:00:08.946Z</time>
      </trkpt>
      <trkpt lat="43.70086" lon="7.13125">
        <ele>182.959</ele>
        <time>2018-11-16T10:00:12.314Z</time>
      </trkpt>
      <trkpt lat="43.70094" lon="7.13146">
        <ele>184.502</ele>
        <time>2018-11-16T10:00:15.254Z</time>
      </trkpt>
      <trkpt lat="43.70102" lon="7.13163">
        <ele>185.197</ele>
        <time>2018-11-16T10:00:17.332Z</time>
      </trkpt>
      <trkpt lat="43.7012" lon="7.13173">
        <ele>185.313</ele>
        <time>2018-11-16T10:00:19.529Z</time>
      </trkpt>
      <trkpt lat="43.70144" lon="7.13208">
        <ele>185.228</ele>
        <time>2018-11-16T10:00:22.812Z</time>
      </trkpt>
      <trkpt lat="43.70171" lon="7.13243">
        <ele>185.168</ele>
        <time>2018-11-16T10:00:25.941Z</time>
      </trkpt>
      <trkpt lat="43.70206" lon="7.13256">
        <ele>185.246</ele>
        <time>2018-11-16T10:00:28.961Z</time>
      </trkpt>
      <trkpt lat="43.70241" lon="7.13255">
        <ele>185.387</ele>
        <time>2018-11-16T10:00:31.852Z</time>
      </trkpt>
      <trkpt lat="43.70277" lon="7.13259">
        <ele>185.189</ele>
        <time>2018-11-16T10:00:34.725Z</time>
      </trkpt>
      <trkpt lat="43.70313" lon="7.13274">
        <ele>184.343</ele>
        <time>2018-11-16T10:00:37.769Z</time>
      </trkpt>
      <trkpt lat="43.70343" lon="7.13306">
        <ele>183.2</ele>
        <time>2018-11-16T10:00:40.865Z</time>
      </trkpt>
      <trkpt lat="43.70373" lon="7.13336">
        <ele>182.433</ele>
        <time>2018-11-16T10:00:44.014Z</time>
      </trkpt>
      <trkpt lat="43.70408" lon="7.13334">
        <ele>182.267</ele>
        <time>2018-11-16T10:00:47.024Z</time>
      </trkpt>
      <trkpt lat="43.70443" lon="7.13339">
        <ele>182.297</ele>
        <time>2018-11-16T10:00:49.819Z</time>
      </trkpt>
      <trkpt lat="43.70479" lon="7.13315">
        <ele>182.114</ele>
        <time>2018-11-16T10:00:52.950Z</time>
      </trkpt>
      <trkpt lat="43.70512" lon="7.13291">
        <ele>181.748</ele>
        <time>2018-11-16T10:00:55.912Z</time>
      </trkpt>
      <trkpt lat="43.70546" lon="7.13281">
        <ele>181.434</ele>
        <time>2018-11-16T10:00:58.945Z</time>
      </trkpt>
      <trkpt lat="43.70576" lon="7.13264">
        <ele>181.254</ele>
        <time>2018-11-16T10:01:01.757Z</time>
      </trkpt>
      <trkpt lat="43.70607" lon="7.13245">
        <ele>181.115</ele>
        <time>2018-11-16T10:01:04.688Z</time>
      </trkpt>
      <trkpt lat="43.7064" lon="7.13221">
        <ele>180.674</ele>
        <time>2018-11-16T10:01:07.818Z</time>
      </trkpt>
      <trkpt lat="43.70673" lon="7.13202">
        <ele>179.653</ele>
        <time>2018-11-16T10:01:10.913Z</time>
      </trkpt>
      <trkpt lat="43.707" lon="7.13181">
        <ele>178.299</ele>
        <time>2018-11-16T10:01:13.837Z</time>
      </trkpt>
      <trkpt lat="43.70723" lon="7.13162">
        <ele>176.982</ele>
        <time>2018-11-16T10:01:17.356Z</time>
      </trkpt>
      <trkpt lat="43.70737" lon="7.1315">
        <ele>175.786</ele>
        <time>2018-11-16T10:01:20.061Z</time>
      </trkpt>
      <trkpt lat="43.70752" lon="7.13147">
        <ele>174.848</ele>
        <time>2018-11-16T10:01:23.013Z</time>
      </trkpt>
      <trkpt lat="43.70766" lon="7.13126">
        <ele>174.425</ele>
        <time>2018-11-16T10:01:26.126Z</time>
      </trkpt>
      <trkpt lat="43.70764" lon="7.13094">
        <ele>174.592</ele>
        <time>2018-11-16T10:01:28.879Z</time>
      </trkpt>
      <trkpt lat="43.70772" lon="7.13058">
        <ele>175.074</ele>
        <time>2018-11-16T10:01:31.426Z</time>
      </trkpt>
      <trkpt lat="43.70786" lon="7.1301">
        <ele>175.377</ele>
        <time>2018-11-16T10:01:34.538Z</time>
      </trkpt>
      <trkpt lat="43.70802" lon="7.12959">
        <ele>175.126</ele>
        <time>2018-11-16T10:01:37.614Z</time>
      </trkpt>
      <trkpt lat="43.70817" lon="7.12906">
        <ele>174.363</ele>
        <time>2018-11-16T10:01:40.774Z</time>
      </trkpt>
      <trkpt lat="43.70836" lon="7.12863">
        <ele>173.423</ele>
        <time>2018-11-16T10:01:43.604Z</time>
      </trkpt>
      <trkpt lat="43.70858" lon="7.12819">
        <ele>172.623</ele>
        <time>2018-11-16T10:01:46.535Z</time>
      </trkpt>
      <trkpt lat="43.70885" lon="7.12779">
        <ele>172.125</ele>
        <time>2018-11-16T10:01:49.481Z</time>
      </trkpt>
      <trkpt lat="43.70917" lon="7.12744">
        <ele>171.977</ele>
        <time>2018-11-16T10:01:52.518Z</time>
      </trkpt>
      <trkpt lat="43.7095" lon="7.12717">
        <ele>172.079</ele>
        <time>2018-11-16T10:01:55.512Z</time>
      </trkpt>
      <trkpt lat="43.7098" lon="7.12689">
        <ele>172.237</ele>
        <time>2018-11-16T10:01:58.517Z</time>
      </trkpt>
      <trkpt lat="43.71009" lon="7.12659">
        <ele>172.361</ele>
        <time>2018-11-16T10:02:01.515Z</time>
      </trkpt>
      <trkpt lat="43.71038" lon="7.12631">
        <ele>172.704</ele>
        <time>2018-11-16T10:02:04.490Z</time>
      </trkpt>
      <trkpt lat="43.71066" lon="7.12601">
        <ele>173.621</ele>
        <time>2018-11-16T10:02:07.429Z</time>
      </trkpt>
      <trkpt lat="43.71095" lon="7.12571">
        <ele>175.191</ele>
        <time>2018-11-16T10:02:10.393Z</time>
      </trkpt>
      <trkpt lat="43.71124" lon="7.12543">
        <ele>177.153</ele>
        <time>2018-11-16T10:02:13.453Z</time>
      </trkpt>
      <trkpt lat="43.71152" lon="7.12518">
        <ele>179.023</ele>
        <time>2018-11-16T10:02:16.314Z</time>
      </trkpt>
      <trkpt lat="43.71183" lon="7.12495">
        <ele>180.398</ele>
        <time>2018-11-16T10:02:19.379Z</time>
      </trkpt>
      <trkpt lat="43.71212" lon="7.12476">
        <ele>181.275</ele>
        <time>2018-11-16T10:02:22.321Z</time>
      </trkpt>
      <trkpt lat="43.71239" lon="7.12449">
        <ele>181.916</ele>
        <time>2018-11-16T10:02:25.313Z</time>
      </trkpt>
      <trkpt lat="43.71255" lon="7.12408">
        <ele>182.603</ele>
        <time>2018-11-16T10:02:28.307Z</time>
      </trkpt>
      <trkpt lat="43.71256" lon="7.12361">
        <ele>183.408</ele>
        <time>2018-11-16T10:02:31.316Z</time>
      </trkpt>
      <trkpt lat="43.71261" lon="7.12315">
        <ele>184.338</ele>
        <time>2018-11-16T10:02:34.236Z</time>
      </trkpt>
      <trkpt lat="43.71269" lon="7.12269">
        <ele>185.668</ele>
        <time>2018-11-16T10:02:37.186Z</time>
      </trkpt>
      <trkpt lat="43.7128" lon="7.12223">
        <ele>187.646</ele>
        <time>2018-11-16T10:02:40.104Z</time>
      </trkpt>
      <trkpt lat="43.71297" lon="7.12177">
        <ele>190.159</ele>
        <time>2018-11-16T10:02:43.106Z</time>
      </trkpt>
      <trkpt lat="43.71318" lon="7.12134">
        <ele>192.961</ele>
        <time>2018-11-16T10:02:46.094Z</time>
      </trkpt>
      <trkpt lat="43.71338" lon="7.12092">
        <ele>195.871</ele>
        <time>2018-11-16T10:02:49.075Z</time>
      </trkpt>
      <trkpt lat="43.71358" lon="7.1205">
        <ele>198.72</ele>
        <time>2018-11-16T10:02:52.032Z</time>
      </trkpt>
      <trkpt lat="43.71378" lon="7.1201">
        <ele>201.408</ele>
        <time>2018-11-16T10:02:54.949Z</time>
      </trkpt>
      <trkpt lat="43.71399" lon="7.11969">
        <ele>203.897</ele>
        <time>2018-11-16T10:02:57.937Z</time>
      </trkpt>
      <trkpt lat="43.71417" lon="7.11927">
        <ele>206.737</ele>
        <time>2018-11-16T10:03:00.938Z</time>
      </trkpt>
      <trkpt lat="43.71435" lon="7.11886">
        <ele>210.678</ele>
        <time>2018-11-16T10:03:03.884Z</time>
      </trkpt>
      <trkpt lat="43.71457" lon="7.11849">
        <ele>215.446</ele>
        <time>2018-11-16T10:03:06.835Z</time>
      </trkpt>
      <trkpt lat="43.71482" lon="7.11816">
        <ele>219.96</ele>
        <time>2018-11-16T10:03:09.818Z</time>
      </trkpt>
      <trkpt lat="43.71503" lon="7.11779">
        <ele>223.661</ele>
        <time>2018-11-16T10:03:12.825Z</time>
      </trkpt>
      <trkpt lat="43.71517" lon="7.1174">
        <ele>226.685</ele>
        <time>2018-11-16T10:03:15.996Z</time>
      </trkpt>
      <trkpt lat="43.71525" lon="7.11712">
        <ele>229.355</ele>
        <time>2018-11-16T10:03:18.891Z</time>
      </trkpt>
      <trkpt lat="43.71531" lon="7.11688">
        <ele>231.852</ele>
        <time>2018-11-16T10:03:21.735Z</time>
      </trkpt>
      <trkpt lat="43.71542" lon="7.11669">
        <ele>234.087</ele>
        <time>2018-11-16T10:03:24.495Z</time>
      </trkpt>
      <trkpt lat="43.71551" lon="7.11644">
        <ele>235.716</ele>
        <time>2018-11-16T10:03:27.376Z</time>
      </trkpt>
      <trkpt lat="43.71558" lon="7.11605">
        <ele>237.079</ele>
        <time>2018-11-16T10:03:30.406Z</time>
      </trkpt>
      <trkpt lat="43.7158" lon="7.11565">
        <ele>238.91</ele>
        <time>2018-11-16T10:03:33.613Z</time>
      </trkpt>
      <trkpt lat="43.71603" lon="7.11527">
        <ele>241.295</ele>
        <time>2018-11-16T10:03:36.614Z</time>
      </trkpt>
      <trkpt lat="43.71625" lon="7.11493">
        <ele>244.32</ele>
        <time>2018-11-16T10:03:39.450Z</time>
      </trkpt>
      <trkpt lat="43.7165" lon="7.11461">
        <ele>248.177</ele>
        <time>2018-11-16T10:03:42.352Z</time>
      </trkpt>
      <trkpt lat="43.71679" lon="7.11431">
        <ele>252.332</ele>
        <time>2018-11-16T10:03:45.441Z</time>
      </trkpt>
      <trkpt lat="43.71708" lon="7.11407">
        <ele>255.966</ele>
        <time>2018-11-16T10:03:48.405Z</time>
      </trkpt>
      <trkpt lat="43.71738" lon="7.11387">
        <ele>258.564</ele>
        <time>2018-11-16T10:03:51.411Z</time>
      </trkpt>
      <trkpt lat="43.71768" lon="7.11373">
        <ele>260.116</ele>
        <time>2018-11-16T10:03:54.348Z</time>
      </trkpt>
      <trkpt lat="43.71801" lon="7.11368">
        <ele>261.177</ele>
        <time>2018-11-16T10:03:57.499Z</time>
      </trkpt>
      <trkpt lat="43.71831" lon="7.11367">
        <ele>262.326</ele>
        <time>2018-11-16T10:04:00.530Z</time>
      </trkpt>
      <trkpt lat="43.71849" lon="7.11366">
        <ele>263.868</ele>
        <time>2018-11-16T10:04:02.446Z</time>
      </trkpt>
      <trkpt lat="43.71868" lon="7.11365">
        <ele>265.734</ele>
        <time>2018-11-16T10:04:04.459Z</time>
      </trkpt>
      <trkpt lat="43.71886" lon="7.11362">
        <ele>267.444</ele>
        <time>2018-11-16T10:04:06.629Z</time>
      </trkpt>
      <trkpt lat="43.71902" lon="7.11357">
        <ele>268.658</ele>
        <time>2018-11-16T10:04:08.681Z</time>
      </trkpt>
      <trkpt lat="43.71914" lon="7.1135">
        <ele>269.629</ele>
        <time>2018-11-16T10:04:10.555Z</time>
      </trkpt>
      <trkpt lat="43.71923" lon="7.11341">
        <ele>270.752</ele>
        <time>2018-11-16T10:04:12.306Z</time>
      </trkpt>
      <trkpt lat="43.71932" lon="7.11329">
        <ele>272.072</ele>
        <time>2018-11-16T10:04:14.166Z</time>
      </trkpt>
      <trkpt lat="43.71942" lon="7.11316">
        <ele>273.298</ele>
        <time>2018-11-16T10:04:16.096Z</time>
      </trkpt>
      <trkpt lat="43.71954" lon="7.11299">
        <ele>274.207</ele>
        <time>2018-11-16T10:04:18.139Z</time>
      </trkpt>
      <trkpt lat="43.71967" lon="7.1128">
        <ele>274.91</ele>
        <time>2018-11-16T10:04:20.169Z</time>
      </trkpt>
      <trkpt lat="43.71981" lon="7.11261">
        <ele>275.709</ele>
        <time>2018-11-16T10:04:22.175Z</time>
      </trkpt>
      <trkpt lat="43.71993" lon="7.11238">
        <ele>276.818</ele>
        <time>2018-11-16T10:04:24.188Z</time>
      </trkpt>
      <trkpt lat="43.72005" lon="7.11215">
        <ele>278.275</ele>
        <time>2018-11-16T10:04:26.195Z</time>
      </trkpt>
      <trkpt lat="43.72017" lon="7.11191">
        <ele>279.993</ele>
        <time>2018-11-16T10:04:28.208Z</time>
      </trkpt>
      <trkpt lat="43.7203" lon="7.11168">
        <ele>281.831</ele>
        <time>2018-11-16T10:04:30.311Z</time>
      </trkpt>
      <trkpt lat="43.72043" lon="7.11149">
        <ele>283.688</ele>
        <time>2018-11-16T10:04:32.282Z</time>
      </trkpt>
      <trkpt lat="43.72052" lon="7.11133">
        <ele>285.541</ele>
        <time>2018-11-16T10:04:34.100Z</time>
      </trkpt>
      <trkpt lat="43.72061" lon="7.11116">
        <ele>287.397</ele>
        <time>2018-11-16T10:04:36.064Z</time>
      </trkpt>
      <trkpt lat="43.7207" lon="7.111">
        <ele>289.228</ele>
        <time>2018-11-16T10:04:38.122Z</time>
      </trkpt>
      <trkpt lat="43.72077" lon="7.11085">
        <ele>290.966</ele>
        <time>2018-11-16T10:04:39.949Z</time>
      </trkpt>
      <trkpt lat="43.72083" lon="7.1107">
        <ele>292.568</ele>
        <time>2018-11-16T10:04:41.837Z</time>
      </trkpt>
      <trkpt lat="43.72091" lon="7.11053">
        <ele>294.016</ele>
        <time>2018-11-16T10:04:43.806Z</time>
      </trkpt>
      <trkpt lat="43.72105" lon="7.11023">
        <ele>295.317</ele>
        <time>2018-11-16T10:04:46.977Z</time>
      </trkpt>
      <trkpt lat="43.72118" lon="7.10994">
        <ele>296.593</ele>
        <time>2018-11-16T10:04:49.996Z</time>
      </trkpt>
      <trkpt lat="43.72134" lon="7.10968">
        <ele>297.903</ele>
        <time>2018-11-16T10:04:53.009Z</time>
      </trkpt>
      <trkpt lat="43.72147" lon="7.10945">
        <ele>299.157</ele>
        <time>2018-11-16T10:04:56.022Z</time>
      </trkpt>
      <trkpt lat="43.72153" lon="7.10933">
        <ele>300.486</ele>
        <time>2018-11-16T10:04:57.998Z</time>
      </trkpt>
      <trkpt lat="43.72153" lon="7.10933">
        <ele>301.889</ele>
        <time>2018-11-16T10:05:01.998Z</time>
      </trkpt>
      <trkpt lat="43.72153" lon="7.10933">
        <ele>302.678</ele>
        <time>2018-11-16T10:05:03.230Z</time>
      </trkpt>
      <trkpt lat="43.72165" lon="7.10911">
        <ele>302.498</ele>
        <time>2018-11-16T10:05:08.436Z</time>
      </trkpt>
      <trkpt lat="43.72177" lon="7.1089">
        <ele>302.514</ele>
        <time>2018-11-16T10:05:11.422Z</time>
      </trkpt>
      <trkpt lat="43.7219" lon="7.10873">
        <ele>303.876</ele>
        <time>2018-11-16T10:05:14.134Z</time>
      </trkpt>
      <trkpt lat="43.72201" lon="7.10858">
        <ele>306.161</ele>
        <time>2018-11-16T10:05:16.822Z</time>
      </trkpt>
      <trkpt lat="43.72212" lon="7.10844">
        <ele>308.35</ele>
        <time>2018-11-16T10:05:19.499Z</time>
      </trkpt>
      <trkpt lat="43.72222" lon="7.10832">
        <ele>310.041</ele>
        <time>2018-11-16T10:05:21.998Z</time>
      </trkpt>
      <trkpt lat="43.72222" lon="7.10832">
        <ele>311.143</ele>
        <time>2018-11-16T10:05:27.998Z</time>
      </trkpt>
      <trkpt lat="43.72222" lon="7.10832">
        <ele>311.556</ele>
        <time>2018-11-16T10:05:28.098Z</time>
      </trkpt>
      <trkpt lat="43.7224" lon="7.10813">
        <ele>311.364</ele>
        <time>2018-11-16T10:05:35.604Z</time>
      </trkpt>
      <trkpt lat="43.72251" lon="7.10801">
        <ele>311.568</ele>
        <time>2018-11-16T10:05:38.647Z</time>
      </trkpt>
      <trkpt lat="43.7226" lon="7.1079">
        <ele>312.843</ele>
        <time>2018-11-16T10:05:41.349Z</time>
      </trkpt>
      <trkpt lat="43.72269" lon="7.1078">
        <ele>314.661</ele>
        <time>2018-11-16T10:05:44.369Z</time>
      </trkpt>
      <trkpt lat="43.72276" lon="7.10771">
        <ele>316.46</ele>
        <time>2018-11-16T10:05:47.167Z</time>
      </trkpt>
      <trkpt lat="43.72284" lon="7.10761">
        <ele>318.016</ele>
        <time>2018-11-16T10:05:50.884Z</time>
      </trkpt>
      <trkpt lat="43.72294" lon="7.10759">
        <ele>319.055</ele>
        <time>2018-11-16T10:05:54.275Z</time>
      </trkpt>
      <trkpt lat="43.72308" lon="7.10749">
        <ele>319.774</ele>
        <time>2018-11-16T10:05:57.741Z</time>
      </trkpt>
      <trkpt lat="43.72312" lon="7.1072">
        <ele>320.692</ele>
        <time>2018-11-16T10:06:01.436Z</time>
      </trkpt>
      <trkpt lat="43.72321" lon="7.10708">
        <ele>321.918</ele>
        <time>2018-11-16T10:06:03.753Z</time>
      </trkpt>
      <trkpt lat="43.72331" lon="7.10697">
        <ele>322.941</ele>
        <time>2018-11-16T10:06:06.378Z</time>
      </trkpt>
      <trkpt lat="43.72344" lon="7.10697">
        <ele>323.394</ele>
        <time>2018-11-16T10:06:09.191Z</time>
      </trkpt>
      <trkpt lat="43.72361" lon="7.10702">
        <ele>323.444</ele>
        <time>2018-11-16T10:06:12.227Z</time>
      </trkpt>
      <trkpt lat="43.7238" lon="7.10708">
        <ele>323.353</ele>
        <time>2018-11-16T10:06:15.258Z</time>
      </trkpt>
      <trkpt lat="43.72399" lon="7.10713">
        <ele>323.269</ele>
        <time>2018-11-16T10:06:18.173Z</time>
      </trkpt>
      <trkpt lat="43.72418" lon="7.10716">
        <ele>323.25</ele>
        <time>2018-11-16T10:06:21.179Z</time>
      </trkpt>
      <trkpt lat="43.72434" lon="7.10716">
        <ele>323.484</ele>
        <time>2018-11-16T10:06:23.997Z</time>
      </trkpt>
      <trkpt lat="43.72434" lon="7.10716">
        <ele>324.043</ele>
        <time>2018-11-16T10:06:28.997Z</time>
      </trkpt>
      <trkpt lat="43.72434" lon="7.10716">
        <ele>324.439</ele>
        <time>2018-11-16T10:06:29.097Z</time>
      </trkpt>
      <trkpt lat="43.72457" lon="7.10722">
        <ele>324.294</ele>
        <time>2018-11-16T10:06:36.164Z</time>
      </trkpt>
      <trkpt lat="43.7247" lon="7.10747">
        <ele>324.277</ele>
        <time>2018-11-16T10:06:39.314Z</time>
      </trkpt>
      <trkpt lat="43.72488" lon="7.10772">
        <ele>324.964</ele>
        <time>2018-11-16T10:06:42.270Z</time>
      </trkpt>
      <trkpt lat="43.72505" lon="7.10798">
        <ele>325.562</ele>
        <time>2018-11-16T10:06:45.212Z</time>
      </trkpt>
      <trkpt lat="43.72519" lon="7.10823">
        <ele>324.27</ele>
        <time>2018-11-16T10:06:47.829Z</time>
      </trkpt>
      <trkpt lat="43.72537" lon="7.10853">
        <ele>320.809</ele>
        <time>2018-11-16T10:06:50.676Z</time>
      </trkpt>
      <trkpt lat="43.72556" lon="7.10883">
        <ele>317.3</ele>
        <time>2018-11-16T10:06:53.520Z</time>
      </trkpt>
      <trkpt lat="43.72577" lon="7.10915">
        <ele>315.984</ele>
        <time>2018-11-16T10:06:56.525Z</time>
      </trkpt>
      <trkpt lat="43.72601" lon="7.10941">
        <ele>317.272</ele>
        <time>2018-11-16T10:06:59.449Z</time>
      </trkpt>
      <trkpt lat="43.72628" lon="7.1096">
        <ele>320.151</ele>
        <time>2018-11-16T10:07:02.429Z</time>
      </trkpt>
      <trkpt lat="43.72657" lon="7.10973">
        <ele>323.07</ele>
        <time>2018-11-16T10:07:05.425Z</time>
      </trkpt>
      <trkpt lat="43.72675" lon="7.11002">
        <ele>325.181</ele>
        <time>2018-11-16T10:07:08.272Z</time>
      </trkpt>
      <trkpt lat="43.7267" lon="7.11045">
        <ele>326.761</ele>
        <time>2018-11-16T10:07:11.468Z</time>
      </trkpt>
      <trkpt lat="43.72667" lon="7.11085">
        <ele>328.46</ele>
        <time>2018-11-16T10:07:14.565Z</time>
      </trkpt>
      <trkpt lat="43.72683" lon="7.11114">
        <ele>330.141</ele>
        <time>2018-11-16T10:07:17.323Z</time>
      </trkpt>
      <trkpt lat="43.72708" lon="7.11134">
        <ele>331.163</ele>
        <time>2018-11-16T10:07:20.077Z</time>
      </trkpt>
      <trkpt lat="43.72728" lon="7.11169">
        <ele>331.416</ele>
        <time>2018-11-16T10:07:22.974Z</time>
      </trkpt>
      <trkpt lat="43.7274" lon="7.11213">
        <ele>331.489</ele>
        <time>2018-11-16T10:07:25.944Z</time>
      </trkpt>
      <trkpt lat="43.72755" lon="7.11256">
        <ele>331.912</ele>
        <time>2018-11-16T10:07:28.880Z</time>
      </trkpt>
      <trkpt lat="43.72768" lon="7.11301">
        <ele>332.65</ele>
        <time>2018-11-16T10:07:31.902Z</time>
      </trkpt>
      <trkpt lat="43.72785" lon="7.1134">
        <ele>333.502</ele>
        <time>2018-11-16T10:07:34.866Z</time>
      </trkpt>
      <trkpt lat="43.72811" lon="7.11363">
        <ele>334.461</ele>
        <time>2018-11-16T10:07:37.630Z</time>
      </trkpt>
      <trkpt lat="43.72844" lon="7.11377">
        <ele>335.383</ele>
        <time>2018-11-16T10:07:40.638Z</time>
      </trkpt>
      <trkpt lat="43.72875" lon="7.11394">
        <ele>335.992</ele>
        <time>2018-11-16T10:07:43.510Z</time>
      </trkpt>
      <trkpt lat="43.72898" lon="7.11427">
        <ele>336.274</ele>
        <time>2018-11-16T10:07:46.462Z</time>
      </trkpt>
      <trkpt lat="43.729" lon="7.11476">
        <ele>336.588</ele>
        <time>2018-11-16T10:07:49.531Z</time>
      </trkpt>
      <trkpt lat="43.72887" lon="7.1152">
        <ele>337.358</ele>
        <time>2018-11-16T10:07:52.448Z</time>
      </trkpt>
      <trkpt lat="43.72869" lon="7.11564">
        <ele>338.584</ele>
        <time>2018-11-16T10:07:55.482Z</time>
      </trkpt>
      <trkpt lat="43.72845" lon="7.11596">
        <ele>339.946</ele>
        <time>2018-11-16T10:07:58.432Z</time>
      </trkpt>
      <trkpt lat="43.72831" lon="7.11633">
        <ele>341.116</ele>
        <time>2018-11-16T10:08:01.234Z</time>
      </trkpt>
      <trkpt lat="43.72817" lon="7.11668">
        <ele>341.876</ele>
        <time>2018-11-16T10:08:04.170Z</time>
      </trkpt>
      <trkpt lat="43.72804" lon="7.1169">
        <ele>342.203</ele>
        <time>2018-11-16T10:08:06.865Z</time>
      </trkpt>
      <trkpt lat="43.72796" lon="7.11701">
        <ele>342.252</ele>
        <time>2018-11-16T10:08:08.784Z</time>
      </trkpt>
      <trkpt lat="43.72795" lon="7.11715">
        <ele>341.926</ele>
        <time>2018-11-16T10:08:11.467Z</time>
      </trkpt>
      <trkpt lat="43.72799" lon="7.11727">
        <ele>340.982</ele>
        <time>2018-11-16T10:08:14.996Z</time>
      </trkpt>
      <trkpt lat="43.72799" lon="7.11727">
        <ele>339.706</ele>
        <time>2018-11-16T10:08:18.996Z</time>
      </trkpt>
      <trkpt lat="43.72799" lon="7.11727">
        <ele>338.883</ele>
        <time>2018-11-16T10:18:58.594Z</time>
      </trkpt>
      <trkpt lat="43.72811" lon="7.11749">
        <ele>338.897</ele>
        <time>2018-11-16T10:19:05.834Z</time>
      </trkpt>
      <trkpt lat="43.72829" lon="7.11768">
        <ele>339.427</ele>
        <time>2018-11-16T10:19:09.385Z</time>
      </trkpt>
      <trkpt lat="43.72848" lon="7.11782">
        <ele>340.019</ele>
        <time>2018-11-16T10:19:12.120Z</time>
      </trkpt>
      <trkpt lat="43.72871" lon="7.11794">
        <ele>340.542</ele>
        <time>2018-11-16T10:19:15.197Z</time>
      </trkpt>
      <trkpt lat="43.72897" lon="7.11807">
        <ele>341.168</ele>
        <time>2018-11-16T10:19:18.247Z</time>
      </trkpt>
      <trkpt lat="43.72923" lon="7.11822">
        <ele>342.172</ele>
        <time>2018-11-16T10:19:21.143Z</time>
      </trkpt>
      <trkpt lat="43.72952" lon="7.11837">
        <ele>343.419</ele>
        <time>2018-11-16T10:19:24.228Z</time>
      </trkpt>
      <trkpt lat="43.7298" lon="7.11853">
        <ele>344.292</ele>
        <time>2018-11-16T10:19:27.254Z</time>
      </trkpt>
      <trkpt lat="43.7301" lon="7.11861">
        <ele>344.468</ele>
        <time>2018-11-16T10:19:30.016Z</time>
      </trkpt>
      <trkpt lat="43.73047" lon="7.11857">
        <ele>343.833</ele>
        <time>2018-11-16T10:19:33.116Z</time>
      </trkpt>
      <trkpt lat="43.73083" lon="7.11849">
        <ele>342.554</ele>
        <time>2018-11-16T10:19:36.054Z</time>
      </trkpt>
      <trkpt lat="43.7312" lon="7.1184">
        <ele>341.509</ele>
        <time>2018-11-16T10:19:39.174Z</time>
      </trkpt>
      <trkpt lat="43.73154" lon="7.11846">
        <ele>341.391</ele>
        <time>2018-11-16T10:19:42.163Z</time>
      </trkpt>
      <trkpt lat="43.73179" lon="7.11882">
        <ele>342.135</ele>
        <time>2018-11-16T10:19:45.188Z</time>
      </trkpt>
      <trkpt lat="43.73204" lon="7.11922">
        <ele>343.269</ele>
        <time>2018-11-16T10:19:48.327Z</time>
      </trkpt>
      <trkpt lat="43.73232" lon="7.11955">
        <ele>343.906</ele>
        <time>2018-11-16T10:19:51.438Z</time>
      </trkpt>
      <trkpt lat="43.7326" lon="7.11985">
        <ele>343.455</ele>
        <time>2018-11-16T10:19:54.500Z</time>
      </trkpt>
      <trkpt lat="43.73277" lon="7.12024">
        <ele>342.351</ele>
        <time>2018-11-16T10:19:57.456Z</time>
      </trkpt>
      <trkpt lat="43.7329" lon="7.12069">
        <ele>341.361</ele>
        <time>2018-11-16T10:20:00.408Z</time>
      </trkpt>
      <trkpt lat="43.73319" lon="7.12104">
        <ele>340.693</ele>
        <time>2018-11-16T10:20:03.483Z</time>
      </trkpt>
      <trkpt lat="43.73349" lon="7.12134">
        <ele>340.049</ele>
        <time>2018-11-16T10:20:06.546Z</time>
      </trkpt>
      <trkpt lat="43.73379" lon="7.1216">
        <ele>339.289</ele>
        <time>2018-11-16T10:20:09.578Z</time>
      </trkpt>
      <trkpt lat="43.73407" lon="7.12186">
        <ele>338.671</ele>
        <time>2018-11-16T10:20:12.486Z</time>
      </trkpt>
      <trkpt lat="43.73424" lon="7.12228">
        <ele>338.406</ele>
        <time>2018-11-16T10:20:15.470Z</time>
      </trkpt>
      <trkpt lat="43.73444" lon="7.12268">
        <ele>338.407</ele>
        <time>2018-11-16T10:20:18.441Z</time>
      </trkpt>
      <trkpt lat="43.73475" lon="7.12291">
        <ele>338.351</ele>
        <time>2018-11-16T10:20:21.445Z</time>
      </trkpt>
      <trkpt lat="43.73507" lon="7.12309">
        <ele>338.021</ele>
        <time>2018-11-16T10:20:24.287Z</time>
      </trkpt>
      <trkpt lat="43.73545" lon="7.12306">
        <ele>337.447</ele>
        <time>2018-11-16T10:20:27.353Z</time>
      </trkpt>
      <trkpt lat="43.73577" lon="7.1233">
        <ele>336.749</ele>
        <time>2018-11-16T10:20:30.396Z</time>
      </trkpt>
      <trkpt lat="43.73594" lon="7.12371">
        <ele>336.111</ele>
        <time>2018-11-16T10:20:33.486Z</time>
      </trkpt>
      <trkpt lat="43.7362" lon="7.12396">
        <ele>335.62</ele>
        <time>2018-11-16T10:20:36.476Z</time>
      </trkpt>
      <trkpt lat="43.73644" lon="7.1242">
        <ele>335.218</ele>
        <time>2018-11-16T10:20:39.434Z</time>
      </trkpt>
      <trkpt lat="43.73655" lon="7.12461">
        <ele>335.005</ele>
        <time>2018-11-16T10:20:42.502Z</time>
      </trkpt>
      <trkpt lat="43.73649" lon="7.12503">
        <ele>335.103</ele>
        <time>2018-11-16T10:20:45.629Z</time>
      </trkpt>
      <trkpt lat="43.73642" lon="7.12537">
        <ele>335.401</ele>
        <time>2018-11-16T10:20:48.325Z</time>
      </trkpt>
      <trkpt lat="43.73639" lon="7.12579">
        <ele>335.536</ele>
        <time>2018-11-16T10:20:51.046Z</time>
      </trkpt>
      <trkpt lat="43.73647" lon="7.12631">
        <ele>335.113</ele>
        <time>2018-11-16T10:20:54.141Z</time>
      </trkpt>
      <trkpt lat="43.73659" lon="7.12683">
        <ele>333.996</ele>
        <time>2018-11-16T10:20:57.121Z</time>
      </trkpt>
      <trkpt lat="43.73683" lon="7.12731">
        <ele>332.485</ele>
        <time>2018-11-16T10:21:00.109Z</time>
      </trkpt>
      <trkpt lat="43.73711" lon="7.12774">
        <ele>331.116</ele>
        <time>2018-11-16T10:21:03.054Z</time>
      </trkpt>
      <trkpt lat="43.73738" lon="7.12823">
        <ele>330.161</ele>
        <time>2018-11-16T10:21:06.078Z</time>
      </trkpt>
      <trkpt lat="43.73753" lon="7.12881">
        <ele>329.592</ele>
        <time>2018-11-16T10:21:09.038Z</time>
      </trkpt>
      <trkpt lat="43.73758" lon="7.12946">
        <ele>329.445</ele>
        <time>2018-11-16T10:21:12.136Z</time>
      </trkpt>
      <trkpt lat="43.73769" lon="7.13008">
        <ele>329.663</ele>
        <time>2018-11-16T10:21:15.228Z</time>
      </trkpt>
      <trkpt lat="43.7379" lon="7.13056">
        <ele>329.779</ele>
        <time>2018-11-16T10:21:18.064Z</time>
      </trkpt>
      <trkpt lat="43.73827" lon="7.1308">
        <ele>329.068</ele>
        <time>2018-11-16T10:21:20.990Z</time>
      </trkpt>
      <trkpt lat="43.73869" lon="7.13088">
        <ele>327.525</ele>
        <time>2018-11-16T10:21:23.990Z</time>
      </trkpt>
      <trkpt lat="43.73896" lon="7.13125">
        <ele>326.069</ele>
        <time>2018-11-16T10:21:26.813Z</time>
      </trkpt>
      <trkpt lat="43.73913" lon="7.13176">
        <ele>325.515</ele>
        <time>2018-11-16T10:21:29.774Z</time>
      </trkpt>
      <trkpt lat="43.73953" lon="7.13201">
        <ele>325.793</ele>
        <time>2018-11-16T10:21:32.755Z</time>
      </trkpt>
      <trkpt lat="43.74002" lon="7.13193">
        <ele>326.153</ele>
        <time>2018-11-16T10:21:35.978Z</time>
      </trkpt>
      <trkpt lat="43.74045" lon="7.13189">
        <ele>326.052</ele>
        <time>2018-11-16T10:21:38.705Z</time>
      </trkpt>
      <trkpt lat="43.74095" lon="7.1321">
        <ele>325.768</ele>
        <time>2018-11-16T10:21:41.911Z</time>
      </trkpt>
      <trkpt lat="43.74145" lon="7.13222">
        <ele>325.68</ele>
        <time>2018-11-16T10:21:44.948Z</time>
      </trkpt>
      <trkpt lat="43.74193" lon="7.13226">
        <ele>325.721</ele>
        <time>2018-11-16T10:21:47.952Z</time>
      </trkpt>
      <trkpt lat="43.74235" lon="7.13238">
        <ele>325.718</ele>
        <time>2018-11-16T10:21:50.977Z</time>
      </trkpt>
      <trkpt lat="43.74267" lon="7.13254">
        <ele>325.631</ele>
        <time>2018-11-16T10:21:53.673Z</time>
      </trkpt>
      <trkpt lat="43.74304" lon="7.13259">
        <ele>325.425</ele>
        <time>2018-11-16T10:21:56.710Z</time>
      </trkpt>
      <trkpt lat="43.74325" lon="7.13218">
        <ele>324.872</ele>
        <time>2018-11-16T10:21:59.673Z</time>
      </trkpt>
      <trkpt lat="43.74335" lon="7.13159">
        <ele>323.415</ele>
        <time>2018-11-16T10:22:03.034Z</time>
      </trkpt>
      <trkpt lat="43.7436" lon="7.13114">
        <ele>321.189</ele>
        <time>2018-11-16T10:22:06.004Z</time>
      </trkpt>
      <trkpt lat="43.74403" lon="7.13106">
        <ele>319.889</ele>
        <time>2018-11-16T10:22:08.973Z</time>
      </trkpt>
      <trkpt lat="43.74448" lon="7.13098">
        <ele>320.504</ele>
        <time>2018-11-16T10:22:11.918Z</time>
      </trkpt>
      <trkpt lat="43.74492" lon="7.13071">
        <ele>321.714</ele>
        <time>2018-11-16T10:22:14.920Z</time>
      </trkpt>
      <trkpt lat="43.7454" lon="7.13069">
        <ele>322.185</ele>
        <time>2018-11-16T10:22:18.092Z</time>
      </trkpt>
      <trkpt lat="43.74576" lon="7.13068">
        <ele>322.026</ele>
        <time>2018-11-16T10:22:20.755Z</time>
      </trkpt>
      <trkpt lat="43.74613" lon="7.13098">
        <ele>321.723</ele>
        <time>2018-11-16T10:22:23.918Z</time>
      </trkpt>
      <trkpt lat="43.74653" lon="7.13098">
        <ele>321.366</ele>
        <time>2018-11-16T10:22:26.678Z</time>
      </trkpt>
      <trkpt lat="43.74692" lon="7.13061">
        <ele>320.662</ele>
        <time>2018-11-16T10:22:29.820Z</time>
      </trkpt>
      <trkpt lat="43.74731" lon="7.1303">
        <ele>319.625</ele>
        <time>2018-11-16T10:22:32.805Z</time>
      </trkpt>
      <trkpt lat="43.74778" lon="7.13022">
        <ele>318.877</ele>
        <time>2018-11-16T10:22:35.947Z</time>
      </trkpt>
      <trkpt lat="43.7482" lon="7.13015">
        <ele>318.757</ele>
        <time>2018-11-16T10:22:38.949Z</time>
      </trkpt>
      <trkpt lat="43.74852" lon="7.12993">
        <ele>318.761</ele>
        <time>2018-11-16T10:22:41.889Z</time>
      </trkpt>
      <trkpt lat="43.7488" lon="7.12979">
        <ele>318.404</ele>
        <time>2018-11-16T10:22:44.884Z</time>
      </trkpt>
      <trkpt lat="43.74905" lon="7.12976">
        <ele>317.792</ele>
        <time>2018-11-16T10:22:47.757Z</time>
      </trkpt>
      <trkpt lat="43.74918" lon="7.13014">
        <ele>317.044</ele>
        <time>2018-11-16T10:22:50.917Z</time>
      </trkpt>
      <trkpt lat="43.74929" lon="7.13056">
        <ele>316.106</ele>
        <time>2018-11-16T10:22:54.013Z</time>
      </trkpt>
      <trkpt lat="43.74935" lon="7.13098">
        <ele>315.159</ele>
        <time>2018-11-16T10:22:57.026Z</time>
      </trkpt>
      <trkpt lat="43.74914" lon="7.13135">
        <ele>314.356</ele>
        <time>2018-11-16T10:23:00.211Z</time>
      </trkpt>
      <trkpt lat="43.74879" lon="7.13143">
        <ele>313.606</ele>
        <time>2018-11-16T10:23:03.362Z</time>
      </trkpt>
      <trkpt lat="43.74845" lon="7.13158">
        <ele>312.926</ele>
        <time>2018-11-16T10:23:06.346Z</time>
      </trkpt>
      <trkpt lat="43.7482" lon="7.13191">
        <ele>312.508</ele>
        <time>2018-11-16T10:23:09.255Z</time>
      </trkpt>
      <trkpt lat="43.74796" lon="7.13225">
        <ele>312.443</ele>
        <time>2018-11-16T10:23:12.244Z</time>
      </trkpt>
      <trkpt lat="43.7477" lon="7.1326">
        <ele>312.86</ele>
        <time>2018-11-16T10:23:15.285Z</time>
      </trkpt>
      <trkpt lat="43.74753" lon="7.13299">
        <ele>313.701</ele>
        <time>2018-11-16T10:23:18.114Z</time>
      </trkpt>
      <trkpt lat="43.74735" lon="7.13341">
        <ele>314.304</ele>
        <time>2018-11-16T10:23:21.008Z</time>
      </trkpt>
      <trkpt lat="43.74715" lon="7.13384">
        <ele>314.01</ele>
        <time>2018-11-16T10:23:24.005Z</time>
      </trkpt>
      <trkpt lat="43.74693" lon="7.13425">
        <ele>313.062</ele>
        <time>2018-11-16T10:23:27.026Z</time>
      </trkpt>
      <trkpt lat="43.74668" lon="7.13458">
        <ele>312.23</ele>
        <time>2018-11-16T10:23:29.906Z</time>
      </trkpt>
      <trkpt lat="43.74644" lon="7.13489">
        <ele>312.065</ele>
        <time>2018-11-16T10:23:32.854Z</time>
      </trkpt>
      <trkpt lat="43.74616" lon="7.13511">
        <ele>312.667</ele>
        <time>2018-11-16T10:23:35.771Z</time>
      </trkpt>
      <trkpt lat="43.74589" lon="7.13535">
        <ele>313.754</ele>
        <time>2018-11-16T10:23:38.720Z</time>
      </trkpt>
      <trkpt lat="43.7457" lon="7.13573">
        <ele>314.769</ele>
        <time>2018-11-16T10:23:41.805Z</time>
      </trkpt>
      <trkpt lat="43.74553" lon="7.13605">
        <ele>315.173</ele>
        <time>2018-11-16T10:23:44.797Z</time>
      </trkpt>
      <trkpt lat="43.74541" lon="7.1363">
        <ele>314.68</ele>
        <time>2018-11-16T10:23:47.788Z</time>
      </trkpt>
      <trkpt lat="43.74533" lon="7.13647">
        <ele>313.597</ele>
        <time>2018-11-16T10:23:51.205Z</time>
      </trkpt>
      <trkpt lat="43.7453" lon="7.13659">
        <ele>312.605</ele>
        <time>2018-11-16T10:23:53.995Z</time>
      </trkpt>
      <trkpt lat="43.7453" lon="7.13659">
        <ele>312.073</ele>
        <time>2018-11-16T10:23:55.995Z</time>
      </trkpt>
      <trkpt lat="43.7453" lon="7.13659">
        <ele>311.924</ele>
        <time>2018-11-16T10:24:13.282Z</time>
      </trkpt>
      <trkpt lat="43.74516" lon="7.13675">
        <ele>311.913</ele>
        <time>2018-11-16T10:24:18.241Z</time>
      </trkpt>
      <trkpt lat="43.74502" lon="7.13708">
        <ele>311.712</ele>
        <time>2018-11-16T10:24:21.575Z</time>
      </trkpt>
      <trkpt lat="43.74484" lon="7.13741">
        <ele>311.253</ele>
        <time>2018-11-16T10:24:24.537Z</time>
      </trkpt>
      <trkpt lat="43.74459" lon="7.13769">
        <ele>310.909</ele>
        <time>2018-11-16T10:24:27.502Z</time>
      </trkpt>
      <trkpt lat="43.74435" lon="7.13805">
        <ele>310.995</ele>
        <time>2018-11-16T10:24:30.629Z</time>
      </trkpt>
      <trkpt lat="43.74413" lon="7.13835">
        <ele>311.483</ele>
        <time>2018-11-16T10:24:33.393Z</time>
      </trkpt>
      <trkpt lat="43.74392" lon="7.13867">
        <ele>312.223</ele>
        <time>2018-11-16T10:24:36.263Z</time>
      </trkpt>
      <trkpt lat="43.74378" lon="7.13904">
        <ele>312.928</ele>
        <time>2018-11-16T10:24:39.085Z</time>
      </trkpt>
      <trkpt lat="43.74371" lon="7.13953">
        <ele>313.226</ele>
        <time>2018-11-16T10:24:42.173Z</time>
      </trkpt>
      <trkpt lat="43.74365" lon="7.14005">
        <ele>312.811</ele>
        <time>2018-11-16T10:24:45.235Z</time>
      </trkpt>
      <trkpt lat="43.74358" lon="7.14054">
        <ele>311.734</ele>
        <time>2018-11-16T10:24:48.235Z</time>
      </trkpt>
      <trkpt lat="43.74357" lon="7.14102">
        <ele>310.367</ele>
        <time>2018-11-16T10:24:51.132Z</time>
      </trkpt>
      <trkpt lat="43.74362" lon="7.14152">
        <ele>309.053</ele>
        <time>2018-11-16T10:24:54.256Z</time>
      </trkpt>
      <trkpt lat="43.74361" lon="7.14201">
        <ele>308.069</ele>
        <time>2018-11-16T10:24:57.198Z</time>
      </trkpt>
      <trkpt lat="43.74351" lon="7.14244">
        <ele>307.513</ele>
        <time>2018-11-16T10:24:59.973Z</time>
      </trkpt>
      <trkpt lat="43.74342" lon="7.14287">
        <ele>307.215</ele>
        <time>2018-11-16T10:25:02.682Z</time>
      </trkpt>
      <trkpt lat="43.74347" lon="7.1434">
        <ele>307.153</ele>
        <time>2018-11-16T10:25:05.940Z</time>
      </trkpt>
      <trkpt lat="43.74345" lon="7.14386">
        <ele>307.364</ele>
        <time>2018-11-16T10:25:09.035Z</time>
      </trkpt>
      <trkpt lat="43.74339" lon="7.14413">
        <ele>307.696</ele>
        <time>2018-11-16T10:25:11.346Z</time>
      </trkpt>
      <trkpt lat="43.74334" lon="7.1443">
        <ele>307.968</ele>
        <time>2018-11-16T10:25:13.672Z</time>
      </trkpt>
      <trkpt lat="43.74326" lon="7.14444">
        <ele>308.027</ele>
        <time>2018-11-16T10:25:16.963Z</time>
      </trkpt>
      <trkpt lat="43.74322" lon="7.14459">
        <ele>307.697</ele>
        <time>2018-11-16T10:25:19.968Z</time>
      </trkpt>
      <trkpt lat="43.74328" lon="7.14476">
        <ele>307.007</ele>
        <time>2018-11-16T10:25:23.241Z</time>
      </trkpt>
      <trkpt lat="43.74334" lon="7.14486">
        <ele>306.251</ele>
        <time>2018-11-16T10:25:25.166Z</time>
      </trkpt>
      <trkpt lat="43.74339" lon="7.14501">
        <ele>305.686</ele>
        <time>2018-11-16T10:25:27.377Z</time>
      </trkpt>
      <trkpt lat="43.74342" lon="7.14513">
        <ele>305.272</ele>
        <time>2018-11-16T10:25:29.361Z</time>
      </trkpt>
      <trkpt lat="43.74347" lon="7.14536">
        <ele>304.831</ele>
        <time>2018-11-16T10:25:33.100Z</time>
      </trkpt>
      <trkpt lat="43.74351" lon="7.14553">
        <ele>304.382</ele>
        <time>2018-11-16T10:25:35.445Z</time>
      </trkpt>
      <trkpt lat="43.74354" lon="7.14571">
        <ele>304.12</ele>
        <time>2018-11-16T10:25:37.586Z</time>
      </trkpt>
      <trkpt lat="43.74358" lon="7.1459">
        <ele>304.136</ele>
        <time>2018-11-16T10:25:39.687Z</time>
      </trkpt>
      <trkpt lat="43.74363" lon="7.14608">
        <ele>304.369</ele>
        <time>2018-11-16T10:25:41.707Z</time>
      </trkpt>
      <trkpt lat="43.74368" lon="7.14624">
        <ele>304.655</ele>
        <time>2018-11-16T10:25:43.459Z</time>
      </trkpt>
      <trkpt lat="43.74372" lon="7.14636">
        <ele>304.734</ele>
        <time>2018-11-16T10:25:44.830Z</time>
      </trkpt>
      <trkpt lat="43.74376" lon="7.1465">
        <ele>304.519</ele>
        <time>2018-11-16T10:25:46.721Z</time>
      </trkpt>
      <trkpt lat="43.74384" lon="7.14669">
        <ele>304.241</ele>
        <time>2018-11-16T10:25:50.298Z</time>
      </trkpt>
      <trkpt lat="43.74395" lon="7.14689">
        <ele>304.172</ele>
        <time>2018-11-16T10:25:54.638Z</time>
      </trkpt>
      <trkpt lat="43.74406" lon="7.14709">
        <ele>304.317</ele>
        <time>2018-11-16T10:25:57.155Z</time>
      </trkpt>
      <trkpt lat="43.74424" lon="7.1474">
        <ele>304.529</ele>
        <time>2018-11-16T10:26:00.328Z</time>
      </trkpt>
      <trkpt lat="43.74447" lon="7.14769">
        <ele>304.672</ele>
        <time>2018-11-16T10:26:03.553Z</time>
      </trkpt>
      <trkpt lat="43.74468" lon="7.148">
        <ele>304.701</ele>
        <time>2018-11-16T10:26:06.604Z</time>
      </trkpt>
      <trkpt lat="43.74487" lon="7.14831">
        <ele>304.6</ele>
        <time>2018-11-16T10:26:09.597Z</time>
      </trkpt>
      <trkpt lat="43.74508" lon="7.1486">
        <ele>304.312</ele>
        <time>2018-11-16T10:26:12.557Z</time>
      </trkpt>
      <trkpt lat="43.74522" lon="7.14878">
        <ele>303.797</ele>
        <time>2018-11-16T10:26:14.530Z</time>
      </trkpt>
      <trkpt lat="43.74545" lon="7.14906">
        <ele>303.188</ele>
        <time>2018-11-16T10:26:17.585Z</time>
      </trkpt>
      <trkpt lat="43.74565" lon="7.14939">
        <ele>302.698</ele>
        <time>2018-11-16T10:26:20.619Z</time>
      </trkpt>
      <trkpt lat="43.74579" lon="7.14974">
        <ele>302.396</ele>
        <time>2018-11-16T10:26:23.496Z</time>
      </trkpt>
      <trkpt lat="43.74589" lon="7.15004">
        <ele>302.217</ele>
        <time>2018-11-16T10:26:26.183Z</time>
      </trkpt>
      <trkpt lat="43.74598" lon="7.1503">
        <ele>302.113</ele>
        <time>2018-11-16T10:26:28.801Z</time>
      </trkpt>
      <trkpt lat="43.74606" lon="7.15053">
        <ele>302.042</ele>
        <time>2018-11-16T10:26:31.462Z</time>
      </trkpt>
      <trkpt lat="43.74614" lon="7.15077">
        <ele>301.837</ele>
        <time>2018-11-16T10:26:34.439Z</time>
      </trkpt>
      <trkpt lat="43.74622" lon="7.15107">
        <ele>301.422</ele>
        <time>2018-11-16T10:26:37.910Z</time>
      </trkpt>
      <trkpt lat="43.7463" lon="7.15137">
        <ele>300.933</ele>
        <time>2018-11-16T10:26:41.047Z</time>
      </trkpt>
      <trkpt lat="43.74636" lon="7.15167">
        <ele>300.542</ele>
        <time>2018-11-16T10:26:43.941Z</time>
      </trkpt>
      <trkpt lat="43.74642" lon="7.15196">
        <ele>300.355</ele>
        <time>2018-11-16T10:26:46.912Z</time>
      </trkpt>
      <trkpt lat="43.7464" lon="7.15226">
        <ele>300.378</ele>
        <time>2018-11-16T10:26:49.840Z</time>
      </trkpt>
      <trkpt lat="43.74637" lon="7.15255">
        <ele>300.365</ele>
        <time>2018-11-16T10:26:52.835Z</time>
      </trkpt>
      <trkpt lat="43.74637" lon="7.15287">
        <ele>300.026</ele>
        <time>2018-11-16T10:26:55.990Z</time>
      </trkpt>
      <trkpt lat="43.74639" lon="7.15316">
        <ele>299.355</ele>
        <time>2018-11-16T10:26:58.906Z</time>
      </trkpt>
      <trkpt lat="43.74643" lon="7.15349">
        <ele>298.619</ele>
        <time>2018-11-16T10:27:02.083Z</time>
      </trkpt>
      <trkpt lat="43.74641" lon="7.15383">
        <ele>297.919</ele>
        <time>2018-11-16T10:27:05.245Z</time>
      </trkpt>
      <trkpt lat="43.74632" lon="7.15414">
        <ele>297.25</ele>
        <time>2018-11-16T10:27:08.171Z</time>
      </trkpt>
      <trkpt lat="43.7462" lon="7.15442">
        <ele>296.764</ele>
        <time>2018-11-16T10:27:11.136Z</time>
      </trkpt>
      <trkpt lat="43.74608" lon="7.15469">
        <ele>296.561</ele>
        <time>2018-11-16T10:27:14.017Z</time>
      </trkpt>
      <trkpt lat="43.74595" lon="7.15497">
        <ele>296.531</ele>
        <time>2018-11-16T10:27:17.035Z</time>
      </trkpt>
      <trkpt lat="43.74581" lon="7.15526">
        <ele>296.555</ele>
        <time>2018-11-16T10:27:20.110Z</time>
      </trkpt>
      <trkpt lat="43.74566" lon="7.15559">
        <ele>296.516</ele>
        <time>2018-11-16T10:27:23.234Z</time>
      </trkpt>
      <trkpt lat="43.74549" lon="7.156">
        <ele>296.199</ele>
        <time>2018-11-16T10:27:26.534Z</time>
      </trkpt>
      <trkpt lat="43.7454" lon="7.15646">
        <ele>295.488</ele>
        <time>2018-11-16T10:27:29.560Z</time>
      </trkpt>
      <trkpt lat="43.74545" lon="7.15697">
        <ele>294.539</ele>
        <time>2018-11-16T10:27:32.622Z</time>
      </trkpt>
      <trkpt lat="43.74558" lon="7.15743">
        <ele>293.613</ele>
        <time>2018-11-16T10:27:35.560Z</time>
      </trkpt>
      <trkpt lat="43.74571" lon="7.15788">
        <ele>292.946</ele>
        <time>2018-11-16T10:27:38.468Z</time>
      </trkpt>
      <trkpt lat="43.7457" lon="7.15836">
        <ele>292.656</ele>
        <time>2018-11-16T10:27:41.373Z</time>
      </trkpt>
      <trkpt lat="43.74552" lon="7.15872">
        <ele>292.605</ele>
        <time>2018-11-16T10:27:44.201Z</time>
      </trkpt>
      <trkpt lat="43.74528" lon="7.15898">
        <ele>292.498</ele>
        <time>2018-11-16T10:27:46.995Z</time>
      </trkpt>
      <trkpt lat="43.74514" lon="7.15932">
        <ele>292.161</ele>
        <time>2018-11-16T10:27:49.802Z</time>
      </trkpt>
      <trkpt lat="43.74521" lon="7.15974">
        <ele>291.552</ele>
        <time>2018-11-16T10:27:52.928Z</time>
      </trkpt>
      <trkpt lat="43.74535" lon="7.16009">
        <ele>290.587</ele>
        <time>2018-11-16T10:27:55.935Z</time>
      </trkpt>
      <trkpt lat="43.7455" lon="7.16048">
        <ele>289.347</ele>
        <time>2018-11-16T10:27:58.999Z</time>
      </trkpt>
      <trkpt lat="43.74562" lon="7.16096">
        <ele>288.257</ele>
        <time>2018-11-16T10:28:02.215Z</time>
      </trkpt>
      <trkpt lat="43.74573" lon="7.16144">
        <ele>287.661</ele>
        <time>2018-11-16T10:28:05.235Z</time>
      </trkpt>
      <trkpt lat="43.74603" lon="7.16185">
        <ele>287.435</ele>
        <time>2018-11-16T10:28:08.472Z</time>
      </trkpt>
      <trkpt lat="43.74632" lon="7.16226">
        <ele>287.268</ele>
        <time>2018-11-16T10:28:11.415Z</time>
      </trkpt>
      <trkpt lat="43.74668" lon="7.16259">
        <ele>287.162</ele>
        <time>2018-11-16T10:28:14.458Z</time>
      </trkpt>
      <trkpt lat="43.74702" lon="7.16286">
        <ele>287.211</ele>
        <time>2018-11-16T10:28:17.272Z</time>
      </trkpt>
      <trkpt lat="43.74735" lon="7.16296">
        <ele>287.123</ele>
        <time>2018-11-16T10:28:19.861Z</time>
      </trkpt>
      <trkpt lat="43.74766" lon="7.16286">
        <ele>286.576</ele>
        <time>2018-11-16T10:28:22.657Z</time>
      </trkpt>
      <trkpt lat="43.74791" lon="7.16275">
        <ele>285.788</ele>
        <time>2018-11-16T10:28:25.183Z</time>
      </trkpt>
      <trkpt lat="43.74811" lon="7.1629">
        <ele>285.219</ele>
        <time>2018-11-16T10:28:27.571Z</time>
      </trkpt>
      <trkpt lat="43.74808" lon="7.16333">
        <ele>285.062</ele>
        <time>2018-11-16T10:28:31.299Z</time>
      </trkpt>
      <trkpt lat="43.74794" lon="7.16376">
        <ele>285.236</ele>
        <time>2018-11-16T10:28:34.653Z</time>
      </trkpt>
      <trkpt lat="43.74784" lon="7.1642">
        <ele>285.557</ele>
        <time>2018-11-16T10:28:37.586Z</time>
      </trkpt>
      <trkpt lat="43.74777" lon="7.16462">
        <ele>285.889</ele>
        <time>2018-11-16T10:28:40.367Z</time>
      </trkpt>
      <trkpt lat="43.74785" lon="7.16505">
        <ele>286.137</ele>
        <time>2018-11-16T10:28:43.351Z</time>
      </trkpt>
      <trkpt lat="43.74798" lon="7.16551">
        <ele>286.134</ele>
        <time>2018-11-16T10:28:46.488Z</time>
      </trkpt>
      <trkpt lat="43.7481" lon="7.16595">
        <ele>285.729</ele>
        <time>2018-11-16T10:28:49.432Z</time>
      </trkpt>
      <trkpt lat="43.74823" lon="7.16636">
        <ele>284.937</ele>
        <time>2018-11-16T10:28:52.222Z</time>
      </trkpt>
      <trkpt lat="43.74847" lon="7.16658">
        <ele>283.806</ele>
        <time>2018-11-16T10:28:54.853Z</time>
      </trkpt>
      <trkpt lat="43.74883" lon="7.1666">
        <ele>282.267</ele>
        <time>2018-11-16T10:28:58.349Z</time>
      </trkpt>
      <trkpt lat="43.7492" lon="7.16652">
        <ele>280.319</ele>
        <time>2018-11-16T10:29:01.559Z</time>
      </trkpt>
      <trkpt lat="43.74956" lon="7.16621">
        <ele>278.413</ele>
        <time>2018-11-16T10:29:04.804Z</time>
      </trkpt>
      <trkpt lat="43.74999" lon="7.1661">
        <ele>277.502</ele>
        <time>2018-11-16T10:29:07.895Z</time>
      </trkpt>
      <trkpt lat="43.75042" lon="7.16606">
        <ele>278.028</ele>
        <time>2018-11-16T10:29:10.837Z</time>
      </trkpt>
      <trkpt lat="43.7508" lon="7.16583">
        <ele>279.229</ele>
        <time>2018-11-16T10:29:13.688Z</time>
      </trkpt>
      <trkpt lat="43.75113" lon="7.16566">
        <ele>280.077</ele>
        <time>2018-11-16T10:29:16.183Z</time>
      </trkpt>
      <trkpt lat="43.75148" lon="7.16587">
        <ele>280.289</ele>
        <time>2018-11-16T10:29:19.055Z</time>
      </trkpt>
      <trkpt lat="43.75189" lon="7.16622">
        <ele>280.211</ele>
        <time>2018-11-16T10:29:22.634Z</time>
      </trkpt>
      <trkpt lat="43.75231" lon="7.16659">
        <ele>280.281</ele>
        <time>2018-11-16T10:29:25.894Z</time>
      </trkpt>
      <trkpt lat="43.7527" lon="7.16688">
        <ele>280.488</ele>
        <time>2018-11-16T10:29:28.733Z</time>
      </trkpt>
      <trkpt lat="43.75313" lon="7.16715">
        <ele>280.413</ele>
        <time>2018-11-16T10:29:31.915Z</time>
      </trkpt>
      <trkpt lat="43.75352" lon="7.16754">
        <ele>279.966</ele>
        <time>2018-11-16T10:29:35.096Z</time>
      </trkpt>
      <trkpt lat="43.75387" lon="7.16797">
        <ele>279.441</ele>
        <time>2018-11-16T10:29:38.027Z</time>
      </trkpt>
      <trkpt lat="43.75421" lon="7.1684">
        <ele>279.02</ele>
        <time>2018-11-16T10:29:40.882Z</time>
      </trkpt>
      <trkpt lat="43.75464" lon="7.1686">
        <ele>278.542</ele>
        <time>2018-11-16T10:29:43.818Z</time>
      </trkpt>
      <trkpt lat="43.75494" lon="7.16894">
        <ele>277.6</ele>
        <time>2018-11-16T10:29:46.405Z</time>
      </trkpt>
      <trkpt lat="43.75516" lon="7.16938">
        <ele>276.28</ele>
        <time>2018-11-16T10:29:49.214Z</time>
      </trkpt>
      <trkpt lat="43.75519" lon="7.16989">
        <ele>275.603</ele>
        <time>2018-11-16T10:29:52.032Z</time>
      </trkpt>
      <trkpt lat="43.75522" lon="7.1705">
        <ele>276.14</ele>
        <time>2018-11-16T10:29:55.379Z</time>
      </trkpt>
      <trkpt lat="43.7554" lon="7.17105">
        <ele>277.189</ele>
        <time>2018-11-16T10:29:58.491Z</time>
      </trkpt>
      <trkpt lat="43.75561" lon="7.17158">
        <ele>277.705</ele>
        <time>2018-11-16T10:30:01.603Z</time>
      </trkpt>
      <trkpt lat="43.75585" lon="7.17198">
        <ele>277.347</ele>
        <time>2018-11-16T10:30:04.349Z</time>
      </trkpt>
      <trkpt lat="43.75609" lon="7.17251">
        <ele>276.512</ele>
        <time>2018-11-16T10:30:07.601Z</time>
      </trkpt>
      <trkpt lat="43.75624" lon="7.17311">
        <ele>275.798</ele>
        <time>2018-11-16T10:30:10.697Z</time>
      </trkpt>
      <trkpt lat="43.75626" lon="7.17384">
        <ele>275.451</ele>
        <time>2018-11-16T10:30:14.025Z</time>
      </trkpt>
      <trkpt lat="43.75628" lon="7.17448">
        <ele>275.377</ele>
        <time>2018-11-16T10:30:16.852Z</time>
      </trkpt>
      <trkpt lat="43.75634" lon="7.17507">
        <ele>275.088</ele>
        <time>2018-11-16T10:30:19.566Z</time>
      </trkpt>
      <trkpt lat="43.75653" lon="7.17555">
        <ele>273.86</ele>
        <time>2018-11-16T10:30:22.274Z</time>
      </trkpt>
      <trkpt lat="43.75667" lon="7.17597">
        <ele>271.52</ele>
        <time>2018-11-16T10:30:24.722Z</time>
      </trkpt>
      <trkpt lat="43.75675" lon="7.17632">
        <ele>268.723</ele>
        <time>2018-11-16T10:30:26.945Z</time>
      </trkpt>
      <trkpt lat="43.75682" lon="7.1766">
        <ele>266.401</ele>
        <time>2018-11-16T10:30:28.897Z</time>
      </trkpt>
      <trkpt lat="43.75688" lon="7.17685">
        <ele>265.041</ele>
        <time>2018-11-16T10:30:30.879Z</time>
      </trkpt>
      <trkpt lat="43.75696" lon="7.17714">
        <ele>264.427</ele>
        <time>2018-11-16T10:30:33.584Z</time>
      </trkpt>
      <trkpt lat="43.75715" lon="7.17731">
        <ele>264.095</ele>
        <time>2018-11-16T10:30:36.868Z</time>
      </trkpt>
      <trkpt lat="43.75736" lon="7.1775">
        <ele>263.72</ele>
        <time>2018-11-16T10:30:40.330Z</time>
      </trkpt>
      <trkpt lat="43.75758" lon="7.17757">
        <ele>263.221</ele>
        <time>2018-11-16T10:30:43.250Z</time>
      </trkpt>
      <trkpt lat="43.75779" lon="7.17752">
        <ele>262.821</ele>
        <time>2018-11-16T10:30:45.875Z</time>
      </trkpt>
      <trkpt lat="43.75804" lon="7.17747">
        <ele>262.745</ele>
        <time>2018-11-16T10:30:49.073Z</time>
      </trkpt>
      <trkpt lat="43.75826" lon="7.17742">
        <ele>262.949</ele>
        <time>2018-11-16T10:30:52.070Z</time>
      </trkpt>
      <trkpt lat="43.75841" lon="7.17729">
        <ele>263.049</ele>
        <time>2018-11-16T10:30:54.371Z</time>
      </trkpt>
      <trkpt lat="43.75857" lon="7.17705">
        <ele>262.732</ele>
        <time>2018-11-16T10:30:57.303Z</time>
      </trkpt>
      <trkpt lat="43.75872" lon="7.17682">
        <ele>262.164</ele>
        <time>2018-11-16T10:31:00.474Z</time>
      </trkpt>
      <trkpt lat="43.75882" lon="7.17655">
        <ele>261.534</ele>
        <time>2018-11-16T10:31:03.670Z</time>
      </trkpt>
      <trkpt lat="43.75886" lon="7.17629">
        <ele>260.918</ele>
        <time>2018-11-16T10:31:06.272Z</time>
      </trkpt>
      <trkpt lat="43.75891" lon="7.17599">
        <ele>260.506</ele>
        <time>2018-11-16T10:31:09.240Z</time>
      </trkpt>
      <trkpt lat="43.75901" lon="7.17571">
        <ele>260.637</ele>
        <time>2018-11-16T10:31:12.319Z</time>
      </trkpt>
      <trkpt lat="43.75923" lon="7.17573">
        <ele>261.483</ele>
        <time>2018-11-16T10:31:15.230Z</time>
      </trkpt>
      <trkpt lat="43.75947" lon="7.17581">
        <ele>262.604</ele>
        <time>2018-11-16T10:31:18.573Z</time>
      </trkpt>
      <trkpt lat="43.75968" lon="7.17594">
        <ele>263.229</ele>
        <time>2018-11-16T10:31:21.738Z</time>
      </trkpt>
      <trkpt lat="43.75986" lon="7.17596">
        <ele>263</ele>
        <time>2018-11-16T10:31:24.242Z</time>
      </trkpt>
      <trkpt lat="43.75997" lon="7.17599">
        <ele>262.23</ele>
        <time>2018-11-16T10:31:25.712Z</time>
      </trkpt>
      <trkpt lat="43.76008" lon="7.17609">
        <ele>261.566</ele>
        <time>2018-11-16T10:31:27.747Z</time>
      </trkpt>
      <trkpt lat="43.76025" lon="7.17599">
        <ele>261.309</ele>
        <time>2018-11-16T10:31:30.945Z</time>
      </trkpt>
      <trkpt lat="43.76044" lon="7.17578">
        <ele>261.276</ele>
        <time>2018-11-16T10:31:36.601Z</time>
      </trkpt>
      <trkpt lat="43.76058" lon="7.17558">
        <ele>261.206</ele>
        <time>2018-11-16T10:31:40.135Z</time>
      </trkpt>
      <trkpt lat="43.76073" lon="7.17531">
        <ele>261.038</ele>
        <time>2018-11-16T10:31:43.528Z</time>
      </trkpt>
      <trkpt lat="43.76085" lon="7.17501">
        <ele>260.773</ele>
        <time>2018-11-16T10:31:46.709Z</time>
      </trkpt>
      <trkpt lat="43.76103" lon="7.17492">
        <ele>260.221</ele>
        <time>2018-11-16T10:31:49.208Z</time>
      </trkpt>
      <trkpt lat="43.76122" lon="7.17502">
        <ele>259.308</ele>
        <time>2018-11-16T10:31:51.666Z</time>
      </trkpt>
      <trkpt lat="43.76141" lon="7.17514">
        <ele>258.303</ele>
        <time>2018-11-16T10:31:54.598Z</time>
      </trkpt>
      <trkpt lat="43.76166" lon="7.1753">
        <ele>257.246</ele>
        <time>2018-11-16T10:31:58.686Z</time>
      </trkpt>
      <trkpt lat="43.76184" lon="7.17545">
        <ele>255.883</ele>
        <time>2018-11-16T10:32:01.665Z</time>
      </trkpt>
      <trkpt lat="43.762" lon="7.17556">
        <ele>254.251</ele>
        <time>2018-11-16T10:32:04.126Z</time>
      </trkpt>
      <trkpt lat="43.76223" lon="7.17557">
        <ele>252.569</ele>
        <time>2018-11-16T10:32:07.256Z</time>
      </trkpt>
      <trkpt lat="43.76249" lon="7.17555">
        <ele>250.972</ele>
        <time>2018-11-16T10:32:11.018Z</time>
      </trkpt>
      <trkpt lat="43.76271" lon="7.17586">
        <ele>249.743</ele>
        <time>2018-11-16T10:32:15.331Z</time>
      </trkpt>
      <trkpt lat="43.76299" lon="7.17608">
        <ele>249.131</ele>
        <time>2018-11-16T10:32:18.816Z</time>
      </trkpt>
      <trkpt lat="43.76328" lon="7.17625">
        <ele>248.739</ele>
        <time>2018-11-16T10:32:21.901Z</time>
      </trkpt>
      <trkpt lat="43.76347" lon="7.17644">
        <ele>247.847</ele>
        <time>2018-11-16T10:32:24.002Z</time>
      </trkpt>
      <trkpt lat="43.76364" lon="7.17664">
        <ele>246.522</ele>
        <time>2018-11-16T10:32:25.918Z</time>
      </trkpt>
      <trkpt lat="43.76383" lon="7.17676">
        <ele>245.377</ele>
        <time>2018-11-16T10:32:27.819Z</time>
      </trkpt>
      <trkpt lat="43.764" lon="7.17696">
        <ele>244.468</ele>
        <time>2018-11-16T10:32:29.832Z</time>
      </trkpt>
      <trkpt lat="43.7641" lon="7.17718">
        <ele>243.46</ele>
        <time>2018-11-16T10:32:31.568Z</time>
      </trkpt>
      <trkpt lat="43.76421" lon="7.17735">
        <ele>242.228</ele>
        <time>2018-11-16T10:32:33.152Z</time>
      </trkpt>
      <trkpt lat="43.76432" lon="7.17749">
        <ele>240.793</ele>
        <time>2018-11-16T10:32:34.731Z</time>
      </trkpt>
      <trkpt lat="43.76446" lon="7.17758">
        <ele>239.185</ele>
        <time>2018-11-16T10:32:36.446Z</time>
      </trkpt>
      <trkpt lat="43.76461" lon="7.17767">
        <ele>237.51</ele>
        <time>2018-11-16T10:32:38.367Z</time>
      </trkpt>
      <trkpt lat="43.76475" lon="7.17776">
        <ele>235.979</ele>
        <time>2018-11-16T10:32:40.311Z</time>
      </trkpt>
      <trkpt lat="43.76495" lon="7.17784">
        <ele>234.773</ele>
        <time>2018-11-16T10:32:43.012Z</time>
      </trkpt>
      <trkpt lat="43.76517" lon="7.17786">
        <ele>233.769</ele>
        <time>2018-11-16T10:32:45.945Z</time>
      </trkpt>
      <trkpt lat="43.76537" lon="7.17796">
        <ele>232.643</ele>
        <time>2018-11-16T10:32:48.869Z</time>
      </trkpt>
      <trkpt lat="43.76557" lon="7.17818">
        <ele>231.383</ele>
        <time>2018-11-16T10:32:52.458Z</time>
      </trkpt>
      <trkpt lat="43.76582" lon="7.1784">
        <ele>230.179</ele>
        <time>2018-11-16T10:32:56.169Z</time>
      </trkpt>
      <trkpt lat="43.76602" lon="7.17868">
        <ele>228.935</ele>
        <time>2018-11-16T10:32:59.227Z</time>
      </trkpt>
      <trkpt lat="43.76607" lon="7.17909">
        <ele>227.646</ele>
        <time>2018-11-16T10:33:02.414Z</time>
      </trkpt>
      <trkpt lat="43.76628" lon="7.17942">
        <ele>226.417</ele>
        <time>2018-11-16T10:33:05.580Z</time>
      </trkpt>
      <trkpt lat="43.76659" lon="7.17946">
        <ele>225.105</ele>
        <time>2018-11-16T10:33:08.608Z</time>
      </trkpt>
      <trkpt lat="43.76693" lon="7.1793">
        <ele>223.714</ele>
        <time>2018-11-16T10:33:11.981Z</time>
      </trkpt>
      <trkpt lat="43.76723" lon="7.179">
        <ele>222.378</ele>
        <time>2018-11-16T10:33:15.157Z</time>
      </trkpt>
      <trkpt lat="43.76755" lon="7.17884">
        <ele>221.082</ele>
        <time>2018-11-16T10:33:18.078Z</time>
      </trkpt>
      <trkpt lat="43.76787" lon="7.17868">
        <ele>219.936</ele>
        <time>2018-11-16T10:33:20.916Z</time>
      </trkpt>
      <trkpt lat="43.76813" lon="7.17845">
        <ele>218.787</ele>
        <time>2018-11-16T10:33:23.646Z</time>
      </trkpt>
      <trkpt lat="43.7683" lon="7.17812">
        <ele>217.138</ele>
        <time>2018-11-16T10:33:26.293Z</time>
      </trkpt>
      <trkpt lat="43.76831" lon="7.1777">
        <ele>214.83</ele>
        <time>2018-11-16T10:33:29.379Z</time>
      </trkpt>
      <trkpt lat="43.76833" lon="7.17734">
        <ele>212.149</ele>
        <time>2018-11-16T10:33:32.031Z</time>
      </trkpt>
      <trkpt lat="43.76845" lon="7.17718">
        <ele>209.647</ele>
        <time>2018-11-16T10:33:33.830Z</time>
      </trkpt>
      <trkpt lat="43.76856" lon="7.17742">
        <ele>207.872</ele>
        <time>2018-11-16T10:33:36.516Z</time>
      </trkpt>
      <trkpt lat="43.76867" lon="7.17789">
        <ele>206.884</ele>
        <time>2018-11-16T10:33:41.813Z</time>
      </trkpt>
      <trkpt lat="43.76888" lon="7.17835">
        <ele>206.251</ele>
        <time>2018-11-16T10:33:45.540Z</time>
      </trkpt>
      <trkpt lat="43.76899" lon="7.17883">
        <ele>205.635</ele>
        <time>2018-11-16T10:33:48.472Z</time>
      </trkpt>
      <trkpt lat="43.76896" lon="7.17932">
        <ele>205.133</ele>
        <time>2018-11-16T10:33:51.367Z</time>
      </trkpt>
      <trkpt lat="43.76893" lon="7.17989">
        <ele>204.909</ele>
        <time>2018-11-16T10:33:54.861Z</time>
      </trkpt>
      <trkpt lat="43.76911" lon="7.18022">
        <ele>204.473</ele>
        <time>2018-11-16T10:33:57.460Z</time>
      </trkpt>
      <trkpt lat="43.76943" lon="7.18026">
        <ele>202.611</ele>
        <time>2018-11-16T10:34:00.427Z</time>
      </trkpt>
      <trkpt lat="43.76971" lon="7.18028">
        <ele>198.609</ele>
        <time>2018-11-16T10:34:03.168Z</time>
      </trkpt>
      <trkpt lat="43.76982" lon="7.18056">
        <ele>193.841</ele>
        <time>2018-11-16T10:34:05.569Z</time>
      </trkpt>
      <trkpt lat="43.76963" lon="7.18089">
        <ele>190.491</ele>
        <time>2018-11-16T10:34:09.229Z</time>
      </trkpt>
      <trkpt lat="43.76967" lon="7.18132">
        <ele>188.98</ele>
        <time>2018-11-16T10:34:12.779Z</time>
      </trkpt>
      <trkpt lat="43.76994" lon="7.18172">
        <ele>187.727</ele>
        <time>2018-11-16T10:34:16.466Z</time>
      </trkpt>
      <trkpt lat="43.77028" lon="7.18187">
        <ele>185.189</ele>
        <time>2018-11-16T10:34:19.348Z</time>
      </trkpt>
      <trkpt lat="43.77065" lon="7.18205">
        <ele>181.726</ele>
        <time>2018-11-16T10:34:22.521Z</time>
      </trkpt>
      <trkpt lat="43.77093" lon="7.18237">
        <ele>178.992</ele>
        <time>2018-11-16T10:34:25.537Z</time>
      </trkpt>
      <trkpt lat="43.77095" lon="7.18273">
        <ele>177.688</ele>
        <time>2018-11-16T10:34:28.203Z</time>
      </trkpt>
      <trkpt lat="43.77069" lon="7.18299">
        <ele>177.354</ele>
        <time>2018-11-16T10:34:31.585Z</time>
      </trkpt>
      <trkpt lat="43.77055" lon="7.18332">
        <ele>177.426</ele>
        <time>2018-11-16T10:34:34.568Z</time>
      </trkpt>
      <trkpt lat="43.77069" lon="7.18368">
        <ele>177.071</ele>
        <time>2018-11-16T10:34:37.977Z</time>
      </trkpt>
      <trkpt lat="43.77098" lon="7.18384">
        <ele>175.459</ele>
        <time>2018-11-16T10:34:41.297Z</time>
      </trkpt>
      <trkpt lat="43.77115" lon="7.18427">
        <ele>172.966</ele>
        <time>2018-11-16T10:34:44.699Z</time>
      </trkpt>
      <trkpt lat="43.77127" lon="7.18467">
        <ele>170.825</ele>
        <time>2018-11-16T10:34:47.733Z</time>
      </trkpt>
      <trkpt lat="43.77149" lon="7.18489">
        <ele>169.148</ele>
        <time>2018-11-16T10:34:50.516Z</time>
      </trkpt>
      <trkpt lat="43.77156" lon="7.1852">
        <ele>167.199</ele>
        <time>2018-11-16T10:34:53.270Z</time>
      </trkpt>
      <trkpt lat="43.77156" lon="7.18557">
        <ele>165.077</ele>
        <time>2018-11-16T10:34:56.476Z</time>
      </trkpt>
      <trkpt lat="43.77161" lon="7.18582">
        <ele>163.264</ele>
        <time>2018-11-16T10:34:58.915Z</time>
      </trkpt>
      <trkpt lat="43.77186" lon="7.18573">
        <ele>161.569</ele>
        <time>2018-11-16T10:35:02.284Z</time>
      </trkpt>
      <trkpt lat="43.77208" lon="7.18582">
        <ele>159.819</ele>
        <time>2018-11-16T10:35:05.326Z</time>
      </trkpt>
      <trkpt lat="43.77214" lon="7.18613">
        <ele>158.336</ele>
        <time>2018-11-16T10:35:08.365Z</time>
      </trkpt>
      <trkpt lat="43.77227" lon="7.18638">
        <ele>157.349</ele>
        <time>2018-11-16T10:35:11.348Z</time>
      </trkpt>
      <trkpt lat="43.77254" lon="7.18639">
        <ele>156.276</ele>
        <time>2018-11-16T10:35:14.492Z</time>
      </trkpt>
      <trkpt lat="43.77285" lon="7.18632">
        <ele>154.237</ele>
        <time>2018-11-16T10:35:17.585Z</time>
      </trkpt>
      <trkpt lat="43.77315" lon="7.18626">
        <ele>151.309</ele>
        <time>2018-11-16T10:35:20.924Z</time>
      </trkpt>
      <trkpt lat="43.7732" lon="7.18659">
        <ele>148.499</ele>
        <time>2018-11-16T10:35:24.032Z</time>
      </trkpt>
      <trkpt lat="43.77298" lon="7.18683">
        <ele>146.536</ele>
        <time>2018-11-16T10:35:27.288Z</time>
      </trkpt>
      <trkpt lat="43.77274" lon="7.18705">
        <ele>145.48</ele>
        <time>2018-11-16T10:35:30.428Z</time>
      </trkpt>
      <trkpt lat="43.77251" lon="7.18715">
        <ele>145.011</ele>
        <time>2018-11-16T10:35:33.055Z</time>
      </trkpt>
      <trkpt lat="43.7722" lon="7.18726">
        <ele>144.713</ele>
        <time>2018-11-16T10:35:36.022Z</time>
      </trkpt>
      <trkpt lat="43.77184" lon="7.18739">
        <ele>144.234</ele>
        <time>2018-11-16T10:35:39.044Z</time>
      </trkpt>
      <trkpt lat="43.77147" lon="7.1876">
        <ele>143.25</ele>
        <time>2018-11-16T10:35:42.008Z</time>
      </trkpt>
      <trkpt lat="43.77117" lon="7.18799">
        <ele>141.448</ele>
        <time>2018-11-16T10:35:45.023Z</time>
      </trkpt>
      <trkpt lat="43.77079" lon="7.18825">
        <ele>138.952</ele>
        <time>2018-11-16T10:35:48.093Z</time>
      </trkpt>
      <trkpt lat="43.77037" lon="7.18838">
        <ele>136.406</ele>
        <time>2018-11-16T10:35:51.221Z</time>
      </trkpt>
      <trkpt lat="43.76999" lon="7.18846">
        <ele>134.067</ele>
        <time>2018-11-16T10:35:54.180Z</time>
      </trkpt>
      <trkpt lat="43.76966" lon="7.18853">
        <ele>131.414</ele>
        <time>2018-11-16T10:35:57.159Z</time>
      </trkpt>
      <trkpt lat="43.76939" lon="7.1886">
        <ele>128.205</ele>
        <time>2018-11-16T10:36:00.102Z</time>
      </trkpt>
      <trkpt lat="43.76931" lon="7.18889">
        <ele>124.858</ele>
        <time>2018-11-16T10:36:02.994Z</time>
      </trkpt>
      <trkpt lat="43.76948" lon="7.18908">
        <ele>121.732</ele>
        <time>2018-11-16T10:36:05.565Z</time>
      </trkpt>
      <trkpt lat="43.76993" lon="7.18912">
        <ele>118.824</ele>
        <time>2018-11-16T10:36:09.159Z</time>
      </trkpt>
      <trkpt lat="43.77037" lon="7.18912">
        <ele>116.13</ele>
        <time>2018-11-16T10:36:12.403Z</time>
      </trkpt>
      <trkpt lat="43.77073" lon="7.18903">
        <ele>113.982</ele>
        <time>2018-11-16T10:36:15.335Z</time>
      </trkpt>
      <trkpt lat="43.771" lon="7.18888">
        <ele>112.749</ele>
        <time>2018-11-16T10:36:18.381Z</time>
      </trkpt>
      <trkpt lat="43.77119" lon="7.18903">
        <ele>112.56</ele>
        <time>2018-11-16T10:36:21.189Z</time>
      </trkpt>
      <trkpt lat="43.77102" lon="7.18929">
        <ele>113.231</ele>
        <time>2018-11-16T10:36:24.302Z</time>
      </trkpt>
      <trkpt lat="43.77074" lon="7.18958">
        <ele>114.154</ele>
        <time>2018-11-16T10:36:27.620Z</time>
      </trkpt>
      <trkpt lat="43.77047" lon="7.18985">
        <ele>114.489</ele>
        <time>2018-11-16T10:36:30.571Z</time>
      </trkpt>
      <trkpt lat="43.77012" lon="7.18986">
        <ele>113.603</ele>
        <time>2018-11-16T10:36:33.552Z</time>
      </trkpt>
      <trkpt lat="43.76975" lon="7.18999">
        <ele>111.558</ele>
        <time>2018-11-16T10:36:36.573Z</time>
      </trkpt>
      <trkpt lat="43.76934" lon="7.18995">
        <ele>109.225</ele>
        <time>2018-11-16T10:36:39.688Z</time>
      </trkpt>
      <trkpt lat="43.76896" lon="7.18999">
        <ele>107.401</ele>
        <time>2018-11-16T10:36:42.503Z</time>
      </trkpt>
      <trkpt lat="43.76855" lon="7.18982">
        <ele>105.829</ele>
        <time>2018-11-16T10:36:45.460Z</time>
      </trkpt>
      <trkpt lat="43.76808" lon="7.18976">
        <ele>104.008</ele>
        <time>2018-11-16T10:36:48.472Z</time>
      </trkpt>
      <trkpt lat="43.76763" lon="7.18983">
        <ele>101.917</ele>
        <time>2018-11-16T10:36:51.364Z</time>
      </trkpt>
      <trkpt lat="43.76723" lon="7.18999">
        <ele>99.419</ele>
        <time>2018-11-16T10:36:54.223Z</time>
      </trkpt>
      <trkpt lat="43.76685" lon="7.19016">
        <ele>96.414</ele>
        <time>2018-11-16T10:36:57.155Z</time>
      </trkpt>
      <trkpt lat="43.76651" lon="7.19032">
        <ele>93.577</ele>
        <time>2018-11-16T10:37:00.021Z</time>
      </trkpt>
      <trkpt lat="43.76625" lon="7.1908">
        <ele>91.395</ele>
        <time>2018-11-16T10:37:03.372Z</time>
      </trkpt>
      <trkpt lat="43.76607" lon="7.19131">
        <ele>89.435</ele>
        <time>2018-11-16T10:37:06.769Z</time>
      </trkpt>
      <trkpt lat="43.76598" lon="7.19167">
        <ele>87.496</ele>
        <time>2018-11-16T10:37:09.743Z</time>
      </trkpt>
      <trkpt lat="43.76593" lon="7.19195">
        <ele>86.263</ele>
        <time>2018-11-16T10:37:12.731Z</time>
      </trkpt>
      <trkpt lat="43.76593" lon="7.19217">
        <ele>86.123</ele>
        <time>2018-11-16T10:37:15.552Z</time>
      </trkpt>
      <trkpt lat="43.76594" lon="7.19235">
        <ele>86.768</ele>
        <time>2018-11-16T10:37:18.347Z</time>
      </trkpt>
      <trkpt lat="43.76598" lon="7.19252">
        <ele>87.723</ele>
        <time>2018-11-16T10:37:21.077Z</time>
      </trkpt>
      <trkpt lat="43.76605" lon="7.19275">
        <ele>88.551</ele>
        <time>2018-11-16T10:37:24.228Z</time>
      </trkpt>
      <trkpt lat="43.76616" lon="7.19309">
        <ele>89.034</ele>
        <time>2018-11-16T10:37:27.491Z</time>
      </trkpt>
      <trkpt lat="43.76632" lon="7.19341">
        <ele>89.214</ele>
        <time>2018-11-16T10:37:30.462Z</time>
      </trkpt>
      <trkpt lat="43.76648" lon="7.19373">
        <ele>89.062</ele>
        <time>2018-11-16T10:37:33.375Z</time>
      </trkpt>
      <trkpt lat="43.76664" lon="7.19407">
        <ele>88.37</ele>
        <time>2018-11-16T10:37:36.328Z</time>
      </trkpt>
      <trkpt lat="43.76676" lon="7.19442">
        <ele>87.214</ele>
        <time>2018-11-16T10:37:39.285Z</time>
      </trkpt>
      <trkpt lat="43.7668" lon="7.19479">
        <ele>86.087</ele>
        <time>2018-11-16T10:37:42.191Z</time>
      </trkpt>
      <trkpt lat="43.76681" lon="7.19516">
        <ele>85.365</ele>
        <time>2018-11-16T10:37:45.114Z</time>
      </trkpt>
      <trkpt lat="43.76684" lon="7.19554">
        <ele>84.943</ele>
        <time>2018-11-16T10:37:48.090Z</time>
      </trkpt>
      <trkpt lat="43.76685" lon="7.19593">
        <ele>84.47</ele>
        <time>2018-11-16T10:37:51.166Z</time>
      </trkpt>
      <trkpt lat="43.7668" lon="7.19626">
        <ele>83.699</ele>
        <time>2018-11-16T10:37:54.026Z</time>
      </trkpt>
      <trkpt lat="43.76676" lon="7.19653">
        <ele>82.595</ele>
        <time>2018-11-16T10:37:56.733Z</time>
      </trkpt>
      <trkpt lat="43.76677" lon="7.19682">
        <ele>81.277</ele>
        <time>2018-11-16T10:37:59.692Z</time>
      </trkpt>
      <trkpt lat="43.76683" lon="7.19712">
        <ele>79.964</ele>
        <time>2018-11-16T10:38:02.772Z</time>
      </trkpt>
      <trkpt lat="43.76689" lon="7.1974">
        <ele>78.784</ele>
        <time>2018-11-16T10:38:05.630Z</time>
      </trkpt>
      <trkpt lat="43.76698" lon="7.19766">
        <ele>77.669</ele>
        <time>2018-11-16T10:38:08.535Z</time>
      </trkpt>
      <trkpt lat="43.76707" lon="7.19795">
        <ele>76.38</ele>
        <time>2018-11-16T10:38:11.623Z</time>
      </trkpt>
      <trkpt lat="43.76721" lon="7.19818">
        <ele>74.751</ele>
        <time>2018-11-16T10:38:14.527Z</time>
      </trkpt>
      <trkpt lat="43.76734" lon="7.19843">
        <ele>73.039</ele>
        <time>2018-11-16T10:38:17.567Z</time>
      </trkpt>
      <trkpt lat="43.76741" lon="7.19861">
        <ele>71.675</ele>
        <time>2018-11-16T10:38:19.993Z</time>
      </trkpt>
      <trkpt lat="43.76741" lon="7.19861">
        <ele>70.823</ele>
        <time>2018-11-16T10:38:24.992Z</time>
      </trkpt>
      <trkpt lat="43.76741" lon="7.19861">
        <ele>70.474</ele>
        <time>2018-11-16T10:38:26.844Z</time>
      </trkpt>
      <trkpt lat="43.76729" lon="7.19883">
        <ele>70.495</ele>
        <time>2018-11-16T10:38:34.939Z</time>
      </trkpt>
      <trkpt lat="43.76711" lon="7.19876">
        <ele>70.046</ele>
        <time>2018-11-16T10:38:38.501Z</time>
      </trkpt>
      <trkpt lat="43.76707" lon="7.19852">
        <ele>68.46</ele>
        <time>2018-11-16T10:38:41.897Z</time>
      </trkpt>
      <trkpt lat="43.7671" lon="7.19833">
        <ele>66.478</ele>
        <time>2018-11-16T10:38:45.180Z</time>
      </trkpt>
      <trkpt lat="43.76701" lon="7.19818">
        <ele>65.206</ele>
        <time>2018-11-16T10:38:48.596Z</time>
      </trkpt>
      <trkpt lat="43.76688" lon="7.19821">
        <ele>64.938</ele>
        <time>2018-11-16T10:38:51.589Z</time>
      </trkpt>
      <trkpt lat="43.76674" lon="7.19827">
        <ele>65.405</ele>
        <time>2018-11-16T10:38:54.768Z</time>
      </trkpt>
      <trkpt lat="43.76676" lon="7.19844">
        <ele>65.832</ele>
        <time>2018-11-16T10:38:57.015Z</time>
      </trkpt>
      <trkpt lat="43.76689" lon="7.19868">
        <ele>65.438</ele>
        <time>2018-11-16T10:39:00.031Z</time>
      </trkpt>
      <trkpt lat="43.76694" lon="7.19903">
        <ele>64.349</ele>
        <time>2018-11-16T10:39:02.898Z</time>
      </trkpt>
      <trkpt lat="43.76694" lon="7.19943">
        <ele>63.383</ele>
        <time>2018-11-16T10:39:05.729Z</time>
      </trkpt>
      <trkpt lat="43.76683" lon="7.19983">
        <ele>63.059</ele>
        <time>2018-11-16T10:39:08.799Z</time>
      </trkpt>
      <trkpt lat="43.76669" lon="7.20013">
        <ele>63.261</ele>
        <time>2018-11-16T10:39:11.561Z</time>
      </trkpt>
      <trkpt lat="43.7665" lon="7.20036">
        <ele>63.647</ele>
        <time>2018-11-16T10:39:14.627Z</time>
      </trkpt>
      <trkpt lat="43.76633" lon="7.20053">
        <ele>63.958</ele>
        <time>2018-11-16T10:39:17.388Z</time>
      </trkpt>
      <trkpt lat="43.7662" lon="7.20074">
        <ele>64.124</ele>
        <time>2018-11-16T10:39:20.074Z</time>
      </trkpt>
      <trkpt lat="43.76603" lon="7.20096">
        <ele>64.174</ele>
        <time>2018-11-16T10:39:22.958Z</time>
      </trkpt>
      <trkpt lat="43.76595" lon="7.20135">
        <ele>64.166</ele>
        <time>2018-11-16T10:39:25.979Z</time>
      </trkpt>
      <trkpt lat="43.76588" lon="7.20176">
        <ele>64.147</ele>
        <time>2018-11-16T10:39:28.940Z</time>
      </trkpt>
      <trkpt lat="43.76572" lon="7.20209">
        <ele>64.135</ele>
        <time>2018-11-16T10:39:31.771Z</time>
      </trkpt>
      <trkpt lat="43.7656" lon="7.2023">
        <ele>63.851</ele>
        <time>2018-11-16T10:39:33.719Z</time>
      </trkpt>
      <trkpt lat="43.76549" lon="7.2025">
        <ele>63.121</ele>
        <time>2018-11-16T10:39:35.594Z</time>
      </trkpt>
      <trkpt lat="43.76539" lon="7.20268">
        <ele>62.504</ele>
        <time>2018-11-16T10:39:37.426Z</time>
      </trkpt>
      <trkpt lat="43.76529" lon="7.20288">
        <ele>62.584</ele>
        <time>2018-11-16T10:39:39.324Z</time>
      </trkpt>
      <trkpt lat="43.76519" lon="7.20308">
        <ele>63.181</ele>
        <time>2018-11-16T10:39:41.235Z</time>
      </trkpt>
      <trkpt lat="43.76508" lon="7.20328">
        <ele>63.955</ele>
        <time>2018-11-16T10:39:43.178Z</time>
      </trkpt>
      <trkpt lat="43.76497" lon="7.20349">
        <ele>64.711</ele>
        <time>2018-11-16T10:39:45.092Z</time>
      </trkpt>
      <trkpt lat="43.76485" lon="7.2037">
        <ele>65.254</ele>
        <time>2018-11-16T10:39:47.047Z</time>
      </trkpt>
      <trkpt lat="43.76473" lon="7.20391">
        <ele>65.508</ele>
        <time>2018-11-16T10:39:48.992Z</time>
      </trkpt>
      <trkpt lat="43.76461" lon="7.20413">
        <ele>65.602</ele>
        <time>2018-11-16T10:39:50.935Z</time>
      </trkpt>
      <trkpt lat="43.76448" lon="7.20434">
        <ele>65.657</ele>
        <time>2018-11-16T10:39:52.842Z</time>
      </trkpt>
      <trkpt lat="43.76439" lon="7.20452">
        <ele>65.723</ele>
        <time>2018-11-16T10:39:54.524Z</time>
      </trkpt>
      <trkpt lat="43.76432" lon="7.20466">
        <ele>65.813</ele>
        <time>2018-11-16T10:39:55.933Z</time>
      </trkpt>
      <trkpt lat="43.76426" lon="7.20479">
        <ele>65.964</ele>
        <time>2018-11-16T10:39:57.425Z</time>
      </trkpt>
      <trkpt lat="43.76421" lon="7.20493">
        <ele>66.202</ele>
        <time>2018-11-16T10:39:59.189Z</time>
      </trkpt>
      <trkpt lat="43.76415" lon="7.20502">
        <ele>66.466</ele>
        <time>2018-11-16T10:40:01.023Z</time>
      </trkpt>
      <trkpt lat="43.76402" lon="7.20507">
        <ele>66.67</ele>
        <time>2018-11-16T10:40:04.222Z</time>
      </trkpt>
      <trkpt lat="43.76387" lon="7.20496">
        <ele>66.803</ele>
        <time>2018-11-16T10:40:08.473Z</time>
      </trkpt>
      <trkpt lat="43.76372" lon="7.2048">
        <ele>66.861</ele>
        <time>2018-11-16T10:40:11.267Z</time>
      </trkpt>
      <trkpt lat="43.76353" lon="7.20463">
        <ele>66.837</ele>
        <time>2018-11-16T10:40:13.633Z</time>
      </trkpt>
      <trkpt lat="43.76333" lon="7.20443">
        <ele>66.773</ele>
        <time>2018-11-16T10:40:15.747Z</time>
      </trkpt>
      <trkpt lat="43.76299" lon="7.20411">
        <ele>66.697</ele>
        <time>2018-11-16T10:40:18.844Z</time>
      </trkpt>
      <trkpt lat="43.7626" lon="7.20374">
        <ele>66.178</ele>
        <time>2018-11-16T10:40:21.934Z</time>
      </trkpt>
      <trkpt lat="43.76225" lon="7.2033">
        <ele>64.97</ele>
        <time>2018-11-16T10:40:24.902Z</time>
      </trkpt>
      <trkpt lat="43.76189" lon="7.20291">
        <ele>63.687</ele>
        <time>2018-11-16T10:40:27.669Z</time>
      </trkpt>
      <trkpt lat="43.7615" lon="7.20252">
        <ele>62.877</ele>
        <time>2018-11-16T10:40:30.606Z</time>
      </trkpt>
      <trkpt lat="43.76109" lon="7.20211">
        <ele>62.423</ele>
        <time>2018-11-16T10:40:33.570Z</time>
      </trkpt>
      <trkpt lat="43.76073" lon="7.20171">
        <ele>62.011</ele>
        <time>2018-11-16T10:40:36.257Z</time>
      </trkpt>
      <trkpt lat="43.7603" lon="7.20129">
        <ele>61.402</ele>
        <time>2018-11-16T10:40:39.236Z</time>
      </trkpt>
      <trkpt lat="43.75991" lon="7.20091">
        <ele>60.735</ele>
        <time>2018-11-16T10:40:42.034Z</time>
      </trkpt>
      <trkpt lat="43.75951" lon="7.20058">
        <ele>60.279</ele>
        <time>2018-11-16T10:40:44.827Z</time>
      </trkpt>
      <trkpt lat="43.75913" lon="7.20023">
        <ele>60.077</ele>
        <time>2018-11-16T10:40:47.601Z</time>
      </trkpt>
      <trkpt lat="43.75876" lon="7.19983">
        <ele>60.046</ele>
        <time>2018-11-16T10:40:50.505Z</time>
      </trkpt>
      <trkpt lat="43.75836" lon="7.19945">
        <ele>60.084</ele>
        <time>2018-11-16T10:40:53.454Z</time>
      </trkpt>
      <trkpt lat="43.75799" lon="7.19908">
        <ele>60.124</ele>
        <time>2018-11-16T10:40:56.202Z</time>
      </trkpt>
      <trkpt lat="43.75763" lon="7.1987">
        <ele>60.144</ele>
        <time>2018-11-16T10:40:58.952Z</time>
      </trkpt>
      <trkpt lat="43.75727" lon="7.19835">
        <ele>60.159</ele>
        <time>2018-11-16T10:41:01.713Z</time>
      </trkpt>
      <trkpt lat="43.75696" lon="7.19808">
        <ele>60.196</ele>
        <time>2018-11-16T10:41:04.035Z</time>
      </trkpt>
      <trkpt lat="43.75672" lon="7.19798">
        <ele>60.238</ele>
        <time>2018-11-16T10:41:05.791Z</time>
      </trkpt>
      <trkpt lat="43.75657" lon="7.19792">
        <ele>60.236</ele>
        <time>2018-11-16T10:41:06.903Z</time>
      </trkpt>
      <trkpt lat="43.75641" lon="7.19765">
        <ele>60.173</ele>
        <time>2018-11-16T10:41:08.952Z</time>
      </trkpt>
      <trkpt lat="43.75625" lon="7.19765">
        <ele>60.084</ele>
        <time>2018-11-16T10:41:10.475Z</time>
      </trkpt>
      <trkpt lat="43.75625" lon="7.19797">
        <ele>60.01</ele>
        <time>2018-11-16T10:41:13.574Z</time>
      </trkpt>
      <trkpt lat="43.75641" lon="7.19822">
        <ele>59.969</ele>
        <time>2018-11-16T10:41:17.387Z</time>
      </trkpt>
      <trkpt lat="43.75639" lon="7.19847">
        <ele>59.955</ele>
        <time>2018-11-16T10:41:20.188Z</time>
      </trkpt>
      <trkpt lat="43.75615" lon="7.19855">
        <ele>59.954</ele>
        <time>2018-11-16T10:41:23.789Z</time>
      </trkpt>
      <trkpt lat="43.75588" lon="7.19847">
        <ele>60.027</ele>
        <time>2018-11-16T10:41:27.927Z</time>
      </trkpt>
      <trkpt lat="43.75563" lon="7.19857">
        <ele>60.375</ele>
        <time>2018-11-16T10:41:31.809Z</time>
      </trkpt>
      <trkpt lat="43.75537" lon="7.19866">
        <ele>61.058</ele>
        <time>2018-11-16T10:41:35.002Z</time>
      </trkpt>
      <trkpt lat="43.75516" lon="7.19849">
        <ele>61.899</ele>
        <time>2018-11-16T10:41:37.663Z</time>
      </trkpt>
      <trkpt lat="43.75513" lon="7.19803">
        <ele>63.038</ele>
        <time>2018-11-16T10:41:41.338Z</time>
      </trkpt>
      <trkpt lat="43.75494" lon="7.19769">
        <ele>64.965</ele>
        <time>2018-11-16T10:41:44.869Z</time>
      </trkpt>
      <trkpt lat="43.75474" lon="7.19743">
        <ele>67.5</ele>
        <time>2018-11-16T10:41:47.712Z</time>
      </trkpt>
      <trkpt lat="43.75459" lon="7.19732">
        <ele>69.634</ele>
        <time>2018-11-16T10:41:49.397Z</time>
      </trkpt>
      <trkpt lat="43.75437" lon="7.19755">
        <ele>70.62</ele>
        <time>2018-11-16T10:41:52.140Z</time>
      </trkpt>
      <trkpt lat="43.75424" lon="7.19791">
        <ele>70.632</ele>
        <time>2018-11-16T10:41:55.786Z</time>
      </trkpt>
      <trkpt lat="43.75406" lon="7.198">
        <ele>70.356</ele>
        <time>2018-11-16T10:41:58.211Z</time>
      </trkpt>
      <trkpt lat="43.75387" lon="7.1976">
        <ele>71.072</ele>
        <time>2018-11-16T10:42:02.443Z</time>
      </trkpt>
      <trkpt lat="43.75379" lon="7.19717">
        <ele>73.541</ele>
        <time>2018-11-16T10:42:06.294Z</time>
      </trkpt>
      <trkpt lat="43.75351" lon="7.19697">
        <ele>76.534</ele>
        <time>2018-11-16T10:42:09.242Z</time>
      </trkpt>
      <trkpt lat="43.75335" lon="7.19679">
        <ele>78.292</ele>
        <time>2018-11-16T10:42:11.134Z</time>
      </trkpt>
      <trkpt lat="43.7532" lon="7.19692">
        <ele>78.563</ele>
        <time>2018-11-16T10:42:12.812Z</time>
      </trkpt>
      <trkpt lat="43.75319" lon="7.1975">
        <ele>78.1</ele>
        <time>2018-11-16T10:42:18.181Z</time>
      </trkpt>
      <trkpt lat="43.75319" lon="7.19799">
        <ele>77.651</ele>
        <time>2018-11-16T10:42:22.329Z</time>
      </trkpt>
      <trkpt lat="43.75301" lon="7.19819">
        <ele>78.685</ele>
        <time>2018-11-16T10:42:24.359Z</time>
      </trkpt>
      <trkpt lat="43.75267" lon="7.19798">
        <ele>82.49</ele>
        <time>2018-11-16T10:42:27.956Z</time>
      </trkpt>
      <trkpt lat="43.75241" lon="7.19767">
        <ele>87.76</ele>
        <time>2018-11-16T10:42:31.435Z</time>
      </trkpt>
      <trkpt lat="43.75212" lon="7.19747">
        <ele>92.135</ele>
        <time>2018-11-16T10:42:34.263Z</time>
      </trkpt>
      <trkpt lat="43.75199" lon="7.1972">
        <ele>94.967</ele>
        <time>2018-11-16T10:42:36.364Z</time>
      </trkpt>
      <trkpt lat="43.75182" lon="7.19723">
        <ele>96.506</ele>
        <time>2018-11-16T10:42:37.993Z</time>
      </trkpt>
      <trkpt lat="43.75157" lon="7.19756">
        <ele>97.189</ele>
        <time>2018-11-16T10:42:42.156Z</time>
      </trkpt>
      <trkpt lat="43.75129" lon="7.19746">
        <ele>97.5</ele>
        <time>2018-11-16T10:42:45.867Z</time>
      </trkpt>
      <trkpt lat="43.75116" lon="7.19694">
        <ele>98.47</ele>
        <time>2018-11-16T10:42:50.195Z</time>
      </trkpt>
      <trkpt lat="43.75113" lon="7.19642">
        <ele>101.615</ele>
        <time>2018-11-16T10:42:53.704Z</time>
      </trkpt>
      <trkpt lat="43.75107" lon="7.19611">
        <ele>106.446</ele>
        <time>2018-11-16T10:42:55.832Z</time>
      </trkpt>
      <trkpt lat="43.75103" lon="7.19592">
        <ele>110.326</ele>
        <time>2018-11-16T10:42:57.297Z</time>
      </trkpt>
      <trkpt lat="43.75083" lon="7.19587">
        <ele>111.759</ele>
        <time>2018-11-16T10:42:59.800Z</time>
      </trkpt>
      <trkpt lat="43.75062" lon="7.19623">
        <ele>111.046</ele>
        <time>2018-11-16T10:43:04.807Z</time>
      </trkpt>
      <trkpt lat="43.75046" lon="7.19662">
        <ele>109.281</ele>
        <time>2018-11-16T10:43:08.501Z</time>
      </trkpt>
      <trkpt lat="43.75024" lon="7.19669">
        <ele>108.005</ele>
        <time>2018-11-16T10:43:10.899Z</time>
      </trkpt>
      <trkpt lat="43.75003" lon="7.19651">
        <ele>108.909</ele>
        <time>2018-11-16T10:43:13.873Z</time>
      </trkpt>
      <trkpt lat="43.74984" lon="7.19647">
        <ele>112.011</ele>
        <time>2018-11-16T10:43:16.431Z</time>
      </trkpt>
      <trkpt lat="43.74974" lon="7.19617">
        <ele>114.909</ele>
        <time>2018-11-16T10:43:19.724Z</time>
      </trkpt>
      <trkpt lat="43.7497" lon="7.19579">
        <ele>115.52</ele>
        <time>2018-11-16T10:43:23.462Z</time>
      </trkpt>
      <trkpt lat="43.74955" lon="7.19548">
        <ele>114.097</ele>
        <time>2018-11-16T10:43:26.841Z</time>
      </trkpt>
      <trkpt lat="43.74941" lon="7.19522">
        <ele>112.073</ele>
        <time>2018-11-16T10:43:29.673Z</time>
      </trkpt>
      <trkpt lat="43.74911" lon="7.19521">
        <ele>112.208</ele>
        <time>2018-11-16T10:43:33.106Z</time>
      </trkpt>
      <trkpt lat="43.74888" lon="7.19499">
        <ele>116.152</ele>
        <time>2018-11-16T10:43:36.085Z</time>
      </trkpt>
      <trkpt lat="43.74863" lon="7.19489">
        <ele>121.82</ele>
        <time>2018-11-16T10:43:38.988Z</time>
      </trkpt>
      <trkpt lat="43.74831" lon="7.19494">
        <ele>126.051</ele>
        <time>2018-11-16T10:43:42.656Z</time>
      </trkpt>
      <trkpt lat="43.74813" lon="7.19504">
        <ele>127.935</ele>
        <time>2018-11-16T10:43:45.064Z</time>
      </trkpt>
      <trkpt lat="43.74807" lon="7.19515">
        <ele>128.315</ele>
        <time>2018-11-16T10:43:46.934Z</time>
      </trkpt>
      <trkpt lat="43.74796" lon="7.19519">
        <ele>128.622</ele>
        <time>2018-11-16T10:43:49.815Z</time>
      </trkpt>
      <trkpt lat="43.74772" lon="7.1951">
        <ele>129.363</ele>
        <time>2018-11-16T10:43:55.193Z</time>
      </trkpt>
      <trkpt lat="43.74741" lon="7.19501">
        <ele>130.041</ele>
        <time>2018-11-16T10:43:58.776Z</time>
      </trkpt>
      <trkpt lat="43.7471" lon="7.19482">
        <ele>130.029</ele>
        <time>2018-11-16T10:44:01.833Z</time>
      </trkpt>
      <trkpt lat="43.74687" lon="7.19455">
        <ele>128.907</ele>
        <time>2018-11-16T10:44:04.545Z</time>
      </trkpt>
      <trkpt lat="43.7467" lon="7.19413">
        <ele>126.534</ele>
        <time>2018-11-16T10:44:07.493Z</time>
      </trkpt>
      <trkpt lat="43.74649" lon="7.19368">
        <ele>123.296</ele>
        <time>2018-11-16T10:44:10.556Z</time>
      </trkpt>
      <trkpt lat="43.7463" lon="7.19326">
        <ele>119.844</ele>
        <time>2018-11-16T10:44:13.317Z</time>
      </trkpt>
      <trkpt lat="43.7461" lon="7.1929">
        <ele>116.726</ele>
        <time>2018-11-16T10:44:16.017Z</time>
      </trkpt>
      <trkpt lat="43.74589" lon="7.1927">
        <ele>114.101</ele>
        <time>2018-11-16T10:44:18.410Z</time>
      </trkpt>
      <trkpt lat="43.74576" lon="7.19251">
        <ele>111.903</ele>
        <time>2018-11-16T10:44:20.450Z</time>
      </trkpt>
      <trkpt lat="43.74582" lon="7.19233">
        <ele>109.999</ele>
        <time>2018-11-16T10:44:22.355Z</time>
      </trkpt>
      <trkpt lat="43.74603" lon="7.19243">
        <ele>108.168</ele>
        <time>2018-11-16T10:44:26.268Z</time>
      </trkpt>
      <trkpt lat="43.7462" lon="7.19274">
        <ele>106.255</ele>
        <time>2018-11-16T10:44:30.514Z</time>
      </trkpt>
      <trkpt lat="43.74637" lon="7.19315">
        <ele>104.579</ele>
        <time>2018-11-16T10:44:34.095Z</time>
      </trkpt>
      <trkpt lat="43.74655" lon="7.19343">
        <ele>103.794</ele>
        <time>2018-11-16T10:44:36.809Z</time>
      </trkpt>
      <trkpt lat="43.74678" lon="7.19353">
        <ele>104.271</ele>
        <time>2018-11-16T10:44:39.397Z</time>
      </trkpt>
      <trkpt lat="43.74697" lon="7.19379">
        <ele>105.485</ele>
        <time>2018-11-16T10:44:42.425Z</time>
      </trkpt>
      <trkpt lat="43.74718" lon="7.19405">
        <ele>106.427</ele>
        <time>2018-11-16T10:44:45.491Z</time>
      </trkpt>
      <trkpt lat="43.74741" lon="7.19399">
        <ele>106.603</ele>
        <time>2018-11-16T10:44:48.166Z</time>
      </trkpt>
      <trkpt lat="43.74762" lon="7.19378">
        <ele>106.288</ele>
        <time>2018-11-16T10:44:51.411Z</time>
      </trkpt>
      <trkpt lat="43.74785" lon="7.19377">
        <ele>105.849</ele>
        <time>2018-11-16T10:44:54.363Z</time>
      </trkpt>
      <trkpt lat="43.748" lon="7.19403">
        <ele>104.387</ele>
        <time>2018-11-16T10:44:57.496Z</time>
      </trkpt>
      <trkpt lat="43.74811" lon="7.19429">
        <ele>100.944</ele>
        <time>2018-11-16T10:45:00.429Z</time>
      </trkpt>
      <trkpt lat="43.74822" lon="7.19434">
        <ele>96.878</ele>
        <time>2018-11-16T10:45:01.951Z</time>
      </trkpt>
      <trkpt lat="43.74819" lon="7.19422">
        <ele>94.036</ele>
        <time>2018-11-16T10:45:03.957Z</time>
      </trkpt>
      <trkpt lat="43.74803" lon="7.19383">
        <ele>92.543</ele>
        <time>2018-11-16T10:45:11.318Z</time>
      </trkpt>
      <trkpt lat="43.74782" lon="7.19363">
        <ele>91.583</ele>
        <time>2018-11-16T10:45:14.305Z</time>
      </trkpt>
      <trkpt lat="43.74751" lon="7.19374">
        <ele>90.375</ele>
        <time>2018-11-16T10:45:17.817Z</time>
      </trkpt>
      <trkpt lat="43.74728" lon="7.19374">
        <ele>89.021</ele>
        <time>2018-11-16T10:45:20.439Z</time>
      </trkpt>
      <trkpt lat="43.74721" lon="7.19333">
        <ele>88.384</ele>
        <time>2018-11-16T10:45:24.138Z</time>
      </trkpt>
      <trkpt lat="43.74714" lon="7.19304">
        <ele>88.674</ele>
        <time>2018-11-16T10:45:26.870Z</time>
      </trkpt>
      <trkpt lat="43.74687" lon="7.19293">
        <ele>89.003</ele>
        <time>2018-11-16T10:45:30.314Z</time>
      </trkpt>
      <trkpt lat="43.74671" lon="7.19265">
        <ele>87.916</ele>
        <time>2018-11-16T10:45:33.429Z</time>
      </trkpt>
      <trkpt lat="43.74661" lon="7.19236">
        <ele>85.347</ele>
        <time>2018-11-16T10:45:36.285Z</time>
      </trkpt>
      <trkpt lat="43.74645" lon="7.19213">
        <ele>82.797</ele>
        <time>2018-11-16T10:45:39.057Z</time>
      </trkpt>
      <trkpt lat="43.7463" lon="7.19177">
        <ele>80.969</ele>
        <time>2018-11-16T10:45:42.365Z</time>
      </trkpt>
      <trkpt lat="43.74621" lon="7.19153">
        <ele>79.221</ele>
        <time>2018-11-16T10:45:44.778Z</time>
      </trkpt>
      <trkpt lat="43.74598" lon="7.19134">
        <ele>77.111</ele>
        <time>2018-11-16T10:45:47.952Z</time>
      </trkpt>
      <trkpt lat="43.74577" lon="7.19108">
        <ele>74.416</ele>
        <time>2018-11-16T10:45:51.163Z</time>
      </trkpt>
      <trkpt lat="43.74561" lon="7.19088">
        <ele>71.272</ele>
        <time>2018-11-16T10:45:53.740Z</time>
      </trkpt>
      <trkpt lat="43.74555" lon="7.1905">
        <ele>68.513</ele>
        <time>2018-11-16T10:45:56.985Z</time>
      </trkpt>
      <trkpt lat="43.74539" lon="7.19018">
        <ele>66.855</ele>
        <time>2018-11-16T10:46:00.002Z</time>
      </trkpt>
      <trkpt lat="43.74516" lon="7.18986">
        <ele>65.621</ele>
        <time>2018-11-16T10:46:03.400Z</time>
      </trkpt>
      <trkpt lat="43.74493" lon="7.18972">
        <ele>63.607</ele>
        <time>2018-11-16T10:46:06.166Z</time>
      </trkpt>
      <trkpt lat="43.74465" lon="7.18967">
        <ele>60.827</ele>
        <time>2018-11-16T10:46:09.420Z</time>
      </trkpt>
      <trkpt lat="43.74443" lon="7.18968">
        <ele>58.254</ele>
        <time>2018-11-16T10:46:12.778Z</time>
      </trkpt>
      <trkpt lat="43.74435" lon="7.18958">
        <ele>56.319</ele>
        <time>2018-11-16T10:46:15.463Z</time>
      </trkpt>
      <trkpt lat="43.74443" lon="7.18948">
        <ele>54.781</ele>
        <time>2018-11-16T10:46:18.196Z</time>
      </trkpt>
      <trkpt lat="43.74447" lon="7.18925">
        <ele>53.44</ele>
        <time>2018-11-16T10:46:21.335Z</time>
      </trkpt>
      <trkpt lat="43.74456" lon="7.18898">
        <ele>52.43</ele>
        <time>2018-11-16T10:46:24.523Z</time>
      </trkpt>
      <trkpt lat="43.74465" lon="7.18873">
        <ele>51.855</ele>
        <time>2018-11-16T10:46:27.325Z</time>
      </trkpt>
      <trkpt lat="43.74474" lon="7.1885">
        <ele>51.624</ele>
        <time>2018-11-16T10:46:30.064Z</time>
      </trkpt>
      <trkpt lat="43.74483" lon="7.18823">
        <ele>51.575</ele>
        <time>2018-11-16T10:46:33.041Z</time>
      </trkpt>
      <trkpt lat="43.74493" lon="7.18796">
        <ele>51.587</ele>
        <time>2018-11-16T10:46:36.177Z</time>
      </trkpt>
      <trkpt lat="43.74498" lon="7.18779">
        <ele>51.603</ele>
        <time>2018-11-16T10:46:38.171Z</time>
      </trkpt>
      <trkpt lat="43.74502" lon="7.18767">
        <ele>51.608</ele>
        <time>2018-11-16T10:46:39.993Z</time>
      </trkpt>
      <trkpt lat="43.74505" lon="7.18749">
        <ele>51.606</ele>
        <time>2018-11-16T10:46:42.732Z</time>
      </trkpt>
      <trkpt lat="43.745" lon="7.18736">
        <ele>51.602</ele>
        <time>2018-11-16T10:46:45.556Z</time>
      </trkpt>
      <trkpt lat="43.7449" lon="7.18734">
        <ele>51.6</ele>
        <time>2018-11-16T10:46:48.474Z</time>
      </trkpt>
      <trkpt lat="43.74483" lon="7.18747">
        <ele>51.599</ele>
        <time>2018-11-16T10:46:50.688Z</time>
      </trkpt>
      <trkpt lat="43.74475" lon="7.18767">
        <ele>51.598</ele>
        <time>2018-11-16T10:46:52.952Z</time>
      </trkpt>
      <trkpt lat="43.74467" lon="7.18791">
        <ele>51.599</ele>
        <time>2018-11-16T10:46:55.098Z</time>
      </trkpt>
      <trkpt lat="43.74459" lon="7.18814">
        <ele>51.599</ele>
        <time>2018-11-16T10:46:57.080Z</time>
      </trkpt>
      <trkpt lat="43.74452" lon="7.18835">
        <ele>51.599</ele>
        <time>2018-11-16T10:46:58.960Z</time>
      </trkpt>
      <trkpt lat="43.74447" lon="7.18855">
        <ele>51.599</ele>
        <time>2018-11-16T10:47:00.781Z</time>
      </trkpt>
      <trkpt lat="43.74441" lon="7.18872">
        <ele>51.599</ele>
        <time>2018-11-16T10:47:02.625Z</time>
      </trkpt>
      <trkpt lat="43.74435" lon="7.18884">
        <ele>51.595</ele>
        <time>2018-11-16T10:47:04.243Z</time>
      </trkpt>
      <trkpt lat="43.74427" lon="7.1889">
        <ele>51.566</ele>
        <time>2018-11-16T10:47:05.956Z</time>
      </trkpt>
      <trkpt lat="43.74416" lon="7.18889">
        <ele>51.509</ele>
        <time>2018-11-16T10:47:08.247Z</time>
      </trkpt>
      <trkpt lat="43.74405" lon="7.18886">
        <ele>51.455</ele>
        <time>2018-11-16T10:47:10.342Z</time>
      </trkpt>
      <trkpt lat="43.74395" lon="7.18883">
        <ele>51.406</ele>
        <time>2018-11-16T10:47:12.285Z</time>
      </trkpt>
      <trkpt lat="43.74379" lon="7.18872">
        <ele>51.225</ele>
        <time>2018-11-16T10:47:15.352Z</time>
      </trkpt>
      <trkpt lat="43.74366" lon="7.1886">
        <ele>50.653</ele>
        <time>2018-11-16T10:47:18.233Z</time>
      </trkpt>
      <trkpt lat="43.74356" lon="7.18852">
        <ele>49.651</ele>
        <time>2018-11-16T10:47:20.747Z</time>
      </trkpt>
      <trkpt lat="43.74345" lon="7.1885">
        <ele>48.586</ele>
        <time>2018-11-16T10:47:23.591Z</time>
      </trkpt>
      <trkpt lat="43.74332" lon="7.18845">
        <ele>47.843</ele>
        <time>2018-11-16T10:47:26.780Z</time>
      </trkpt>
      <trkpt lat="43.74321" lon="7.1884">
        <ele>47.486</ele>
        <time>2018-11-16T10:47:29.426Z</time>
      </trkpt>
      <trkpt lat="43.74313" lon="7.18834">
        <ele>47.384</ele>
        <time>2018-11-16T10:47:32.415Z</time>
      </trkpt>
      <trkpt lat="43.74312" lon="7.1882">
        <ele>47.39</ele>
        <time>2018-11-16T10:47:36.249Z</time>
      </trkpt>
      <trkpt lat="43.74316" lon="7.18804">
        <ele>47.413</ele>
        <time>2018-11-16T10:47:39.755Z</time>
      </trkpt>
      <trkpt lat="43.7432" lon="7.18789">
        <ele>47.426</ele>
        <time>2018-11-16T10:47:42.922Z</time>
      </trkpt>
      <trkpt lat="43.74327" lon="7.18776">
        <ele>47.427</ele>
        <time>2018-11-16T10:47:46.017Z</time>
      </trkpt>
      <trkpt lat="43.74332" lon="7.18765">
        <ele>47.424</ele>
        <time>2018-11-16T10:47:48.998Z</time>
      </trkpt>
      <trkpt lat="43.74332" lon="7.18765">
        <ele>47.421</ele>
        <time>2018-11-16T10:47:55.998Z</time>
      </trkpt>
    </trkseg>
  </trk>
</gpx>